Provisional Data: Grays Run near Gray, PA


Please select a monitoring station.
Please select start date.
Please select start date.

Toggle Unit: C/F Toggle Unit: C/F
Sample Time Temperature (C) Temperature (F) Specific Conductivity (mS/cm) pH   Turbidity (NTU+) DO (mg/L)
10/20/2020 12:00:00 AM 11.38 52.484 0.035 6.39 1.82 8.55
10/20/2020 12:15:00 AM 11.42 52.556 0.036 6.47 1.84 8.97
10/20/2020 12:30:00 AM 11.44 52.592 0.035 6.52 1.81 9.04
10/20/2020 12:45:00 AM 11.45 52.61 0.035 6.46 1.81 9.06
10/20/2020 1:00:00 AM 11.46 52.628 0.035 6.52 1.8 9.1
10/20/2020 1:15:00 AM 11.47 52.646 0.035 6.49 1.82 9.19
10/20/2020 1:30:00 AM 11.49 52.682 0.035 6.54 1.83 9.19
10/20/2020 1:45:00 AM 11.51 52.718 0.035 6.53 1.8 9.14
10/20/2020 2:00:00 AM 11.51 52.718 0.035 6.52 1.83 9.11
10/20/2020 2:15:00 AM 11.52 52.736 0.035 6.53 1.8 9.17
10/20/2020 2:30:00 AM 11.52 52.736 0.035 6.51 1.79 9.12
10/20/2020 2:45:00 AM 11.55 52.79 0.035 6.52 1.8 9.26
10/20/2020 3:00:00 AM 11.56 52.808 0.035 6.55 1.81 9.26
10/20/2020 3:15:00 AM 11.61 52.898 0.035 6.65 1.81 9.56
10/20/2020 3:30:00 AM 11.61 52.898 0.035 6.67 1.81 9.57
10/20/2020 3:45:00 AM 11.62 52.916 0.035 6.68 1.78 9.59
10/20/2020 4:00:00 AM 11.62 52.916 0.035 6.67 1.83 9.6
10/20/2020 4:15:00 AM 11.62 52.916 0.035 6.67 1.85 9.6
10/20/2020 4:30:00 AM 11.63 52.934 0.035 6.66 1.8 9.59
10/20/2020 4:45:00 AM 11.63 52.934 0.035 6.64 1.81 9.58
10/20/2020 5:00:00 AM 11.64 52.952 0.035 6.66 1.83 9.6
10/20/2020 5:15:00 AM 11.63 52.934 0.035 6.64 1.81 9.48
10/20/2020 5:30:00 AM 11.65 52.97 0.035 6.69 1.8 9.64
10/20/2020 5:45:00 AM 11.64 52.952 0.035 6.66 1.83 9.57
10/20/2020 6:00:00 AM 11.66 52.988 0.035 6.64 1.8 9.59
10/20/2020 6:15:00 AM 11.65 52.97 0.035 6.65 1.85 9.64
10/20/2020 6:30:00 AM 11.65 52.97 0.035 6.65 1.84 9.67
10/20/2020 6:45:00 AM 11.64 52.952 0.035 6.66 1.84 9.68
10/20/2020 7:00:00 AM 11.63 52.934 0.035 6.64 1.81 9.68
10/20/2020 7:15:00 AM 11.63 52.934 0.035 6.64 1.82 9.69
10/20/2020 7:30:00 AM 11.63 52.934 0.035 6.64 2.85 9.72
10/20/2020 7:45:00 AM 11.63 52.934 0.035 6.63 1.79 9.76
10/20/2020 8:00:00 AM 11.63 52.934 0.035 6.63 1.81 9.76
10/20/2020 8:15:00 AM 11.63 52.934 0.035 6.6 1.79 9.76
10/20/2020 8:30:00 AM 11.64 52.952 0.035 6.62 1.89 9.78
10/20/2020 8:45:00 AM 11.64 52.952 0.035 6.6 1.76 9.79
10/20/2020 9:00:00 AM 11.64 52.952 0.035 6.6 1.75 9.78
10/20/2020 9:15:00 AM 11.66 52.988 0.035 6.62 1.75 9.83
10/20/2020 9:30:00 AM 11.68 53.024 0.035 6.58 1.76 9.85
10/20/2020 9:45:00 AM 11.71 53.078 0.035 6.64 1.75 9.97
10/20/2020 10:00:00 AM 11.77 53.186 0.035 6.59 1.75 9.98
10/20/2020 10:15:00 AM 11.83 53.294 0.035 6.64 1.79 10.05
10/20/2020 10:30:00 AM 11.84 53.312 0.035 6.64 1.8 10.03
10/20/2020 10:45:00 AM 11.86 53.348 0.035 6.65 1.8 10.02
10/20/2020 11:00:00 AM 11.98 53.564 0.034 6.67 1.73 10.14
10/20/2020 11:15:00 AM 12.1 53.78 0.034 6.65 1.76 10.15
10/20/2020 11:30:00 AM 12.15 53.87 0.034 6.67 1.75 10.21
10/20/2020 11:45:00 AM 12.18 53.924 0.034 6.67 1.76 10.2
10/20/2020 12:00:00 PM 12.21 53.978 0.034 6.67 1.74 10.19
10/20/2020 12:15:00 PM 12.29 54.122 0.034 6.67 1.73 10.18
10/20/2020 12:30:00 PM 12.24 54.032 0.034 6.65 1.75 10.08
10/20/2020 12:45:00 PM 12.23 54.014 0.034 6.63 1.75 10.05
10/20/2020 1:00:00 PM 12.24 54.032 0.034 6.63 1.79 9.98
10/20/2020 1:15:00 PM 12.27 54.086 0.034 6.62 1.82 10.01
10/20/2020 1:30:00 PM 12.33 54.194 0.034 6.64 1.74 10.04
10/20/2020 1:45:00 PM 12.36 54.248 0.034 6.62 1.77 10
10/20/2020 2:00:00 PM 12.45 54.41 0.034 6.58 1.73 10.06
10/20/2020 2:15:00 PM 12.47 54.446 0.034 6.64 1.74 10.03
10/20/2020 2:30:00 PM 12.44 54.392 0.034 6.65 1.75 10
10/20/2020 2:45:00 PM 12.46 54.428 0.034 6.66 1.75 9.97
10/20/2020 3:00:00 PM 12.43 54.374 0.034 6.63 1.75 9.95
10/20/2020 3:15:00 PM 12.46 54.428 0.034 6.62 1.79 9.88
10/20/2020 3:30:00 PM 12.45 54.41 0.034 6.52 1.97 9.72
10/20/2020 3:45:00 PM 12.47 54.446 0.034 6.61 1.77 9.83
10/20/2020 4:00:00 PM 12.48 54.464 0.034 6.64 1.81 9.86
10/20/2020 4:15:00 PM 12.45 54.41 0.034 6.59 1.79 9.76
10/20/2020 4:30:00 PM 12.43 54.374 0.034 6.6 1.76 9.81
10/20/2020 4:45:00 PM 12.46 54.428 0.034 6.6 1.78 9.84
10/20/2020 5:00:00 PM 12.42 54.356 0.034 6.6 1.76 9.71
10/20/2020 5:15:00 PM 12.37 54.266 0.034 6.56 1.78 9.62
10/20/2020 5:30:00 PM 12.36 54.248 0.035 6.6 1.77 9.62
10/20/2020 5:45:00 PM 12.29 54.122 0.035 6.51 1.75 9.43
10/20/2020 6:00:00 PM 12.27 54.086 0.035 6.49 1.75 9.38
10/20/2020 6:15:00 PM 12.27 54.086 0.035 6.5 1.76 9.34
10/20/2020 6:30:00 PM 12.27 54.086 0.035 6.51 1.79 9.37
10/20/2020 6:45:00 PM 12.26 54.068 0.035 6.51 1.77 9.37
10/20/2020 7:00:00 PM 12.26 54.068 0.035 6.51 1.79 9.35
10/20/2020 7:15:00 PM 12.12 53.816 0.035 6.43 1.77 9.02
10/20/2020 7:30:00 PM 12.13 53.834 0.035 6.41 1.86 9.02
10/20/2020 7:45:00 PM 12.09 53.762 0.035 6.4 1.78 9
10/20/2020 8:00:00 PM 12.02 53.636 0.035 6.4 1.76 8.96
10/20/2020 8:15:00 PM 12 53.6 0.035 6.36 1.77 8.89
10/20/2020 8:30:00 PM 12.08 53.744 0.035 6.47 1.8 9.16
10/20/2020 8:45:00 PM 12.08 53.744 0.035 6.42 1.81 9.17
10/20/2020 9:00:00 PM 12.08 53.744 0.035 6.51 1.76 9.28
10/20/2020 9:15:00 PM 12.04 53.672 0.035 6.48 1.79 9.18
10/20/2020 9:30:00 PM 11.98 53.564 0.035 6.46 1.78 9.16
10/20/2020 9:45:00 PM 11.97 53.546 0.035 6.4 1.79 9.09
10/20/2020 10:00:00 PM 12 53.6 0.035 6.5 1.78 9.24
10/20/2020 10:15:00 PM 12.01 53.618 0.035 6.52 1.8 9.32
10/20/2020 10:30:00 PM 11.98 53.564 0.035 6.53 1.78 9.27
10/20/2020 10:45:00 PM 11.97 53.546 0.035 6.51 1.79 9.26
10/20/2020 11:00:00 PM 11.97 53.546 0.035 6.54 1.76 9.35
10/20/2020 11:15:00 PM 11.96 53.528 0.035 6.53 1.83 9.33
10/20/2020 11:30:00 PM 11.95 53.51 0.035 6.53 1.76 9.33
10/20/2020 11:45:00 PM 11.93 53.474 0.035 6.52 1.82 9.33
10/21/2020 12:00:00 AM 11.93 53.474 0.035 6.56 1.81 9.39
10/21/2020 12:15:00 AM 11.9 53.42 0.035 6.53 1.84 9.38
10/21/2020 12:30:00 AM 11.87 53.366 0.035 6.53 1.83 9.41
10/21/2020 12:45:00 AM 11.83 53.294 0.035 6.55 1.84 9.39
10/21/2020 1:00:00 AM 11.8 53.24 0.035 6.57 1.8 9.47
10/21/2020 1:15:00 AM 11.76 53.168 0.035 6.54 1.79 9.41
10/21/2020 1:30:00 AM 11.73 53.114 0.035 6.53 1.79 9.39
10/21/2020 1:45:00 AM 11.71 53.078 0.035 6.53 1.81 9.5
10/21/2020 2:00:00 AM 11.7 53.06 0.035 6.46 1.8 9.46
10/21/2020 2:15:00 AM 11.7 53.06 0.035 6.51 1.8 9.45
10/21/2020 2:30:00 AM 11.7 53.06 0.035 6.59 1.8 9.63
10/21/2020 2:45:00 AM 11.7 53.06 0.035 6.59 1.79 9.61
10/21/2020 3:00:00 AM 11.69 53.042 0.035 6.58 1.81 9.59
10/21/2020 3:15:00 AM 11.68 53.024 0.035 6.56 1.77 9.53
10/21/2020 3:30:00 AM 11.67 53.006 0.035 6.56 1.78 9.52
10/21/2020 3:45:00 AM 11.66 52.988 0.035 6.4 1.77 9.4
10/21/2020 4:00:00 AM 11.66 52.988 0.035 6.53 1.77 9.54
10/21/2020 4:15:00 AM 11.66 52.988 0.035 6.58 1.82 9.61
10/21/2020 4:30:00 AM 11.66 52.988 0.035 6.56 1.86 9.53
10/21/2020 4:45:00 AM 11.65 52.97 0.035 6.52 1.78 9.48
10/21/2020 5:00:00 AM 11.65 52.97 0.035 6.52 1.81 9.42
10/21/2020 5:15:00 AM 11.65 52.97 0.035 6.54 1.81 9.48
10/21/2020 5:30:00 AM 11.64 52.952 0.035 6.44 1.79 9.24
10/21/2020 5:45:00 AM 11.64 52.952 0.035 6.5 1.76 9.32
10/21/2020 6:00:00 AM 11.64 52.952 0.035 6.45 1.78 9.25
10/21/2020 6:15:00 AM 11.63 52.934 0.035 6.44 1.77 9.25
10/21/2020 6:30:00 AM 11.64 52.952 0.035 6.47 1.78 9.25
10/21/2020 6:45:00 AM 11.65 52.97 0.035 6.48 1.82 9.31
10/21/2020 7:00:00 AM 11.65 52.97 0.035 6.47 1.77 9.28
10/21/2020 7:15:00 AM 11.65 52.97 0.035 6.45 1.8 9.29
10/21/2020 7:30:00 AM 11.65 52.97 0.035 6.48 1.84 9.32
10/21/2020 7:45:00 AM 11.65 52.97 0.035 6.44 1.81 9.22
10/21/2020 8:00:00 AM 11.66 52.988 0.035 6.43 1.76 9.26
10/21/2020 8:15:00 AM 11.67 53.006 0.035 6.45 1.75 9.19
10/21/2020 8:30:00 AM 11.7 53.06 0.035 6.44 1.87 9.2
10/21/2020 8:45:00 AM 11.74 53.132 0.035 6.43 1.78 9.27
10/21/2020 9:00:00 AM 11.79 53.222 0.035 6.44 1.78 9.32
10/21/2020 9:15:00 AM 11.83 53.294 0.035 6.42 1.77 9.35
10/21/2020 9:30:00 AM 11.92 53.456 0.035 6.47 1.78 9.46
10/21/2020 9:45:00 AM 11.97 53.546 0.035 6.44 1.8 9.42
10/21/2020 10:00:00 AM 12.05 53.69 0.035 6.45 1.79 9.52
10/21/2020 10:15:00 AM 11.97 53.546 0.035 6.31 1.8 8.98
10/21/2020 10:30:00 AM 12.04 53.672 0.035 6.38 1.77 9.08
10/21/2020 10:45:00 AM 12.07 53.726 0.035 6.35 1.79 8.97
10/21/2020 11:00:00 AM 12.11 53.798 0.035 6.36 1.8 8.96
10/21/2020 11:15:00 AM 12.18 53.924 0.035 6.35 1.75 8.94
10/21/2020 11:30:00 AM 12.32 54.176 0.035 6.4 1.77 9.21
10/21/2020 11:45:00 AM 12.55 54.59 0.035 6.4 1.8 9.25
10/21/2020 12:00:00 PM 12.55 54.59 0.035 6.37 1.79 9.02
10/21/2020 12:15:00 PM 12.51 54.518 0.035 6.37 1.82 9.3
10/21/2020 12:30:00 PM 12.53 54.554 0.035 6.39 1.76 9.05
10/21/2020 12:45:00 PM 12.52 54.536 0.035 6.35 1.75 9.04
10/21/2020 1:00:00 PM 12.55 54.59 0.035 6.35 1.79 9.22
10/21/2020 1:15:00 PM 12.65 54.77 0.035 6.34 1.77 9.07
10/21/2020 1:30:00 PM 12.95 55.31 0.035 6.39 1.8 9.4
10/21/2020 1:45:00 PM 12.98 55.364 0.035 6.38 1.77 9.11
10/21/2020 2:00:00 PM 13.11 55.598 0.034 6.4 1.76 9.43
10/21/2020 2:15:00 PM 12.89 55.202 0.035 6.4 1.79 9
10/21/2020 2:30:00 PM 12.99 55.382 0.035 6.37 1.76 8.87
10/21/2020 2:45:00 PM 12.95 55.31 0.035 6.39 1.76 9.08
10/21/2020 3:00:00 PM 12.88 55.184 0.035 6.35 1.77 8.99
10/21/2020 3:15:00 PM 12.88 55.184 0.035 6.28 1.79 8.94
10/21/2020 3:30:00 PM 12.82 55.076 0.035 6.33 1.77 8.85
10/21/2020 3:45:00 PM 12.76 54.968 0.035 6.35 1.81 8.81
10/21/2020 4:00:00 PM 12.82 55.076 0.035 6.32 1.78 8.79
10/21/2020 4:15:00 PM 12.77 54.986 0.035 6.32 1.76 8.65
10/21/2020 4:30:00 PM 12.87 55.166 0.035 6.36 1.83 8.62
10/21/2020 4:45:00 PM 12.68 54.824 0.035 6.25 1.8 8.5
10/21/2020 5:00:00 PM 12.82 55.076 0.035 6.33 1.84 8.82
10/21/2020 5:15:00 PM 12.77 54.986 0.035 6.31 1.82 8.82
10/21/2020 5:30:00 PM 12.7 54.86 0.035 6.32 1.81 8.78
10/21/2020 5:45:00 PM 12.69 54.842 0.035 6.32 1.75 8.74
10/21/2020 6:00:00 PM 12.73 54.914 0.035 6.3 1.82 8.57
10/21/2020 6:15:00 PM 12.58 54.644 0.035 6.3 1.79 8.47
10/21/2020 6:30:00 PM 12.5 54.5 0.035 6.26 1.79 8.3
10/21/2020 6:45:00 PM 12.57 54.626 0.035 6.26 1.85 8.47
10/21/2020 7:00:00 PM 12.61 54.698 0.035 6.31 1.82 8.54
10/21/2020 7:15:00 PM 12.63 54.734 0.035 6.31 1.84 8.7
10/21/2020 7:30:00 PM 12.54 54.572 0.035 6.27 1.8 8.53
10/21/2020 7:45:00 PM 12.53 54.554 0.035 6.29 1.81 8.6
10/21/2020 8:00:00 PM 12.45 54.41 0.035 6.27 1.82 8.53
10/21/2020 8:15:00 PM 12.46 54.428 0.035 6.27 1.84 8.51
10/21/2020 8:30:00 PM 12.4 54.32 0.035 6.26 1.8 8.49
10/21/2020 8:45:00 PM 12.37 54.266 0.035 6.19 1.8 8.54
10/21/2020 9:00:00 PM 12.35 54.23 0.035 6.23 1.84 8.54
10/21/2020 9:15:00 PM 12.34 54.212 0.035 6.26 1.83 8.29
10/21/2020 9:30:00 PM 12.32 54.176 0.035 6.25 1.81 8.56
10/21/2020 9:45:00 PM 12.33 54.194 0.035 6.3 1.79 8.48
10/21/2020 10:00:00 PM 12.26 54.068 0.035 6.24 1.8 8.45
10/21/2020 10:15:00 PM 12.26 54.068 0.035 6.28 1.81 8.42
10/21/2020 10:30:00 PM 12.21 53.978 0.035 6.22 1.82 8.33
10/21/2020 10:45:00 PM 12.21 53.978 0.035 6.23 1.82 8.39
10/21/2020 11:00:00 PM 12.29 54.122 0.035 6.25 1.79 8.52
10/21/2020 11:15:00 PM 12.25 54.05 0.035 6.28 1.83 8.52
10/21/2020 11:30:00 PM 12.21 53.978 0.035 6.26 1.83 8.5
10/21/2020 11:45:00 PM 12.19 53.942 0.035 6.24 1.83 8.5
10/22/2020 12:00:00 AM 12.2 53.96 0.035 6.26 1.82 8.47
10/22/2020 12:15:00 AM 12.25 54.05 0.035 6.29 1.79 8.62
10/22/2020 12:30:00 AM 12.22 53.996 0.035 6.27 1.82 8.57
10/22/2020 12:45:00 AM 12.19 53.942 0.035 6.21 1.82 8.54
10/22/2020 1:00:00 AM 12.14 53.852 0.035 6.25 1.82 8.53
10/22/2020 1:15:00 AM 12.12 53.816 0.035 6.25 1.82 8.5
10/22/2020 1:30:00 AM 12.1 53.78 0.035 6.29 1.82 8.45
10/22/2020 1:45:00 AM 12.12 53.816 0.035 6.26 1.74 8.55
10/22/2020 2:00:00 AM 12.14 53.852 0.035 6.26 1.78 8.56
10/22/2020 2:15:00 AM 12.05 53.69 0.035 6.22 1.8 8.35
10/22/2020 2:30:00 AM 12.1 53.78 0.035 6.2 1.85 8.45
10/22/2020 2:45:00 AM 12.08 53.744 0.035 6.23 1.81 8.18
10/22/2020 3:00:00 AM 12.08 53.744 0.035 6.26 1.79 8.47
10/22/2020 3:15:00 AM 12.02 53.636 0.035 6.21 1.85 8.03
10/22/2020 3:30:00 AM 12.01 53.618 0.035 6.22 1.83 8.42
10/22/2020 3:45:00 AM 12.06 53.708 0.035 6.14 1.86 8.31
10/22/2020 4:00:00 AM 12.03 53.654 0.035 6.27 1.8 8.42
10/22/2020 4:15:00 AM 12.07 53.726 0.035 6.28 1.83 8.5
10/22/2020 4:30:00 AM 12.02 53.636 0.035 6.26 1.82 8.5
10/22/2020 4:45:00 AM 12.06 53.708 0.035 6.26 1.79 8.47
10/22/2020 5:00:00 AM 12.01 53.618 0.035 6.21 1.87 8.42
10/22/2020 5:15:00 AM 11.98 53.564 0.035 6.19 1.81 8.34
10/22/2020 5:30:00 AM 12.04 53.672 0.035 6.15 1.8 8.07
10/22/2020 5:45:00 AM 12.02 53.636 0.035 6.15 1.82 8.29
10/22/2020 6:00:00 AM 11.98 53.564 0.035 6.21 1.84 8.01
10/22/2020 6:15:00 AM 11.95 53.51 0.035 6.19 1.84 8.23
10/22/2020 6:30:00 AM 12.07 53.726 0.035 6.23 1.84 8.46
10/22/2020 6:45:00 AM 11.87 53.366 0.035 6.11 1.86 7.91
10/22/2020 7:00:00 AM 12.01 53.618 0.035 6.24 1.83 8.22
10/22/2020 7:15:00 AM 11.96 53.528 0.035 6.22 1.83 8.32
10/22/2020 7:30:00 AM 11.91 53.438 0.035 6.17 1.87 7.95
10/22/2020 7:45:00 AM 11.91 53.438 0.035 6.2 1.83 8.01
10/22/2020 8:00:00 AM 11.91 53.438 0.035 6.17 1.83 8.12
10/22/2020 8:15:00 AM 11.93 53.474 0.035 6.23 1.8 8.23
10/22/2020 8:30:00 AM 11.9 53.42 0.035 6.18 1.86 8.17
10/22/2020 8:45:00 AM 11.92 53.456 0.035 6.2 1.8 8.11
10/22/2020 9:00:00 AM 11.92 53.456 0.035 6.17 1.85 8.1
10/22/2020 9:15:00 AM 11.85 53.33 0.035 6.12 1.81 7.92
10/22/2020 9:30:00 AM 11.96 53.528 0.035 6.16 1.83 8.35
10/22/2020 9:45:00 AM 11.91 53.438 0.035 6.14 1.83 8.02
10/22/2020 10:00:00 AM 11.98 53.564 0.035 6.22 1.79 8.12
10/22/2020 10:15:00 AM 12.01 53.618 0.035 6.21 1.81 8.45
10/22/2020 10:30:00 AM 12.17 53.906 0.035 6.22 1.81 8.31
10/22/2020 10:45:00 AM 12.3 54.14 0.035 6.25 1.8 8.23
10/22/2020 11:00:00 AM 12.56 54.608 0.035 6.26 1.8 8.65
10/22/2020 11:15:00 AM 12.59 54.662 0.035 6.22 1.77 8.46
10/22/2020 11:30:00 AM 12.61 54.698 0.035 6.18 1.88 8.04
10/22/2020 11:45:00 AM 12.78 55.004 0.035 6.23 1.87 8.54
10/22/2020 12:00:00 PM 13.13 55.634 0.035 6.27 1.75 8.58
10/22/2020 12:15:00 PM 13.24 55.832 0.035 6.27 1.79 8.69
10/22/2020 12:30:00 PM 13.08 55.544 0.035 6.25 1.88 8.54
10/22/2020 12:45:00 PM 13.12 55.616 0.035 6.17 1.81 8.21
10/22/2020 1:00:00 PM 13.23 55.814 0.035 6.17 1.81 8.3
10/22/2020 1:15:00 PM 13.39 56.102 0.035 6.15 1.81 8.73
10/22/2020 1:30:00 PM 13.38 56.084 0.035 6.2 1.8 8.35
10/22/2020 1:45:00 PM 13.47 56.246 0.035 6.22 1.77 8.2
10/22/2020 2:00:00 PM 13.43 56.174 0.035 6.29 1.79 8.76
10/22/2020 2:15:00 PM 13.4 56.12 0.035 6.21 1.83 8.49
10/22/2020 2:30:00 PM 13.29 55.922 0.035 6.26 1.83 8.33
10/22/2020 2:45:00 PM 13.06 55.508 0.035 6.3 1.82 8.24
10/22/2020 3:00:00 PM 13.1 55.58 0.035 6.25 1.8 8.57
10/22/2020 3:15:00 PM 13.17 55.706 0.035 6.24 1.83 8.38
10/22/2020 3:30:00 PM 13.18 55.724 0.035 6.25 1.81 8.46
10/22/2020 3:45:00 PM 13.14 55.652 0.035 6.39 1.83 8.52
10/22/2020 4:00:00 PM 13.11 55.598 0.035 6.17 1.85 8.15
10/22/2020 4:15:00 PM 13.02 55.436 0.035 6.13 1.82 8.14
10/22/2020 4:30:00 PM 12.91 55.238 0.035 6.12 1.82 8.35
10/22/2020 4:45:00 PM 12.89 55.202 0.035 6.17 1.84 8.26
10/22/2020 5:00:00 PM 12.93 55.274 0.035 6.06 1.85 8.25
10/22/2020 5:15:00 PM 12.82 55.076 0.035 6.03 1.83 8.04
10/22/2020 5:30:00 PM 12.83 55.094 0.035 6.19 1.83 7.93
10/22/2020 5:45:00 PM 12.76 54.968 0.035 6.1 1.84 8.02
10/22/2020 6:00:00 PM 12.81 55.058 0.035 6.15 1.87 7.82
10/22/2020 6:15:00 PM 12.69 54.842 0.035 6.14 1.81 8.02
10/22/2020 6:30:00 PM 12.55 54.59 0.035 6.12 1.9 7.73
10/22/2020 6:45:00 PM 12.76 54.968 0.035 6.12 1.85 7.96
10/22/2020 7:00:00 PM 12.53 54.554 0.035 6.13 1.86 7.7
10/22/2020 7:15:00 PM 12.6 54.68 0.035 6.16 1.84 7.98
10/22/2020 7:30:00 PM 12.68 54.824 0.035 6.13 1.88 7.82
10/22/2020 7:45:00 PM 12.55 54.59 0.035 6.08 1.88 7.89
10/22/2020 8:00:00 PM 12.42 54.356 0.035 6.12 1.85 8.01
10/22/2020 8:15:00 PM 12.43 54.374 0.035 6.15 1.86 7.7
10/22/2020 8:30:00 PM 12.43 54.374 0.035 6.11 1.85 7.63
10/22/2020 8:45:00 PM 12.31 54.158 0.035 6.15 1.85 7.5
10/22/2020 9:00:00 PM 12.37 54.266 0.035 6.12 1.83 7.65
10/22/2020 9:15:00 PM 12.23 54.014 0.035 6.07 1.84 7.6
10/22/2020 9:30:00 PM 12.24 54.032 0.035 6.04 1.89 7.68
10/22/2020 9:45:00 PM 12.22 53.996 0.035 6.11 1.87 7.62
10/22/2020 10:00:00 PM 12.13 53.834 0.035 6.09 1.86 7.37
10/22/2020 10:15:00 PM 12.2 53.96 0.035 6.11 1.84 7.53
10/22/2020 10:30:00 PM 12.21 53.978 0.035 6.15 1.87 7.85
10/22/2020 10:45:00 PM 12.14 53.852 0.035 6.12 1.85 7.48
10/22/2020 11:00:00 PM 12.17 53.906 0.035 6.14 1.91 7.83
10/22/2020 11:15:00 PM 12.06 53.708 0.035 6.05 1.86 7.45
10/22/2020 11:30:00 PM 12.07 53.726 0.035 6.09 1.83 7.72
10/22/2020 11:45:00 PM 12.12 53.816 0.035 6.08 1.87 7.57
10/23/2020 12:00:00 AM 12.15 53.87 0.035 6.13 1.86 7.63
10/23/2020 12:15:00 AM 12.1 53.78 0.035 6.1 1.85 7.51
10/23/2020 12:30:00 AM 12.06 53.708 0.035 6.1 1.89 7.47
10/23/2020 12:45:00 AM 12.13 53.834 0.035 6.11 1.84 7.68
10/23/2020 1:00:00 AM 12.01 53.618 0.036 6.13 1.88 7.55
10/23/2020 1:15:00 AM 12.11 53.798 0.035 6.14 1.87 7.29
10/23/2020 1:30:00 AM 12.04 53.672 0.035 6.11 1.97 7.52
10/23/2020 1:45:00 AM 12.04 53.672 0.035 6.08 1.88 7.54
10/23/2020 2:00:00 AM 12.1 53.78 0.035 6.14 1.87 7.6
10/23/2020 2:15:00 AM 12.13 53.834 0.035 6.12 2.02 7.57
10/23/2020 2:30:00 AM 12.11 53.798 0.035 6.16 1.86 7.76
10/23/2020 2:45:00 AM 12.14 53.852 0.035 6.12 1.88 7.62
10/23/2020 3:00:00 AM 12.14 53.852 0.035 6.12 1.93 7.63
10/23/2020 3:15:00 AM 12.16 53.888 0.035 6.1 1.96 7.86
10/23/2020 3:30:00 AM 12.22 53.996 0.035 6.15 1.82 7.82
10/23/2020 3:45:00 AM 12.2 53.96 0.035 6.26 1.9 7.98
10/23/2020 4:00:00 AM 12.24 54.032 0.035 6.19 1.88 8.01
10/23/2020 4:15:00 AM 12.25 54.05 0.035 6.23 1.84 7.99
10/23/2020 4:30:00 AM 12.3 54.14 0.035 6.23 1.9 8.01
10/23/2020 4:45:00 AM 12.35 54.23 0.035 6.18 1.88 8.07
10/23/2020 5:00:00 AM 12.32 54.176 0.035 6.27 1.9 8.32
10/23/2020 5:15:00 AM 12.37 54.266 0.035 6.25 1.91 8.03
10/23/2020 5:30:00 AM 12.34 54.212 0.035 6.28 1.89 8
10/23/2020 5:45:00 AM 12.36 54.248 0.035 6.24 1.89 8.17
10/23/2020 6:00:00 AM 12.36 54.248 0.035 6.23 1.86 8.16
10/23/2020 6:15:00 AM 12.35 54.23 0.035 6.22 1.91 8.06
10/23/2020 6:30:00 AM 12.31 54.158 0.035 6.2 1.87 8.05
10/23/2020 6:45:00 AM 12.32 54.176 0.035 6.22 1.89 8.17
10/23/2020 7:00:00 AM 12 53.6 0.036 6.01 1.99 7.47
10/23/2020 7:15:00 AM 12.44 54.392 0.035 6.27 1.88 8.3
10/23/2020 7:30:00 AM 12.5 54.5 0.035 6.3 1.85 8.4
10/23/2020 7:45:00 AM 12.51 54.518 0.035 6.3 1.91 8.38
10/23/2020 8:00:00 AM 12.41 54.338 0.035 6.26 1.89 8.35
10/23/2020 8:15:00 AM 12.41 54.338 0.035 6.27 1.84 8.34
10/23/2020 8:30:00 AM 12.53 54.554 0.035 6.3 1.85 8.42
10/23/2020 8:45:00 AM 12.45 54.41 0.035 6.29 1.87 8.38
10/23/2020 9:00:00 AM 12.48 54.464 0.035 6.25 1.88 8.3
10/23/2020 9:15:00 AM 12.47 54.446 0.035 6.31 1.88 8.56
10/23/2020 9:30:00 AM 12.57 54.626 0.035 6.28 1.87 8.56
10/23/2020 9:45:00 AM 12.59 54.662 0.035 6.31 2.02 8.65
10/23/2020 10:00:00 AM 12.69 54.842 0.035 6.33 1.94 8.73
10/23/2020 10:15:00 AM 12.69 54.842 0.035 6.3 1.88 8.7
10/23/2020 10:30:00 AM 12.62 54.716 0.035 6.28 1.89 8.62
10/23/2020 10:45:00 AM 12.69 54.842 0.035 6.33 1.75 8.79
10/23/2020 11:00:00 AM 12.74 54.932 0.035 6.3 1.73 8.76
10/23/2020 11:15:00 AM 12.7 54.86 0.035 6.29 1.71 8.69
10/23/2020 11:30:00 AM 12.63 54.734 0.035 6.24 1.71 8.69
10/23/2020 11:45:00 AM 12.6 54.68 0.035 6.27 1.76 8.59
10/23/2020 12:00:00 PM 12.74 54.932 0.035 6.27 1.91 8.73
10/23/2020 12:15:00 PM 12.8 55.04 0.035 6.31 1.93 8.76
10/23/2020 12:30:00 PM 12.83 55.094 0.035 6.34 1.73 8.87
10/23/2020 12:45:00 PM 12.83 55.094 0.035 6.29 1.71 8.8
10/23/2020 1:00:00 PM 12.89 55.202 0.035 6.32 1.77 8.8
10/23/2020 1:15:00 PM 12.86 55.148 0.035 6.29 1.8 8.71
10/23/2020 1:30:00 PM 12.76 54.968 0.035 6.26 1.73 8.77
10/23/2020 1:45:00 PM 12.76 54.968 0.035 6.24 1.72 8.63
10/23/2020 2:00:00 PM 12.91 55.238 0.035 6.29 1.71 8.81
10/23/2020 2:15:00 PM 13.02 55.436 0.035 6.33 1.69 8.9
10/23/2020 2:30:00 PM 13.14 55.652 0.035 6.33 1.71 8.96
10/23/2020 2:45:00 PM 13.11 55.598 0.035 6.32 1.72 8.89
10/23/2020 3:00:00 PM 13.07 55.526 0.035 6.31 1.67 8.91
10/23/2020 3:15:00 PM 13.03 55.454 0.035 6.29 1.69 8.76
10/23/2020 3:30:00 PM 13.05 55.49 0.035 6.29 1.68 8.78
10/23/2020 3:45:00 PM 12.96 55.328 0.035 6.29 1.68 8.68
10/23/2020 4:00:00 PM 12.73 54.914 0.035 6.27 1.75 8.14
10/23/2020 4:15:00 PM 12.48 54.464 0.035 6.14 1.71 8.04
10/23/2020 4:30:00 PM 12.83 55.094 0.035 6.27 1.67 8.49
10/23/2020 4:45:00 PM 12.87 55.166 0.035 6.24 1.7 8.39
10/23/2020 5:00:00 PM 12.98 55.364 0.035 6.32 1.68 8.53
10/23/2020 5:15:00 PM 12.93 55.274 0.035 6.3 1.69 8.45
10/23/2020 5:30:00 PM 13.03 55.454 0.035 6.29 1.66 8.48
10/23/2020 5:45:00 PM 13.01 55.418 0.035 6.28 1.68 8.38
10/23/2020 6:00:00 PM 12.67 54.806 0.035 6.24 1.71 8.22
10/23/2020 6:15:00 PM 12.66 54.788 0.035 6.21 1.71 8.18
10/23/2020 6:30:00 PM 12.89 55.202 0.035 6.29 1.73 8.32
10/23/2020 6:45:00 PM 12.71 54.878 0.035 6.27 1.7 8.19
10/23/2020 7:00:00 PM 12.68 54.824 0.035 6.23 1.73 8.12
10/23/2020 7:15:00 PM 12.81 55.058 0.035 6.3 1.69 8.28
10/23/2020 7:30:00 PM 12.79 55.022 0.035 6.28 1.69 8.3
10/23/2020 7:45:00 PM 12.74 54.932 0.035 6.29 1.73 8.27
10/23/2020 8:00:00 PM 12.7 54.86 0.035 6.28 1.71 8.25
10/23/2020 8:15:00 PM 12.6 54.68 0.035 6.27 1.73 8.19
10/23/2020 8:30:00 PM 12.62 54.716 0.035 6.25 1.73 8.21
10/23/2020 8:45:00 PM 12.53 54.554 0.035 6.23 1.69 7.98
10/23/2020 9:00:00 PM 12.6 54.68 0.035 6.2 1.72 8.02
10/23/2020 9:15:00 PM 12.39 54.302 0.035 6.13 1.72 7.81
10/23/2020 9:30:00 PM 12.7 54.86 0.035 6.29 1.71 8.17
10/23/2020 9:45:00 PM 12.71 54.878 0.035 6.24 2 8.12
10/23/2020 10:00:00 PM 12.64 54.752 0.035 6.25 1.78 8.09
10/23/2020 10:15:00 PM 12.53 54.554 0.035 6.2 1.79 8.03
10/23/2020 10:30:00 PM 12.02 53.636 0.035 6.01 1.77 7.39
10/23/2020 10:45:00 PM 12.01 53.618 0.035 6.03 1.79 7.43
10/23/2020 11:00:00 PM 12.02 53.636 0.035 6.04 1.8 7.39
10/23/2020 11:15:00 PM 12.05 53.69 0.035 6.03 1.76 7.52
10/23/2020 11:30:00 PM 12.1 53.78 0.035 6.08 1.75 7.4
10/23/2020 11:45:00 PM 12.17 53.906 0.035 6.06 1.79 7.48
10/24/2020 12:00:00 AM 12.45 54.41 0.035 6.23 1.85 7.95
10/24/2020 12:15:00 AM 12.41 54.338 0.035 6.21 1.77 7.96
10/24/2020 12:30:00 AM 12.41 54.338 0.035 6.16 1.79 7.8
10/24/2020 12:45:00 AM 12.32 54.176 0.035 6.18 1.78 7.8
10/24/2020 1:00:00 AM 12.36 54.248 0.035 6.25 1.77 7.84
10/24/2020 1:15:00 AM 12.34 54.212 0.035 6.28 1.78 7.86
10/24/2020 1:30:00 AM 12.35 54.23 0.035 6.16 1.79 7.81
10/24/2020 1:45:00 AM 12.48 54.464 0.035 6.24 1.79 8
10/24/2020 2:00:00 AM 12.52 54.536 0.035 6.25 1.76 7.93
10/24/2020 2:15:00 AM 12.49 54.482 0.035 6.24 1.73 8.04
10/24/2020 2:30:00 AM 12.41 54.338 0.035 6.2 1.8 7.91
10/24/2020 2:45:00 AM 12.43 54.374 0.035 6.14 1.76 7.74
10/24/2020 3:00:00 AM 12.25 54.05 0.035 6.27 1.8 7.5
10/24/2020 3:15:00 AM 12.2 53.96 0.035 6.26 1.75 7.67
10/24/2020 3:30:00 AM 12.2 53.96 0.035 6.15 1.77 7.47
10/24/2020 3:45:00 AM 12.19 53.942 0.035 6.08 1.74 7.39
10/24/2020 4:00:00 AM 12.18 53.924 0.035 6.23 1.78 7.68
10/24/2020 4:15:00 AM 12.21 53.978 0.035 6.3 1.8 7.68
10/24/2020 4:30:00 AM 12.31 54.158 0.035 6.18 1.79 7.73
10/24/2020 4:45:00 AM 12.3 54.14 0.035 6.29 1.74 7.69
10/24/2020 5:00:00 AM 12.18 53.924 0.035 6.15 1.8 7.6
10/24/2020 5:15:00 AM 12.21 53.978 0.035 6.17 1.77 7.59
10/24/2020 5:30:00 AM 12.22 53.996 0.036 6.23 1.83 7.45
10/24/2020 5:45:00 AM 12.33 54.194 0.036 6.17 1.79 7.84
10/24/2020 6:00:00 AM 12.41 54.338 0.035 6.35 1.79 7.94
10/24/2020 6:15:00 AM 12.61 54.698 0.035 6.37 1.78 8.24
10/24/2020 6:30:00 AM 12.61 54.698 0.035 6.29 1.78 8.25
10/24/2020 6:45:00 AM 12.59 54.662 0.035 6.32 1.78 8.26
10/24/2020 7:00:00 AM 12.52 54.536 0.035 6.25 1.88 8.12
10/24/2020 7:15:00 AM 12.45 54.41 0.035 6.27 1.94 7.98
10/24/2020 7:30:00 AM 12.38 54.284 0.035 6.26 3.53 8.02
10/24/2020 7:45:00 AM 12.46 54.428 0.035 6.25 1.86 7.97
10/24/2020 8:00:00 AM 12.51 54.518 0.036 6.27 2.44 8.19
10/24/2020 8:15:00 AM 12.42 54.356 0.035 6.22 1.74 8.09
10/24/2020 8:30:00 AM 12.4 54.32 0.035 6.26 1.75 8.23
10/24/2020 8:45:00 AM 12.38 54.284 0.035 6.22 1.72 8.15
10/24/2020 9:00:00 AM 12.31 54.158 0.035 6.17 1.79 7.96
10/24/2020 9:15:00 AM 12.23 54.014 0.035 6.16 1.72 7.95
10/24/2020 9:30:00 AM 12.3 54.14 0.035 6.23 1.73 8.11
10/24/2020 9:45:00 AM 12.24 54.032 0.035 6.09 1.72 7.93
10/24/2020 10:00:00 AM 12.25 54.05 0.035 6.04 1.69 7.77
10/24/2020 10:15:00 AM 12.01 53.618 0.035 6.02 1.76 7.81
10/24/2020 10:30:00 AM 12 53.6 0.035 6.06 1.75 7.94
10/24/2020 10:45:00 AM 11.94 53.492 0.035 6.08 1.81 7.96
10/24/2020 11:00:00 AM 11.95 53.51 0.035 6.01 1.74 7.71
10/24/2020 11:15:00 AM 12 53.6 0.035 6.1 1.78 7.76
10/24/2020 11:30:00 AM 12.02 53.636 0.035 6.08 1.78 7.85
10/24/2020 11:45:00 AM 11.91 53.438 0.035 6.07 1.77 7.73
10/24/2020 12:00:00 PM 11.94 53.492 0.035 6.05 1.77 7.9
10/24/2020 12:15:00 PM 11.9 53.42 0.035 6.06 1.73 7.94
10/24/2020 12:30:00 PM 11.9 53.42 0.035 6.1 1.79 7.8
10/24/2020 12:45:00 PM 11.84 53.312 0.035 6.09 1.77 7.98
10/24/2020 1:00:00 PM 11.89 53.402 0.035 6.05 1.78 8.01
10/24/2020 1:15:00 PM 11.87 53.366 0.035 6.09 1.79 8.13
10/24/2020 1:30:00 PM 11.84 53.312 0.035 6.09 1.79 8.14
10/24/2020 1:45:00 PM 11.87 53.366 0.035 6.07 3.73 7.93
10/24/2020 2:00:00 PM 11.79 53.222 0.035 6.06 1.81 8.03
10/24/2020 2:15:00 PM 11.9 53.42 0.035 6.14 1.72 8.3
10/24/2020 2:30:00 PM 11.89 53.402 0.035 6.04 1.79 7.81
10/24/2020 2:45:00 PM 11.88 53.384 0.035 6.11 1.8 8.17
10/24/2020 3:00:00 PM 11.88 53.384 0.035 6.02 1.8 8.28
10/24/2020 3:15:00 PM 11.84 53.312 0.035 6.05 1.74 8.4
10/24/2020 3:30:00 PM 11.71 53.078 0.035 6.03 1.83 7.68
10/24/2020 3:45:00 PM 11.75 53.15 0.035 6.06 1.71 7.82
10/24/2020 4:00:00 PM 11.75 53.15 0.035 6.04 1.74 8.07
10/24/2020 4:15:00 PM 11.7 53.06 0.035 6.05 1.74 8.04
10/24/2020 4:30:00 PM 11.67 53.006 0.035 6.07 1.74 7.9
10/24/2020 4:45:00 PM 11.62 52.916 0.035 6.06 1.76 7.76
10/24/2020 5:00:00 PM 11.61 52.898 0.035 6.07 1.76 7.91
10/24/2020 5:15:00 PM 11.62 52.916 0.035 6.08 1.79 8.04
10/24/2020 5:30:00 PM 11.59 52.862 0.035 6.04 1.82 7.81
10/24/2020 5:45:00 PM 11.59 52.862 0.035 6.08 1.74 7.82
10/24/2020 6:00:00 PM 11.58 52.844 0.035 6.06 1.79 8.02
10/24/2020 6:15:00 PM 11.53 52.754 0.035 6.06 1.73 8.04
10/24/2020 6:30:00 PM 11.53 52.754 0.035 6.06 1.75 7.91
10/24/2020 6:45:00 PM 11.49 52.682 0.036 6.01 1.75 7.81
10/24/2020 7:00:00 PM 11.48 52.664 0.036 6.09 1.74 7.88
10/24/2020 7:15:00 PM 11.44 52.592 0.035 6.1 1.85 7.79
10/24/2020 7:30:00 PM 11.44 52.592 0.036 6.05 1.74 7.92
10/24/2020 7:45:00 PM 11.43 52.574 0.035 6.07 1.75 7.85
10/24/2020 8:00:00 PM 11.4 52.52 0.035 6.06 1.76 7.96
10/24/2020 8:15:00 PM 11.37 52.466 0.035 6.04 1.77 7.83
10/24/2020 8:30:00 PM 11.36 52.448 0.035 6.1 1.77 7.92
10/24/2020 8:45:00 PM 11.35 52.43 0.035 6.08 1.74 8.09
10/24/2020 9:00:00 PM 11.35 52.43 0.035 6.07 1.76 7.82
10/24/2020 9:15:00 PM 11.34 52.412 0.035 6.06 1.81 7.95
10/24/2020 9:30:00 PM 11.33 52.394 0.035 6.06 1.76 7.93
10/24/2020 9:45:00 PM 11.32 52.376 0.035 6.11 1.73 7.93
10/24/2020 10:00:00 PM 11.3 52.34 0.035 6.09 1.8 7.81
10/24/2020 10:15:00 PM 11.28 52.304 0.035 6.11 1.76 8.04
10/24/2020 10:30:00 PM 11.27 52.286 0.035 6.09 1.76 8.04
10/24/2020 10:45:00 PM 11.25 52.25 0.035 6.11 1.75 7.95
10/24/2020 11:00:00 PM 11.24 52.232 0.035 6.08 1.75 7.82
10/24/2020 11:15:00 PM 11.23 52.214 0.035 6.06 1.78 8
10/24/2020 11:30:00 PM 11.22 52.196 0.035 6.07 1.76 7.91
10/24/2020 11:45:00 PM 11.21 52.178 0.035 6.06 1.77 7.91
10/25/2020 12:00:00 AM 11.18 52.124 0.035 6.15 1.77 7.94
10/25/2020 12:15:00 AM 11.15 52.07 0.035 6.16 1.73 8.26
10/25/2020 12:30:00 AM 11.11 51.998 0.035 6.19 1.82 8.32
10/25/2020 12:45:00 AM 11.11 51.998 0.035 6.12 1.78 8.19
10/25/2020 1:00:00 AM 11.08 51.944 0.035 6.15 1.79 8.08
10/25/2020 1:15:00 AM 11.04 51.872 0.035 6.14 1.74 8.17
10/25/2020 1:30:00 AM 11.04 51.872 0.035 6.11 1.77 8.16
10/25/2020 1:45:00 AM 11.01 51.818 0.035 6.16 1.77 8.29
10/25/2020 2:00:00 AM 11 51.8 0.035 6.14 1.78 8.21
10/25/2020 2:15:00 AM 10.98 51.764 0.035 6.19 1.77 8.3
10/25/2020 2:30:00 AM 10.95 51.71 0.035 6.16 1.79 8.37
10/25/2020 2:45:00 AM 10.94 51.692 0.035 6.15 1.75 8.3
10/25/2020 3:00:00 AM 10.91 51.638 0.035 6.15 1.78 8.26
10/25/2020 3:15:00 AM 10.88 51.584 0.035 6.15 1.77 8.35
10/25/2020 3:30:00 AM 10.84 51.512 0.035 6.18 1.77 8.34
10/25/2020 3:45:00 AM 10.8 51.44 0.035 6.16 1.79 8.22
10/25/2020 4:00:00 AM 10.74 51.332 0.035 6.18 1.76 8.45
10/25/2020 4:15:00 AM 10.67 51.206 0.035 6.17 1.77 8.41
10/25/2020 4:30:00 AM 10.65 51.17 0.035 6.19 1.78 8.48
10/25/2020 4:45:00 AM 10.62 51.116 0.035 6.14 1.78 8.53
10/25/2020 5:00:00 AM 10.49 50.882 0.035 6.17 1.74 8.63
10/25/2020 5:15:00 AM 10.49 50.882 0.035 6.24 1.76 8.53
10/25/2020 5:30:00 AM 10.44 50.792 0.035 6.16 1.79 8.72
10/25/2020 5:45:00 AM 10.44 50.792 0.035 6.21 1.76 8.54
10/25/2020 6:00:00 AM 10.34 50.612 0.035 6.19 1.76 8.66
10/25/2020 6:15:00 AM 10.27 50.486 0.035 6.15 1.78 8.62
10/25/2020 6:30:00 AM 10.28 50.504 0.035 6.18 1.78 8.76
10/25/2020 6:45:00 AM 10.31 50.558 0.035 6.14 1.78 8.76
10/25/2020 7:00:00 AM 10.34 50.612 0.035 6.18 1.77 8.31
10/25/2020 7:15:00 AM 10.36 50.648 0.036 6.19 1.81 8.78
10/25/2020 7:30:00 AM 10.24 50.432 0.035 6.19 2.46 8.47
10/25/2020 7:45:00 AM 10.32 50.576 0.036 6.17 1.78 8.61
10/25/2020 8:00:00 AM 10.27 50.486 0.035 6.15 1.77 8.6
10/25/2020 8:15:00 AM 10.31 50.558 0.035 6.17 1.81 8.65
10/25/2020 8:30:00 AM 10.25 50.45 0.036 6.18 1.81 8.63
10/25/2020 8:45:00 AM 10.24 50.432 0.035 6.19 1.77 8.45
10/25/2020 9:00:00 AM 10.37 50.666 0.035 6.17 1.8 8.6
10/25/2020 9:15:00 AM 10.2 50.36 0.033 6.15 2.69 8.7
10/25/2020 9:30:00 AM 10.32 50.576 0.035 6.16 1.79 8.82
10/25/2020 9:45:00 AM 10.45 50.81 0.035 6.18 1.78 8.71
10/25/2020 10:00:00 AM 10.34 50.612 0.035 6.2 1.8 8.83
10/25/2020 10:15:00 AM 10.43 50.774 0.035 6.12 1.79 8.92
10/25/2020 10:30:00 AM 10.44 50.792 0.035 6.09 1.76 8.84
10/25/2020 10:45:00 AM 10.4 50.72 0.035 6.14 1.82 9.02
10/25/2020 11:00:00 AM 10.44 50.792 0.035 6.12 1.82 8.94
10/25/2020 11:15:00 AM 10.53 50.954 0.035 6.08 1.8 8.97
10/25/2020 11:30:00 AM 10.56 51.008 0.035 6.15 1.77 9.05
10/25/2020 11:45:00 AM 10.77 51.386 0.035 6.15 1.78 8.68
10/25/2020 12:00:00 PM 11.02 51.836 0.035 6.11 1.78 8.61
10/25/2020 12:15:00 PM 11.05 51.89 0.035 6.16 1.79 8.67
10/25/2020 12:30:00 PM 11.17 52.106 0.035 6.11 1.8 8.66
10/25/2020 12:45:00 PM 11.3 52.34 0.035 6.07 1.81 7.95
10/25/2020 1:00:00 PM 11.37 52.466 0.035 6.06 2.01 8.21
10/25/2020 1:15:00 PM 11.32 52.376 0.035 6.05 1.77 8.14
10/25/2020 1:30:00 PM 11.31 52.358 0.035 6.02 1.77 8.1
10/25/2020 1:45:00 PM 11.3 52.34 0.035 6.04 1.77 8.02
10/25/2020 2:00:00 PM 11.27 52.286 0.035 6.02 1.81 7.96
10/25/2020 2:15:00 PM 11.25 52.25 0.035 6.08 1.82 8.16
10/25/2020 2:30:00 PM 11.24 52.232 0.035 6.03 1.79 8.29
10/25/2020 2:45:00 PM 11.24 52.232 0.035 6.07 1.79 7.96
10/25/2020 3:00:00 PM 11.24 52.232 0.035 5.99 1.79 7.86
10/25/2020 3:15:00 PM 11.22 52.196 0.035 6.03 1.81 8.11
10/25/2020 3:30:00 PM 11.21 52.178 0.035 6.03 1.78 8
10/25/2020 3:45:00 PM 11.18 52.124 0.035 6.03 1.78 8.34
10/25/2020 4:00:00 PM 11.18 52.124 0.035 6.04 1.82 7.99
10/25/2020 4:15:00 PM 11.17 52.106 0.035 6.05 1.79 8.28
10/25/2020 4:30:00 PM 11.14 52.052 0.035 6.06 1.77 8.04
10/25/2020 4:45:00 PM 11.11 51.998 0.035 6.05 1.75 8.15
10/25/2020 5:00:00 PM 11.11 51.998 0.035 6.02 1.82 8.11
10/25/2020 5:15:00 PM 11.12 52.016 0.035 6.02 1.8 8.13
10/25/2020 5:30:00 PM 11.11 51.998 0.035 6.04 1.78 8.06
10/25/2020 5:45:00 PM 11.11 51.998 0.035 6.04 1.81 7.88
10/25/2020 6:00:00 PM 11.08 51.944 0.035 6.04 1.79 8.19
10/25/2020 6:15:00 PM 11.06 51.908 0.035 6.09 1.87 8.05
10/25/2020 6:30:00 PM 11.06 51.908 0.035 6.07 1.77 8.06
10/25/2020 6:45:00 PM 11.06 51.908 0.035 6.08 1.78 8.07
10/25/2020 7:00:00 PM 11.03 51.854 0.035 6.09 1.77 8.02
10/25/2020 7:15:00 PM 11.02 51.836 0.035 6.04 1.75 8.07
10/25/2020 7:30:00 PM 11.05 51.89 0.035 6.05 1.78 7.96
10/25/2020 7:45:00 PM 11.03 51.854 0.035 6.04 1.77 8.09
10/25/2020 8:00:00 PM 11.03 51.854 0.035 6.01 1.79 8.05
10/25/2020 8:15:00 PM 11.02 51.836 0.035 6.05 1.76 8.02
10/25/2020 8:30:00 PM 11.03 51.854 0.035 6.06 1.79 8.07
10/25/2020 8:45:00 PM 11.01 51.818 0.035 6.06 1.77 8.19
10/25/2020 9:00:00 PM 11.03 51.854 0.035 6.05 1.79 7.97
10/25/2020 9:15:00 PM 11 51.8 0.035 6.04 1.8 8.01
10/25/2020 9:30:00 PM 10.93 51.674 0.035 6.09 1.78 8.22
10/25/2020 9:45:00 PM 10.92 51.656 0.035 6.11 1.76 8.12
10/25/2020 10:00:00 PM 10.84 51.512 0.035 6.15 1.77 8.46
10/25/2020 10:15:00 PM 10.86 51.548 0.035 6.11 1.76 8.43
10/25/2020 10:30:00 PM 10.85 51.53 0.035 6.12 1.78 8.5
10/25/2020 10:45:00 PM 10.86 51.548 0.035 6.11 1.74 8.37
10/25/2020 11:00:00 PM 10.82 51.476 0.035 6.16 1.79 8.62
10/25/2020 11:15:00 PM 10.81 51.458 0.035 6.13 1.76 8.6
10/25/2020 11:30:00 PM 10.85 51.53 0.035 6.07 1.78 8.28
10/25/2020 11:45:00 PM 10.78 51.404 0.035 6.09 1.75 8.46
10/26/2020 12:00:00 AM 10.76 51.368 0.035 6.14 1.76 8.52
10/26/2020 12:15:00 AM 10.71 51.278 0.035 6.18 1.76 8.53
10/26/2020 12:30:00 AM 10.68 51.224 0.035 6.12 1.74 8.63
10/26/2020 12:45:00 AM 10.67 51.206 0.033 6.14 2.81 8.63
10/26/2020 1:00:00 AM 10.65 51.17 0.035 6.19 1.72 8.67
10/26/2020 1:15:00 AM 10.65 51.17 0.035 6.15 1.77 8.67
10/26/2020 1:30:00 AM 10.62 51.116 0.035 6.16 1.75 8.78
10/26/2020 1:45:00 AM 10.6 51.08 0.035 6.2 1.77 8.88
10/26/2020 2:00:00 AM 10.62 51.116 0.035 6.15 1.75 8.71
10/26/2020 2:15:00 AM 10.59 51.062 0.035 6.18 1.75 8.71
10/26/2020 2:30:00 AM 10.61 51.098 0.035 6.15 1.81 8.7
10/26/2020 2:45:00 AM 10.59 51.062 0.035 6.19 1.72 8.66
10/26/2020 3:00:00 AM 10.78 51.404 0.035 6.01 1.77 8.18
10/26/2020 3:15:00 AM 10.65 51.17 0.035 6.13 1.8 8.53
10/26/2020 3:30:00 AM 10.62 51.116 0.035 6.14 1.78 8.61
10/26/2020 3:45:00 AM 10.67 51.206 0.035 6.09 1.76 8.43
10/26/2020 4:00:00 AM 10.68 51.224 0.035 6.12 2.02 8.61
10/26/2020 4:15:00 AM 10.65 51.17 0.035 6.1 2.02 8.58
10/26/2020 4:30:00 AM 10.63 51.134 0.035 6.14 1.76 8.53
10/26/2020 4:45:00 AM 10.61 51.098 0.035 6.19 1.75 8.74
10/26/2020 5:00:00 AM 10.64 51.152 0.035 6.12 1.74 8.66
10/26/2020 5:15:00 AM 10.55 50.99 0.035 6.22 1.79 8.84
10/26/2020 5:30:00 AM 10.57 51.026 0.035 6.22 1.72 8.84
10/26/2020 5:45:00 AM 10.55 50.99 0.035 6.2 1.77 8.83
10/26/2020 6:00:00 AM 10.56 51.008 0.035 6.21 1.73 8.85
10/26/2020 6:15:00 AM 10.62 51.116 0.035 6.14 1.75 8.7
10/26/2020 6:30:00 AM 10.78 51.404 0.035 6.06 1.81 8.15
10/26/2020 6:45:00 AM 10.75 51.35 0.035 6.12 1.76 8.35
10/26/2020 7:00:00 AM 10.71 51.278 0.035 6.12 1.76 8.38
10/26/2020 7:15:00 AM 10.7 51.26 0.035 6.13 1.78 8.51
10/26/2020 7:30:00 AM 10.67 51.206 0.035 6.12 1.77 8.66
10/26/2020 7:45:00 AM 10.71 51.278 0.035 6.18 1.73 8.21
10/26/2020 8:00:00 AM 10.66 51.188 0.035 6.14 1.78 8.73
10/26/2020 8:15:00 AM 10.61 51.098 0.035 6.21 1.78 8.85
10/26/2020 8:30:00 AM 10.58 51.044 0.035 6.09 1.73 8.93
10/26/2020 8:45:00 AM 10.57 51.026 0.035 6.04 1.75 8.96
10/26/2020 9:00:00 AM 10.58 51.044 0.035 6.24 1.74 8.93
10/26/2020 9:15:00 AM 10.66 51.188 0.035 6.13 1.74 8.84
10/26/2020 9:30:00 AM 10.62 51.116 0.035 6.12 1.73 8.99
10/26/2020 9:45:00 AM 10.62 51.116 0.035 6.2 1.74 8.87
10/26/2020 10:00:00 AM 10.64 51.152 0.035 6.17 1.7 9.01
10/26/2020 10:15:00 AM 10.61 51.098 0.035 6.17 1.74 9.13
10/26/2020 10:30:00 AM 10.58 51.044 0.035 6.26 1.78 9.26
10/26/2020 10:45:00 AM 10.63 51.134 0.035 6.2 1.76 9.25
10/26/2020 11:00:00 AM 10.65 51.17 0.035 6.26 1.75 9.4
10/26/2020 11:15:00 AM 10.68 51.224 0.035 6.25 1.74 9.32
10/26/2020 11:30:00 AM 10.68 51.224 0.035 6.31 1.74 9.41
10/26/2020 11:45:00 AM 10.69 51.242 0.035 6.29 1.76 9.5
10/26/2020 12:00:00 PM 10.73 51.314 0.035 6.34 1.74 9.55
10/26/2020 12:15:00 PM 10.76 51.368 0.035 6.32 1.75 9.53
10/26/2020 12:30:00 PM 10.78 51.404 0.035 6.28 1.76 9.59
10/26/2020 12:45:00 PM 10.81 51.458 0.035 6.27 1.75 9.56
10/26/2020 1:00:00 PM 10.81 51.458 0.035 6.27 1.73 9.7
10/26/2020 1:15:00 PM 10.85 51.53 0.035 6.34 1.74 9.67
10/26/2020 1:30:00 PM 10.88 51.584 0.035 6.33 1.75 9.66
10/26/2020 1:45:00 PM 10.94 51.692 0.035 6.29 1.72 9.59
10/26/2020 2:00:00 PM 10.94 51.692 0.035 6.23 1.73 9.49
10/26/2020 2:15:00 PM 10.95 51.71 0.035 6.34 1.73 9.65
10/26/2020 2:30:00 PM 10.96 51.728 0.035 6.29 1.76 9.57
10/26/2020 2:45:00 PM 10.98 51.764 0.035 6.19 1.73 9.46
10/26/2020 3:00:00 PM 11 51.8 0.035 6.31 1.74 9.49
10/26/2020 3:15:00 PM 11.02 51.836 0.035 6.27 1.71 9.21
10/26/2020 3:30:00 PM 11.03 51.854 0.035 6.2 1.75 9.27
10/26/2020 3:45:00 PM 11.03 51.854 0.035 6.26 1.75 9.47
10/26/2020 4:00:00 PM 11.04 51.872 0.035 6.21 1.74 9.37
10/26/2020 4:15:00 PM 11.05 51.89 0.035 6.23 1.73 9.35
10/26/2020 4:30:00 PM 11.06 51.908 0.035 6.23 1.73 9.28
10/26/2020 4:45:00 PM 11.06 51.908 0.035 6.31 1.77 9.3
10/26/2020 5:00:00 PM 11.07 51.926 0.035 6.31 1.74 9.45
10/26/2020 5:15:00 PM 11.08 51.944 0.035 6.3 1.73 9.31
10/26/2020 5:30:00 PM 11.08 51.944 0.035 6.27 1.73 9.28
10/26/2020 5:45:00 PM 11.08 51.944 0.035 6.29 1.74 9.35
10/26/2020 6:00:00 PM 11.08 51.944 0.035 6.3 1.74 9.31
10/26/2020 6:15:00 PM 11.08 51.944 0.035 6.31 1.75 9.25
10/26/2020 6:30:00 PM 11.08 51.944 0.035 6.33 1.71 9.29
10/26/2020 6:45:00 PM 11.09 51.962 0.035 6.33 1.71 9.38
10/26/2020 7:00:00 PM 11.09 51.962 0.035 6.32 1.73 9.27
10/26/2020 7:15:00 PM 11.09 51.962 0.035 6.32 1.73 9.2
10/26/2020 7:30:00 PM 11.09 51.962 0.035 6.31 1.7 9.23
10/26/2020 7:45:00 PM 11.1 51.98 0.035 6.31 1.76 9.15
10/26/2020 8:00:00 PM 11.1 51.98 0.035 6.31 1.72 9.13
10/26/2020 8:15:00 PM 11.1 51.98 0.035 6.3 1.72 9.17
10/26/2020 8:30:00 PM 11.1 51.98 0.035 6.3 1.75 9.16
10/26/2020 8:45:00 PM 11.11 51.998 0.035 6.27 1.72 9.19
10/26/2020 9:00:00 PM 11.11 51.998 0.035 6.27 1.72 9.11
10/26/2020 9:15:00 PM 11.12 52.016 0.035 6.27 1.73 9.14
10/26/2020 9:30:00 PM 11.12 52.016 0.035 6.31 1.73 9.14
10/26/2020 9:45:00 PM 11.12 52.016 0.035 6.28 1.78 9.07
10/26/2020 10:00:00 PM 11.12 52.016 0.035 6.26 1.72 9.07
10/26/2020 10:15:00 PM 11.13 52.034 0.035 6.27 1.72 9.07
10/26/2020 10:30:00 PM 11.13 52.034 0.035 6.24 1.78 9.06
10/26/2020 10:45:00 PM 11.13 52.034 0.035 6.26 1.72 9.07
10/26/2020 11:00:00 PM 11.13 52.034 0.035 6.22 1.81 8.96
10/26/2020 11:15:00 PM 11.13 52.034 0.035 6.25 1.72 8.98
10/26/2020 11:30:00 PM 11.13 52.034 0.035 6.26 1.75 8.9
10/26/2020 11:45:00 PM 11.13 52.034 0.035 6.33 1.72 9.2
10/27/2020 12:00:00 AM 11.13 52.034 0.035 6.31 1.76 9.16
10/27/2020 12:15:00 AM 11.13 52.034 0.035 6.32 1.75 9.13
10/27/2020 12:30:00 AM 11.13 52.034 0.035 6.33 1.78 9.24
10/27/2020 12:45:00 AM 11.13 52.034 0.035 6.3 1.75 9.14
10/27/2020 1:00:00 AM 11.12 52.016 0.035 6.29 1.74 9.06
10/27/2020 1:15:00 AM 11.1 51.98 0.035 6.3 1.72 9.05
10/27/2020 1:30:00 AM 11.06 51.908 0.035 6.3 1.72 9.09
10/27/2020 1:45:00 AM 11.04 51.872 0.035 6.32 1.69 9.14
10/27/2020 2:00:00 AM 11.03 51.854 0.035 6.27 1.73 8.96
10/27/2020 2:15:00 AM 11 51.8 0.035 6.27 1.8 9.01
10/27/2020 2:30:00 AM 10.95 51.71 0.035 6.26 1.76 9.07
10/27/2020 2:45:00 AM 10.92 51.656 0.035 6.3 1.79 9.15
10/27/2020 3:00:00 AM 10.89 51.602 0.035 6.3 1.79 9.22
10/27/2020 3:15:00 AM 10.86 51.548 0.035 6.3 1.77 9.2
10/27/2020 3:30:00 AM 10.86 51.548 0.035 6.32 1.73 9.18
10/27/2020 3:45:00 AM 10.84 51.512 0.035 6.32 1.71 9.28
10/27/2020 4:00:00 AM 10.83 51.494 0.035 6.3 1.74 9.21
10/27/2020 4:15:00 AM 10.79 51.422 0.035 6.32 1.75 9.29
10/27/2020 4:30:00 AM 10.78 51.404 0.035 6.31 1.75 9.27
10/27/2020 4:45:00 AM 10.75 51.35 0.035 6.3 1.76 9.3
10/27/2020 5:00:00 AM 10.73 51.314 0.035 6.32 1.71 9.37
10/27/2020 5:15:00 AM 10.71 51.278 0.035 6.34 1.71 9.36
10/27/2020 5:30:00 AM 10.7 51.26 0.035 6.34 1.73 9.39
10/27/2020 5:45:00 AM 10.69 51.242 0.035 6.32 1.76 9.37
10/27/2020 6:00:00 AM 10.67 51.206 0.035 6.34 1.73 9.38
10/27/2020 6:15:00 AM 10.67 51.206 0.035 6.33 1.75 9.45
10/27/2020 6:30:00 AM 10.66 51.188 0.035 6.34 1.74 9.39
10/27/2020 6:45:00 AM 10.64 51.152 0.035 6.34 1.72 9.48
10/27/2020 7:00:00 AM 10.66 51.188 0.035 6.32 1.75 9.4
10/27/2020 7:15:00 AM 10.61 51.098 0.035 6.34 1.72 9.52
10/27/2020 7:30:00 AM 10.62 51.116 0.035 6.35 1.75 9.41
10/27/2020 7:45:00 AM 10.59 51.062 0.035 6.35 1.76 9.45
10/27/2020 8:00:00 AM 10.59 51.062 0.035 6.36 1.74 9.52
10/27/2020 8:15:00 AM 10.6 51.08 0.035 6.36 1.79 9.51
10/27/2020 8:30:00 AM 10.64 51.152 0.035 6.34 1.75 9.57
10/27/2020 8:45:00 AM 10.66 51.188 0.035 6.38 1.76 9.69
10/27/2020 9:00:00 AM 10.67 51.206 0.035 6.39 1.81 9.85
10/27/2020 9:15:00 AM 10.68 51.224 0.034 6.38 1.74 9.86
10/27/2020 9:30:00 AM 10.71 51.278 0.034 6.39 1.71 9.93
10/27/2020 9:45:00 AM 10.74 51.332 0.034 6.42 1.71 10.03
10/27/2020 10:00:00 AM 10.79 51.422 0.034 6.42 1.7 10.08
10/27/2020 10:15:00 AM 10.87 51.566 0.034 6.4 1.69 10.06
10/27/2020 10:30:00 AM 10.88 51.584 0.034 6.38 1.68 9.99
10/27/2020 10:45:00 AM 10.93 51.674 0.034 6.37 1.7 10.11
10/27/2020 11:00:00 AM 10.97 51.746 0.034 6.42 1.66 10.15
10/27/2020 11:15:00 AM 11.02 51.836 0.034 6.41 1.7 10.18
10/27/2020 11:30:00 AM 11.09 51.962 0.034 6.41 1.73 10.21
10/27/2020 11:45:00 AM 11.12 52.016 0.034 6.39 1.69 10.16
10/27/2020 12:00:00 PM 11.27 52.286 0.034 6.23 1.77 9.97
10/27/2020 12:15:00 PM 11.35 52.43 0.034 6.4 1.71 10.17
10/27/2020 12:30:00 PM 11.31 52.358 0.034 6.36 1.68 10.07
10/27/2020 12:45:00 PM 11.29 52.322 0.034 6.32 1.69 10.06
10/27/2020 1:00:00 PM 11.32 52.376 0.034 6.38 1.69 10.16
10/27/2020 1:15:00 PM 11.32 52.376 0.034 6.35 1.71 9.97
10/27/2020 1:30:00 PM 11.3 52.34 0.034 6.36 1.71 10.04
10/27/2020 1:45:00 PM 11.29 52.322 0.034 6.36 1.76 10.01
10/27/2020 2:00:00 PM 11.3 52.34 0.034 6.34 1.68 9.98
10/27/2020 2:15:00 PM 11.29 52.322 0.034 6.32 1.7 9.82
10/27/2020 2:30:00 PM 11.28 52.304 0.034 6.32 1.71 9.85
10/27/2020 2:45:00 PM 11.28 52.304 0.034 6.37 1.68 9.93
10/27/2020 3:00:00 PM 11.26 52.268 0.034 6.34 1.68 9.89
10/27/2020 3:15:00 PM 11.25 52.25 0.034 6.31 1.82 9.67
10/27/2020 3:30:00 PM 11.23 52.214 0.034 6.35 1.76 9.73
10/27/2020 3:45:00 PM 11.24 52.232 0.034 6.29 1.71 9.68
10/27/2020 4:00:00 PM 11.24 52.232 0.034 6.27 1.72 9.6
10/27/2020 4:15:00 PM 11.23 52.214 0.034 6.29 1.73 9.61
10/27/2020 4:30:00 PM 11.23 52.214 0.035 6.3 1.71 9.56
10/27/2020 4:45:00 PM 11.21 52.178 0.034 6.31 1.75 9.5
10/27/2020 5:00:00 PM 11.19 52.142 0.034 6.31 1.72 9.58
10/27/2020 5:15:00 PM 11.18 52.124 0.034 6.3 1.72 9.56
10/27/2020 5:30:00 PM 11.17 52.106 0.035 6.31 1.72 9.47
10/27/2020 5:45:00 PM 11.15 52.07 0.035 6.31 1.73 9.46
10/27/2020 6:00:00 PM 11.13 52.034 0.035 6.31 1.7 9.34
10/27/2020 6:15:00 PM 11.11 51.998 0.035 6.28 1.74 9.34
10/27/2020 6:30:00 PM 11.1 51.98 0.035 6.3 1.75 9.33
10/27/2020 6:45:00 PM 11.08 51.944 0.035 6.29 1.7 9.33
10/27/2020 7:00:00 PM 11.07 51.926 0.035 6.29 1.72 9.3
10/27/2020 7:15:00 PM 11.06 51.908 0.035 6.23 1.76 9.29
10/27/2020 7:30:00 PM 11.05 51.89 0.035 6.31 1.74 9.3
10/27/2020 7:45:00 PM 11.04 51.872 0.035 6.29 1.82 9.26
10/27/2020 8:00:00 PM 11.02 51.836 0.035 6.27 1.74 9.2
10/27/2020 8:15:00 PM 10.99 51.782 0.035 6.26 1.74 9.36
10/27/2020 8:30:00 PM 10.99 51.782 0.035 6.28 1.76 9.32
10/27/2020 8:45:00 PM 10.97 51.746 0.035 6.27 1.71 9.2
10/27/2020 9:00:00 PM 10.96 51.728 0.035 6.27 1.75 9.31
10/27/2020 9:15:00 PM 10.95 51.71 0.035 6.29 1.74 9.31
10/27/2020 9:30:00 PM 10.94 51.692 0.035 6.23 1.74 9.24
10/27/2020 9:45:00 PM 10.92 51.656 0.035 6.27 1.73 9.29
10/27/2020 10:00:00 PM 10.91 51.638 0.035 6.28 1.76 9.3
10/27/2020 10:15:00 PM 10.89 51.602 0.035 6.3 1.74 9.41
10/27/2020 10:30:00 PM 10.89 51.602 0.035 6.23 1.72 9.37
10/27/2020 10:45:00 PM 10.86 51.548 0.035 6.3 1.71 9.37
10/27/2020 11:00:00 PM 10.85 51.53 0.035 6.29 1.72 9.32
10/27/2020 11:15:00 PM 10.84 51.512 0.035 6.27 1.73 9.37
10/27/2020 11:30:00 PM 10.83 51.494 0.035 6.29 1.78 9.38
10/27/2020 11:45:00 PM 10.82 51.476 0.035 6.32 1.74 9.42
10/28/2020 12:00:00 AM 10.82 51.476 0.035 6.3 1.81 9.39
10/28/2020 12:15:00 AM 10.82 51.476 0.035 6.3 1.76 9.39
10/28/2020 12:30:00 AM 10.81 51.458 0.035 6.31 1.75 9.42
10/28/2020 12:45:00 AM 10.81 51.458 0.035 6.32 1.74 9.41
10/28/2020 1:00:00 AM 10.8 51.44 0.035 6.31 1.78 9.41
10/28/2020 1:15:00 AM 10.81 51.458 0.035 6.29 1.75 9.35
10/28/2020 1:30:00 AM 10.8 51.44 0.035 6.31 1.75 9.39
10/28/2020 1:45:00 AM 10.78 51.404 0.035 6.32 1.83 9.42
10/28/2020 2:00:00 AM 10.78 51.404 0.035 6.27 1.82 9.35
10/28/2020 2:15:00 AM 10.77 51.386 0.035 6.3 1.75 9.38
10/28/2020 2:30:00 AM 10.76 51.368 0.035 6.28 1.72 9.4
10/28/2020 2:45:00 AM 10.77 51.386 0.035 6.29 1.76 9.29
10/28/2020 3:00:00 AM 10.74 51.332 0.035 6.28 1.81 9.42
10/28/2020 3:15:00 AM 10.74 51.332 0.035 6.28 1.77 9.35
10/28/2020 3:30:00 AM 10.73 51.314 0.035 6.3 1.8 9.44
10/28/2020 3:45:00 AM 10.73 51.314 0.035 6.3 1.75 9.39
10/28/2020 4:00:00 AM 10.72 51.296 0.035 6.3 1.79 9.43
10/28/2020 4:15:00 AM 10.72 51.296 0.035 6.3 1.76 9.46
10/28/2020 4:30:00 AM 10.73 51.314 0.035 6.29 1.79 9.42
10/28/2020 4:45:00 AM 10.72 51.296 0.035 6.31 1.73 9.41
10/28/2020 5:00:00 AM 10.72 51.296 0.035 6.28 1.78 9.42
10/28/2020 5:15:00 AM 10.72 51.296 0.035 6.31 1.78 9.36
10/28/2020 5:30:00 AM 10.72 51.296 0.035 6.3 1.8 9.39
10/28/2020 5:45:00 AM 10.7 51.26 0.035 6.32 1.82 9.48
10/28/2020 6:00:00 AM 10.7 51.26 0.035 6.31 1.8 9.48
10/28/2020 6:15:00 AM 10.69 51.242 0.035 6.32 1.79 9.55
10/28/2020 6:30:00 AM 10.68 51.224 0.035 6.4 1.78 9.64
10/28/2020 6:45:00 AM 10.67 51.206 0.035 6.39 1.79 9.64
10/28/2020 7:00:00 AM 10.67 51.206 0.035 6.39 1.77 9.66
10/28/2020 7:15:00 AM 10.68 51.224 0.035 6.39 1.79 9.65
10/28/2020 7:30:00 AM 10.67 51.206 0.035 6.39 1.8 9.68
10/28/2020 7:45:00 AM 10.67 51.206 0.035 6.41 1.81 9.67
10/28/2020 8:00:00 AM 10.68 51.224 0.035 6.38 1.78 9.68
10/28/2020 8:15:00 AM 10.68 51.224 0.035 6.39 1.74 9.71
10/28/2020 8:30:00 AM 10.68 51.224 0.035 6.39 1.77 9.69
10/28/2020 8:45:00 AM 10.7 51.26 0.035 6.4 1.75 9.74
10/28/2020 9:00:00 AM 10.71 51.278 0.035 6.4 1.8 9.8
10/28/2020 9:15:00 AM 10.74 51.332 0.034 6.39 1.76 9.77
10/28/2020 9:30:00 AM 10.75 51.35 0.034 6.4 1.77 9.9
10/28/2020 9:45:00 AM 10.76 51.368 0.034 6.41 1.7 9.98
10/28/2020 10:00:00 AM 10.8 51.44 0.035 6.44 1.74 10.02
10/28/2020 10:15:00 AM 10.85 51.53 0.034 6.43 1.72 10.15
10/28/2020 10:30:00 AM 10.9 51.62 0.034 6.46 1.72 10.23
10/28/2020 10:45:00 AM 10.94 51.692 0.034 6.46 1.73 10.25
10/28/2020 11:00:00 AM 10.97 51.746 0.034 6.47 1.74 10.25
10/28/2020 11:15:00 AM 11 51.8 0.034 6.45 1.76 10.27
10/28/2020 11:30:00 AM 11.03 51.854 0.034 6.44 1.75 10.26
10/28/2020 11:45:00 AM 11.06 51.908 0.034 6.45 1.69 10.27
10/28/2020 12:00:00 PM 11.07 51.926 0.034 6.44 1.74 10.2
10/28/2020 12:15:00 PM 11.07 51.926 0.034 6.37 1.73 10.24
10/28/2020 12:30:00 PM 11.09 51.962 0.034 6.45 1.74 10.2
10/28/2020 12:45:00 PM 11.1 51.98 0.034 6.46 1.76 10.19
10/28/2020 1:00:00 PM 11.1 51.98 0.034 6.45 1.72 10.17
10/28/2020 1:15:00 PM 11.11 51.998 0.034 6.44 1.71 10.14
10/28/2020 1:30:00 PM 11.12 52.016 0.034 6.42 1.74 10.11
10/28/2020 1:45:00 PM 11.13 52.034 0.034 6.45 1.83 10.12
10/28/2020 2:00:00 PM 11.16 52.088 0.034 6.45 1.73 10.17
10/28/2020 2:15:00 PM 11.18 52.124 0.034 6.42 1.78 10.13
10/28/2020 2:30:00 PM 11.19 52.142 0.034 6.47 1.7 10.29
10/28/2020 2:45:00 PM 11.19 52.142 0.034 6.48 1.74 10.27
10/28/2020 3:00:00 PM 11.2 52.16 0.034 6.43 1.72 10.2
10/28/2020 3:15:00 PM 11.19 52.142 0.034 6.43 1.76 10.08
10/28/2020 3:30:00 PM 11.19 52.142 0.034 6.43 1.76 10.05
10/28/2020 3:45:00 PM 11.19 52.142 0.034 6.44 1.69 10.1
10/28/2020 4:00:00 PM 11.21 52.178 0.034 6.42 1.69 10.03
10/28/2020 4:15:00 PM 11.2 52.16 0.034 6.43 1.71 10.07
10/28/2020 4:30:00 PM 11.19 52.142 0.034 6.4 1.71 9.92
10/28/2020 4:45:00 PM 11.2 52.16 0.034 6.38 1.71 9.94
10/28/2020 5:00:00 PM 11.2 52.16 0.034 6.38 1.68 9.78
10/28/2020 5:15:00 PM 11.2 52.16 0.034 6.41 1.69 9.94
10/28/2020 5:30:00 PM 11.19 52.142 0.034 6.38 1.7 9.86
10/28/2020 5:45:00 PM 11.17 52.106 0.034 6.35 1.74 9.71
10/28/2020 6:00:00 PM 11.13 52.034 0.034 6.33 1.72 9.66
10/28/2020 6:15:00 PM 11.08 51.944 0.034 6.35 1.7 9.7
10/28/2020 6:30:00 PM 11.05 51.89 0.035 6.35 1.76 9.41
10/28/2020 6:45:00 PM 11.03 51.854 0.035 6.34 1.7 9.6
10/28/2020 7:00:00 PM 11 51.8 0.035 6.35 1.72 9.54
10/28/2020 7:15:00 PM 10.97 51.746 0.035 6.33 1.69 9.59
10/28/2020 7:30:00 PM 10.93 51.674 0.035 6.33 1.66 9.6
10/28/2020 7:45:00 PM 10.9 51.62 0.035 6.33 1.68 9.6
10/28/2020 8:00:00 PM 10.86 51.548 0.035 6.33 1.72 9.59
10/28/2020 8:15:00 PM 10.82 51.476 0.035 6.33 1.72 9.62
10/28/2020 8:30:00 PM 10.81 51.458 0.035 6.29 1.72 9.47
10/28/2020 8:45:00 PM 10.76 51.368 0.035 6.32 1.67 9.56
10/28/2020 9:00:00 PM 10.73 51.314 0.035 6.33 1.69 9.63
10/28/2020 9:15:00 PM 10.7 51.26 0.035 6.32 1.72 9.6
10/28/2020 9:30:00 PM 10.67 51.206 0.035 6.33 1.72 9.61
10/28/2020 9:45:00 PM 10.65 51.17 0.035 6.31 1.71 9.55
10/28/2020 10:00:00 PM 10.61 51.098 0.035 6.33 1.7 9.66
10/28/2020 10:15:00 PM 10.58 51.044 0.035 6.34 1.7 9.68
10/28/2020 10:30:00 PM 10.54 50.972 0.035 6.34 1.68 9.68
10/28/2020 10:45:00 PM 10.51 50.918 0.035 6.32 1.67 9.69
10/28/2020 11:00:00 PM 10.5 50.9 0.035 6.29 1.77 9.73
10/28/2020 11:15:00 PM 10.47 50.846 0.035 6.34 1.69 9.76
10/28/2020 11:30:00 PM 10.46 50.828 0.035 6.34 1.7 9.71
10/28/2020 11:45:00 PM 10.43 50.774 0.035 6.35 1.74 9.72
10/29/2020 12:00:00 AM 10.42 50.756 0.035 6.29 1.69 9.66
10/29/2020 12:15:00 AM 10.38 50.684 0.035 6.36 1.72 9.81
10/29/2020 12:30:00 AM 10.37 50.666 0.035 6.33 1.74 9.76
10/29/2020 12:45:00 AM 10.34 50.612 0.035 6.37 1.73 9.81
10/29/2020 1:00:00 AM 10.39 50.702 0.035 6.31 1.73 9.61
10/29/2020 1:15:00 AM 10.3 50.54 0.035 6.38 1.74 9.84
10/29/2020 1:30:00 AM 10.3 50.54 0.035 6.37 1.75 9.83
10/29/2020 1:45:00 AM 10.29 50.522 0.035 6.37 1.73 9.81
10/29/2020 2:00:00 AM 10.27 50.486 0.035 6.38 1.73 9.85
10/29/2020 2:15:00 AM 10.25 50.45 0.035 6.39 1.73 9.87
10/29/2020 2:30:00 AM 10.25 50.45 0.035 6.35 1.74 9.86
10/29/2020 2:45:00 AM 10.24 50.432 0.035 6.35 1.76 9.85
10/29/2020 3:00:00 AM 10.21 50.378 0.035 6.39 1.73 9.92
10/29/2020 3:15:00 AM 10.22 50.396 0.035 6.34 1.73 9.94
10/29/2020 3:30:00 AM 10.22 50.396 0.035 6.38 1.78 9.85
10/29/2020 3:45:00 AM 10.24 50.432 0.035 6.35 1.73 9.78
10/29/2020 4:00:00 AM 10.24 50.432 0.035 6.3 1.82 9.82
10/29/2020 4:15:00 AM 10.23 50.414 0.035 6.35 1.75 9.86
10/29/2020 4:30:00 AM 10.24 50.432 0.035 6.36 1.71 9.85
10/29/2020 4:45:00 AM 10.24 50.432 0.035 6.36 1.72 9.87
10/29/2020 5:00:00 AM 10.23 50.414 0.035 6.36 1.76 9.84
10/29/2020 5:15:00 AM 10.23 50.414 0.035 6.36 1.73 9.88
10/29/2020 5:30:00 AM 10.24 50.432 0.035 6.36 1.82 9.86
10/29/2020 5:45:00 AM 10.23 50.414 0.035 6.36 1.91 9.87
10/29/2020 6:00:00 AM 10.22 50.396 0.034 6.35 1.8 9.9
10/29/2020 6:15:00 AM 10.22 50.396 0.035 6.39 1.76 9.91
10/29/2020 6:30:00 AM 10.22 50.396 0.034 6.37 1.73 9.88
10/29/2020 6:45:00 AM 10.25 50.45 0.034 6.33 1.89 9.76
10/29/2020 7:00:00 AM 10.27 50.486 0.034 6.34 1.76 9.7
10/29/2020 7:15:00 AM 10.26 50.468 0.034 6.31 1.81 9.68
10/29/2020 7:30:00 AM 10.26 50.468 0.034 6.33 1.78 9.73
10/29/2020 7:45:00 AM 10.25 50.45 0.034 6.34 1.82 9.76
10/29/2020 8:00:00 AM 10.23 50.414 0.034 6.3 1.82 9.77
10/29/2020 8:15:00 AM 10.25 50.45 0.034 6.34 1.91 9.8
10/29/2020 8:30:00 AM 10.32 50.576 0.034 6.31 1.87 9.63
10/29/2020 8:45:00 AM 10.23 50.414 0.034 6.34 1.88 9.77
10/29/2020 9:00:00 AM 10.15 50.27 0.034 6.38 1.87 10
10/29/2020 9:15:00 AM 10.14 50.252 0.034 6.41 1.84 10.11
10/29/2020 9:30:00 AM 10.17 50.306 0.034 6.4 1.86 9.97
10/29/2020 9:45:00 AM 10.11 50.198 0.034 6.42 1.87 10.21
10/29/2020 10:00:00 AM 10.1 50.18 0.034 6.44 1.89 10.25
10/29/2020 10:15:00 AM 10.12 50.216 0.034 6.41 1.88 10.21
10/29/2020 10:30:00 AM 10.12 50.216 0.034 6.4 1.92 10.24
10/29/2020 10:45:00 AM 10.1 50.18 0.033 6.44 1.99 10.3
10/29/2020 11:00:00 AM 10.11 50.198 0.034 6.4 1.95 10.33
10/29/2020 11:15:00 AM 10.13 50.234 0.033 6.34 1.94 10.25
10/29/2020 11:30:00 AM 10.12 50.216 0.033 6.32 1.92 10.34
10/29/2020 11:45:00 AM 10.23 50.414 0.034 6.13 2.5 10.03
10/29/2020 12:00:00 PM 10.44 50.792 0.035 6.13 2.11 9.33
10/29/2020 12:15:00 PM 10.27 50.486 0.034 6.32 1.96 9.97
10/29/2020 12:30:00 PM 10.19 50.342 0.034 6.39 1.93 10.35
10/29/2020 12:45:00 PM 10.17 50.306 0.034 6.44 2.65 10.45
10/29/2020 1:00:00 PM 10.18 50.324 0.034 6.34 2.02 10.43
10/29/2020 1:15:00 PM 10.14 50.252 0.034 6.48 2.06 10.58
10/29/2020 1:30:00 PM 10.1 50.18 0.034 6.56 2.06 10.67
10/29/2020 1:45:00 PM 10.11 50.198 0.034 6.54 2.1 10.66
10/29/2020 2:00:00 PM 10.14 50.252 0.034 6.56 2.04 10.72
10/29/2020 2:15:00 PM 10.17 50.306 0.034 6.54 2.08 10.69
10/29/2020 2:30:00 PM 10.2 50.36 0.034 6.49 2.13 10.62
10/29/2020 2:45:00 PM 10.23 50.414 0.034 6.49 2.16 10.59
10/29/2020 3:00:00 PM 10.23 50.414 0.034 6.47 2.23 10.57
10/29/2020 3:15:00 PM 10.22 50.396 0.035 6.49 2.3 10.58
10/29/2020 3:30:00 PM 10.25 50.45 0.035 6.42 2.26 10.39
10/29/2020 3:45:00 PM 10.22 50.396 0.035 6.42 2.3 10.52
10/29/2020 4:00:00 PM 10.16 50.288 0.035 6.56 2.73 10.68
10/29/2020 4:15:00 PM 10.12 50.216 0.035 6.57 3.21 10.71
10/29/2020 4:30:00 PM 10.08 50.144 0.035 6.54 4.08 10.76
10/29/2020 4:45:00 PM 10.07 50.126 0.035 6.59 3.27 10.75
10/29/2020 5:00:00 PM 10.05 50.09 0.035 6.63 3.9 10.78
10/29/2020 5:15:00 PM 10.06 50.108 0.035 6.57 4.15 10.72
10/29/2020 5:30:00 PM 10.04 50.072 0.035 6.63 4.1 10.79
10/29/2020 5:45:00 PM 10.03 50.054 0.035 6.6 5.56 10.83
10/29/2020 6:00:00 PM 10.03 50.054 0.035 6.63 5.7 10.86
10/29/2020 6:15:00 PM 10.02 50.036 0.035 6.63 6.26 10.86
10/29/2020 6:30:00 PM 10.01 50.018 0.035 6.62 5.56 10.88
10/29/2020 6:45:00 PM 10 50 0.036 6.67 5.42 10.89
10/29/2020 7:00:00 PM 9.98 49.964 0.036 6.7 5.43 10.89
10/29/2020 7:15:00 PM 9.97 49.946 0.036 6.71 5.71 10.89
10/29/2020 7:30:00 PM 9.96 49.928 0.037 6.67 6.49 10.92
10/29/2020 7:45:00 PM 9.94 49.892 0.037 6.65 5.53 10.94
10/29/2020 8:00:00 PM 9.93 49.874 0.037 6.65 5.42 10.95
10/29/2020 8:15:00 PM 9.92 49.856 0.038 6.67 5.82 10.93
10/29/2020 8:30:00 PM 9.9 49.82 0.038 6.7 4.99 10.98
10/29/2020 8:45:00 PM 9.88 49.784 0.038 6.71 5.35 10.99
10/29/2020 9:00:00 PM 9.87 49.766 0.038 6.71 5.58 11.02
10/29/2020 9:15:00 PM 9.86 49.748 0.038 6.72 5.16 11.02
10/29/2020 9:30:00 PM 9.84 49.712 0.038 6.71 5.81 11.04
10/29/2020 9:45:00 PM 9.82 49.676 0.038 6.72 4.89 11.04
10/29/2020 10:00:00 PM 9.81 49.658 0.038 6.77 5.12 11.05
10/29/2020 10:15:00 PM 9.8 49.64 0.038 6.72 4.31 11.05
10/29/2020 10:30:00 PM 9.79 49.622 0.038 6.74 4.01 11.06
10/29/2020 10:45:00 PM 9.78 49.604 0.038 6.72 5.51 11.06
10/29/2020 11:00:00 PM 9.77 49.586 0.037 6.76 3.89 11.03
10/29/2020 11:15:00 PM 9.75 49.55 0.037 6.74 3.76 11.06
10/29/2020 11:30:00 PM 9.74 49.532 0.037 6.75 4.72 11.06
10/29/2020 11:45:00 PM 9.73 49.514 0.037 6.73 4.08 11.06
10/30/2020 12:00:00 AM 9.72 49.496 0.037 6.73 3.8 11.05
10/30/2020 12:15:00 AM 9.71 49.478 0.037 6.72 3.8 11.05
10/30/2020 12:30:00 AM 9.7 49.46 0.037 6.71 4.08 11.04
10/30/2020 12:45:00 AM 9.7 49.46 0.037 6.67 4.01 11
10/30/2020 1:00:00 AM 9.67 49.406 0.037 6.69 4.07 11.03
10/30/2020 1:15:00 AM 9.65 49.37 0.035 6.68 4.76 11.03
10/30/2020 1:30:00 AM 9.63 49.334 0.037 6.69 4.2 11.04
10/30/2020 1:45:00 AM 9.61 49.298 0.037 6.62 3.92 11.03
10/30/2020 2:00:00 AM 9.59 49.262 0.037 6.71 4.52 11.03
10/30/2020 2:15:00 AM 9.57 49.226 0.037 6.71 4.6 11.02
10/30/2020 2:30:00 AM 9.55 49.19 0.037 6.68 4.55 11.02
10/30/2020 2:45:00 AM 9.54 49.172 0.037 6.66 4.49 11
10/30/2020 3:00:00 AM 9.52 49.136 0.037 6.66 4.57 10.99
10/30/2020 3:15:00 AM 9.49 49.082 0.037 6.67 4.05 11.03
10/30/2020 3:30:00 AM 9.47 49.046 0.037 6.67 4.08 11.04
10/30/2020 3:45:00 AM 9.45 49.01 0.037 6.68 4.03 11.06
10/30/2020 4:00:00 AM 9.42 48.956 0.037 6.68 4.01 11.06
10/30/2020 4:15:00 AM 9.4 48.92 0.037 6.68 4.8 11.07
10/30/2020 4:30:00 AM 9.37 48.866 0.037 6.7 4.79 11.06
10/30/2020 4:45:00 AM 9.34 48.812 0.037 6.63 3.95 11.07
10/30/2020 5:00:00 AM 9.32 48.776 0.037 6.68 3.81 11.06
10/30/2020 5:15:00 AM 9.28 48.704 0.036 6.66 3.77 11.07
10/30/2020 5:30:00 AM 9.25 48.65 0.036 6.68 3.83 11.09
10/30/2020 5:45:00 AM 9.21 48.578 0.036 6.67 3.87 11.09
10/30/2020 6:00:00 AM 9.17 48.506 0.036 6.67 4.01 11.11
10/30/2020 6:15:00 AM 9.14 48.452 0.036 6.62 3.96 11.11
10/30/2020 6:30:00 AM 9.11 48.398 0.036 6.65 3.87 11.1
10/30/2020 6:45:00 AM 9.09 48.362 0.036 6.65 4.07 11.15
10/30/2020 7:00:00 AM 9.06 48.308 0.036 6.65 3.92 11.16
10/30/2020 7:15:00 AM 9.04 48.272 0.037 6.65 3.83 11.17
10/30/2020 7:30:00 AM 9.02 48.236 0.037 6.65 4.03 11.18
10/30/2020 7:45:00 AM 9 48.2 0.037 6.66 3.87 11.2
10/30/2020 8:00:00 AM 8.98 48.164 0.037 6.67 3.9 11.21
10/30/2020 8:15:00 AM 8.97 48.146 0.037 6.66 4.01 11.22
10/30/2020 8:30:00 AM 8.96 48.128 0.037 6.62 3.88 11.24
10/30/2020 8:45:00 AM 8.95 48.11 0.037 6.67 3.93 11.25
10/30/2020 9:00:00 AM 8.95 48.11 0.037 6.66 3.88 11.27
10/30/2020 9:15:00 AM 8.94 48.092 0.037 6.7 3.95 11.28
10/30/2020 9:30:00 AM 8.94 48.092 0.037 6.69 3.89 11.31
10/30/2020 9:45:00 AM 8.95 48.11 0.037 6.7 3.93 11.33
10/30/2020 10:00:00 AM 8.96 48.128 0.037 6.69 3.68 11.35
10/30/2020 10:15:00 AM 8.99 48.182 0.037 6.69 3.77 11.38
10/30/2020 10:30:00 AM 9.02 48.236 0.037 6.7 3.73 11.4
10/30/2020 10:45:00 AM 9.02 48.236 0.037 6.7 3.75 11.38
10/30/2020 11:00:00 AM 9.02 48.236 0.038 6.7 3.77 11.35
10/30/2020 11:15:00 AM 9.02 48.236 0.038 6.7 3.75 11.39
10/30/2020 11:30:00 AM 9.04 48.272 0.038 6.7 3.88 11.38
10/30/2020 11:45:00 AM 9.03 48.254 0.038 6.67 3.76 11.4
10/30/2020 12:00:00 PM 9.04 48.272 0.038 6.7 3.82 11.4
10/30/2020 12:15:00 PM 9.08 48.344 0.038 6.72 3.81 11.41
10/30/2020 12:30:00 PM 9.09 48.362 0.038 6.71 3.86 11.42
10/30/2020 12:45:00 PM 9.09 48.362 0.037 6.71 3.65 11.4
10/30/2020 1:00:00 PM 9.09 48.362 0.037 6.71 3.65 11.38
10/30/2020 1:15:00 PM 9.1 48.38 0.037 6.71 3.67 11.4
10/30/2020 1:30:00 PM 9.12 48.416 0.037 6.71 3.7 11.4
10/30/2020 1:45:00 PM 9.13 48.434 0.037 6.7 3.57 11.4
10/30/2020 2:00:00 PM 9.14 48.452 0.037 6.7 3.57 11.38
10/30/2020 2:15:00 PM 9.13 48.434 0.037 6.7 3.54 11.37
10/30/2020 2:30:00 PM 9.14 48.452 0.037 6.69 3.55 11.35
10/30/2020 2:45:00 PM 9.14 48.452 0.037 6.64 3.55 11.37
10/30/2020 3:00:00 PM 9.13 48.434 0.037 6.7 3.55 11.36
10/30/2020 3:15:00 PM 9.13 48.434 0.037 6.69 3.58 11.36
10/30/2020 3:30:00 PM 9.12 48.416 0.037 6.66 3.52 11.36
10/30/2020 3:45:00 PM 9.13 48.434 0.037 6.7 3.53 11.39
10/30/2020 4:00:00 PM 9.14 48.452 0.037 6.71 3.49 11.39
10/30/2020 4:15:00 PM 9.15 48.47 0.037 6.7 3.54 11.39
10/30/2020 4:30:00 PM 9.14 48.452 0.037 6.7 3.45 11.39
10/30/2020 4:45:00 PM 9.14 48.452 0.037 6.68 3.48 11.36
10/30/2020 5:00:00 PM 9.13 48.434 0.037 6.67 3.45 11.35
10/30/2020 5:15:00 PM 9.12 48.416 0.037 6.67 3.45 11.34
10/30/2020 5:30:00 PM 9.1 48.38 0.037 6.66 3.65 11.3
10/30/2020 5:45:00 PM 9.09 48.362 0.037 6.64 3.46 11.27
10/30/2020 6:00:00 PM 9.07 48.326 0.037 6.62 3.34 11.24
10/30/2020 6:15:00 PM 9.05 48.29 0.037 6.64 3.25 11.23
10/30/2020 6:30:00 PM 9.03 48.254 0.037 6.61 3.25 11.21
10/30/2020 6:45:00 PM 9.01 48.218 0.037 6.61 3.24 11.21
10/30/2020 7:00:00 PM 8.97 48.146 0.037 6.63 3.3 11.2
10/30/2020 7:15:00 PM 8.94 48.092 0.037 6.62 3.34 11.23
10/30/2020 7:30:00 PM 8.88 47.984 0.037 6.62 3.3 11.25
10/30/2020 7:45:00 PM 8.85 47.93 0.035 6.57 4.18 11.25
10/30/2020 8:00:00 PM 8.83 47.894 0.037 6.6 3.28 11.27
10/30/2020 8:15:00 PM 8.8 47.84 0.037 6.6 3.25 11.27
10/30/2020 8:30:00 PM 8.79 47.822 0.037 6.6 3.25 11.28
10/30/2020 8:45:00 PM 8.76 47.768 0.037 6.59 3.3 11.28
10/30/2020 9:00:00 PM 8.72 47.696 0.037 6.6 3.25 11.3
10/30/2020 9:15:00 PM 8.69 47.642 0.037 6.61 3.33 11.3
10/30/2020 9:30:00 PM 8.68 47.624 0.037 6.61 3.31 11.32
10/30/2020 9:45:00 PM 8.67 47.606 0.037 6.6 3.27 11.31
10/30/2020 10:00:00 PM 8.65 47.57 0.037 6.6 3.23 11.33
10/30/2020 10:15:00 PM 8.64 47.552 0.037 6.58 3.28 11.34
10/30/2020 10:30:00 PM 8.63 47.534 0.037 6.6 3.33 11.34
10/30/2020 10:45:00 PM 8.62 47.516 0.037 6.61 3.25 11.35
10/30/2020 11:00:00 PM 8.61 47.498 0.037 6.57 3.26 11.34
10/30/2020 11:15:00 PM 8.6 47.48 0.037 6.61 3.23 11.34
10/30/2020 11:30:00 PM 8.58 47.444 0.037 6.61 3.32 11.35
10/30/2020 11:45:00 PM 8.58 47.444 0.037 6.61 3.25 11.36
10/31/2020 12:00:00 AM 8.56 47.408 0.037 6.59 3.23 11.36
10/31/2020 12:15:00 AM 8.56 47.408 0.037 6.61 3.24 11.33
10/31/2020 12:30:00 AM 8.56 47.408 0.037 6.61 3.27 11.34
10/31/2020 12:45:00 AM 8.55 47.39 0.037 6.59 3.32 11.35
10/31/2020 1:00:00 AM 8.55 47.39 0.037 6.6 3.26 11.36
10/31/2020 1:15:00 AM 8.54 47.372 0.037 6.6 3.22 11.35
10/31/2020 1:30:00 AM 8.53 47.354 0.037 6.57 3.24 11.35
10/31/2020 1:45:00 AM 8.53 47.354 0.035 6.58 4.21 11.35
10/31/2020 2:00:00 AM 8.52 47.336 0.037 6.6 3.23 11.36
10/31/2020 2:15:00 AM 8.51 47.318 0.037 6.6 3.21 11.36
10/31/2020 2:30:00 AM 8.51 47.318 0.037 6.6 3.25 11.31
10/31/2020 2:45:00 AM 8.5 47.3 0.037 6.59 3.23 11.36
10/31/2020 3:00:00 AM 8.49 47.282 0.037 6.6 3.19 11.35
10/31/2020 3:15:00 AM 8.48 47.264 0.037 6.59 3.17 11.36
10/31/2020 3:30:00 AM 8.47 47.246 0.037 6.6 3.23 11.34
10/31/2020 3:45:00 AM 8.47 47.246 0.037 6.57 3.21 11.34
10/31/2020 4:00:00 AM 8.46 47.228 0.037 6.56 3.24 11.35
10/31/2020 4:15:00 AM 8.44 47.192 0.037 6.59 3.22 11.35
10/31/2020 4:30:00 AM 8.43 47.174 0.037 6.58 3.19 11.29
10/31/2020 4:45:00 AM 8.42 47.156 0.037 6.55 3.19 11.34
10/31/2020 5:00:00 AM 8.41 47.138 0.037 6.57 3.26 11.34
10/31/2020 5:15:00 AM 8.39 47.102 0.037 6.57 3.27 11.28
10/31/2020 5:30:00 AM 8.37 47.066 0.035 6.55 4.04 11.35
10/31/2020 5:45:00 AM 8.36 47.048 0.035 6.55 4.09 11.35
10/31/2020 6:00:00 AM 8.35 47.03 0.037 6.56 3.23 11.32
10/31/2020 6:15:00 AM 8.32 46.976 0.035 6.54 4.07 11.36
10/31/2020 6:30:00 AM 8.31 46.958 0.037 6.56 3.22 11.36
10/31/2020 6:45:00 AM 8.27 46.886 0.035 6.53 4.24 11.38
10/31/2020 7:00:00 AM 8.27 46.886 0.037 6.57 3.28 11.34
10/31/2020 7:15:00 AM 8.25 46.85 0.037 6.56 3.18 11.35
10/31/2020 7:30:00 AM 8.24 46.832 0.037 6.57 3.18 11.35
10/31/2020 7:45:00 AM 8.21 46.778 0.035 6.54 4.06 11.42
10/31/2020 8:00:00 AM 8.21 46.778 0.037 6.57 3.18 11.41
10/31/2020 8:15:00 AM 8.2 46.76 0.035 6.54 4.05 11.46
10/31/2020 8:30:00 AM 8.2 46.76 0.037 6.57 3.18 11.49
10/31/2020 8:45:00 AM 8.22 46.796 0.037 6.59 3.32 11.5
10/31/2020 9:00:00 AM 8.24 46.832 0.035 6.56 4.16 11.55
10/31/2020 9:15:00 AM 8.25 46.85 0.035 6.57 4.08 11.59
10/31/2020 9:30:00 AM 8.29 46.922 0.037 6.61 3.2 11.61
10/31/2020 9:45:00 AM 8.33 46.994 0.037 6.55 3.19 11.62
10/31/2020 10:00:00 AM 8.36 47.048 0.037 6.62 3.19 11.61
10/31/2020 10:15:00 AM 8.39 47.102 0.035 6.58 4.16 11.61
10/31/2020 10:30:00 AM 8.43 47.174 0.037 6.62 3.21 11.61
10/31/2020 10:45:00 AM 8.42 47.156 0.036 6.61 3.21 11.56
10/31/2020 11:00:00 AM 8.7 47.66 0.034 6.59 4.1 11.6
10/31/2020 11:15:00 AM 8.73 47.714 0.034 6.59 4.08 11.62
10/31/2020 11:30:00 AM 8.61 47.498 0.037 6.61 3.23 11.59
10/31/2020 11:45:00 AM 8.69 47.642 0.034 6.58 4.38 11.58
10/31/2020 12:00:00 PM 8.87 47.966 0.036 6.62 3.21 11.58
10/31/2020 12:15:00 PM 9.15 48.47 0.036 6.58 3.17 11.45
10/31/2020 12:30:00 PM 9.26 48.668 0.036 6.61 3.21 11.46
10/31/2020 12:45:00 PM 9.35 48.83 0.036 6.62 3.18 11.45
10/31/2020 1:00:00 PM 9.46 49.028 0.036 6.59 3.2 11.23
10/31/2020 1:15:00 PM 9.51 49.118 0.036 6.59 3.19 11.42
10/31/2020 1:30:00 PM 9.46 49.028 0.036 6.61 3.2 11.39
10/31/2020 1:45:00 PM 9.4 48.92 0.036 6.6 3.26 11.33
10/31/2020 2:00:00 PM 9.31 48.758 0.036 6.59 3.19 11.32
10/31/2020 2:15:00 PM 9.25 48.65 0.036 6.58 3.17 11.31
10/31/2020 2:30:00 PM 9.22 48.596 0.036 6.58 3.18 11.29
10/31/2020 2:45:00 PM 9.23 48.614 0.036 6.57 3.16 11.29
10/31/2020 3:00:00 PM 9.2 48.56 0.036 6.55 3.2 11.23
10/31/2020 3:15:00 PM 9.16 48.488 0.036 6.59 3.16 11.28
10/31/2020 3:30:00 PM 9.22 48.596 0.036 6.61 3.21 11.27
10/31/2020 3:45:00 PM 9.18 48.524 0.036 6.55 3.2 11.26
10/31/2020 4:00:00 PM 9.22 48.596 0.036 6.46 3.19 11.19
10/31/2020 4:15:00 PM 9.25 48.65 0.036 6.56 3.18 11.17
10/31/2020 4:30:00 PM 9.24 48.632 0.036 6.57 3.22 11.18
10/31/2020 4:45:00 PM 9.2 48.56 0.036 6.57 3.21 11.16
10/31/2020 5:00:00 PM 9.2 48.56 0.036 6.55 3.18 11.12
10/31/2020 5:15:00 PM 9.16 48.488 0.037 6.56 3.15 11.1
10/31/2020 5:30:00 PM 9.12 48.416 0.037 6.56 3.2 11.08
10/31/2020 5:45:00 PM 9.07 48.326 0.037 6.54 3.16 10.98
10/31/2020 6:00:00 PM 9.01 48.218 0.037 6.53 3.16 11.01
10/31/2020 6:15:00 PM 8.96 48.128 0.037 6.57 3.16 11.05
10/31/2020 6:30:00 PM 8.93 48.074 0.037 6.54 3.16 11.02
10/31/2020 6:45:00 PM 8.9 48.02 0.037 6.52 3.2 10.98
10/31/2020 7:00:00 PM 8.84 47.912 0.037 6.53 3.2 11.03
10/31/2020 7:15:00 PM 8.79 47.822 0.037 6.52 3.2 10.95
10/31/2020 7:30:00 PM 8.73 47.714 0.037 6.48 3.19 11.01
10/31/2020 7:45:00 PM 8.67 47.606 0.037 6.5 3.22 11.05
10/31/2020 8:00:00 PM 8.64 47.552 0.037 6.52 3.21 11.03
10/31/2020 8:15:00 PM 8.61 47.498 0.037 6.52 3.17 11
10/31/2020 8:30:00 PM 8.56 47.408 0.037 6.51 3.19 10.94
10/31/2020 8:45:00 PM 8.51 47.318 0.035 6.48 4.08 11.05
10/31/2020 9:00:00 PM 8.43 47.174 0.035 6.51 4.1 11.1
10/31/2020 9:15:00 PM 8.39 47.102 0.035 6.51 4.01 11.11
10/31/2020 9:30:00 PM 8.35 47.03 0.037 6.53 3.2 11.12
10/31/2020 9:45:00 PM 8.32 46.976 0.035 6.48 3.98 11.13
10/31/2020 10:00:00 PM 8.31 46.958 0.035 6.49 4.11 11.13
10/31/2020 10:15:00 PM 8.3 46.94 0.035 6.48 4.06 11.13
10/31/2020 10:30:00 PM 8.27 46.886 0.037 6.53 3.21 11.09
10/31/2020 10:45:00 PM 8.27 46.886 0.037 6.5 3.22 11.13
10/31/2020 11:00:00 PM 8.27 46.886 0.037 6.51 3.2 11.11
10/31/2020 11:15:00 PM 8.26 46.868 0.037 6.53 3.36 11.13
10/31/2020 11:30:00 PM 8.26 46.868 0.037 6.49 3.18 11.1
10/31/2020 11:45:00 PM 8.27 46.886 0.037 6.51 3.21 11.07
11/1/2020 12:00:00 AM 8.28 46.904 0.035 6.5 4.18 11.11
11/1/2020 12:15:00 AM 8.28 46.904 0.037 6.48 3.19 11.1
11/1/2020 12:30:00 AM 8.25 46.85 0.037 6.51 4.5 11.09
11/1/2020 12:45:00 AM 8.26 46.868 0.035 6.5 4.55 11.12
11/1/2020 1:00:00 AM 8.24 46.832 0.037 6.54 3.73 11.14
11/1/2020 1:15:00 AM 8.25 46.85 0.035 6.51 4.33 11.16
11/1/2020 1:30:00 AM 8.24 46.832 0.037 6.55 3.67 11.12
11/1/2020 1:45:00 AM 8.27 46.886 0.035 6.51 4.45 11.14
11/1/2020 2:00:00 AM 8.27 46.886 0.037 6.55 3.7 11.1
11/1/2020 2:15:00 AM 8.25 46.85 0.037 6.55 3.66 11.12
11/1/2020 2:30:00 AM 8.25 46.85 0.037 6.54 3.66 11.11
11/1/2020 2:45:00 AM 8.25 46.85 0.037 6.52 3.68 11.11
11/1/2020 3:00:00 AM 8.24 46.832 0.037 6.54 3.65 11.07
11/1/2020 3:15:00 AM 8.25 46.85 0.037 6.49 3.68 11.1
11/1/2020 3:30:00 AM 8.24 46.832 0.037 6.54 3.62 11.1
11/1/2020 3:45:00 AM 8.22 46.796 0.037 6.57 3.6 11.12
11/1/2020 4:00:00 AM 8.24 46.832 0.037 6.54 3.64 11.11
11/1/2020 4:15:00 AM 8.26 46.868 0.037 6.55 3.69 11.07
11/1/2020 4:30:00 AM 8.26 46.868 0.037 6.54 3.66 11.08
11/1/2020 4:45:00 AM 8.27 46.886 0.037 6.52 3.66 11.08
11/1/2020 5:00:00 AM 8.28 46.904 0.037 6.54 3.71 11.05
11/1/2020 5:15:00 AM 8.27 46.886 0.037 6.5 3.67 11.03
11/1/2020 5:30:00 AM 8.31 46.958 0.037 6.53 3.72 11.01
11/1/2020 5:45:00 AM 8.31 46.958 0.035 6.5 4.63 11.02
11/1/2020 6:00:00 AM 8.32 46.976 0.037 6.54 3.68 10.99
11/1/2020 6:15:00 AM 8.32 46.976 0.037 6.54 3.67 11.03
11/1/2020 6:30:00 AM 8.33 46.994 0.037 6.52 3.65 11.01
11/1/2020 6:45:00 AM 8.35 47.03 0.037 6.51 3.63 10.99
11/1/2020 7:00:00 AM 8.37 47.066 0.037 6.54 3.69 11.01
11/1/2020 7:15:00 AM 8.37 47.066 0.037 6.5 3.67 11.01
11/1/2020 7:30:00 AM 8.4 47.12 0.035 6.52 4.55 11.02
11/1/2020 7:45:00 AM 8.43 47.174 0.036 6.55 3.64 11.02
11/1/2020 8:00:00 AM 8.46 47.228 0.036 6.54 3.74 11.03
11/1/2020 8:15:00 AM 8.48 47.264 0.036 6.55 3.65 11.01
11/1/2020 8:30:00 AM 8.49 47.282 0.036 6.55 3.65 11.04
11/1/2020 8:45:00 AM 8.54 47.372 0.034 6.52 4.45 11.05
11/1/2020 9:00:00 AM 8.59 47.462 0.036 6.54 3.61 11.07
11/1/2020 9:15:00 AM 8.62 47.516 0.036 6.57 3.69 11.07
11/1/2020 9:30:00 AM 8.64 47.552 0.036 6.56 3.65 11.05
11/1/2020 9:45:00 AM 8.67 47.606 0.036 6.56 3.71 11.06
11/1/2020 10:00:00 AM 8.69 47.642 0.034 6.52 4.39 11.01
11/1/2020 10:15:00 AM 8.71 47.678 0.036 6.57 3.67 11.03
11/1/2020 10:30:00 AM 8.74 47.732 0.036 6.56 3.65 10.96
11/1/2020 10:45:00 AM 8.76 47.768 0.036 6.57 3.67 11.01
11/1/2020 11:00:00 AM 8.79 47.822 0.036 6.53 3.73 11
11/1/2020 11:15:00 AM 8.85 47.93 0.034 6.53 4.41 11
11/1/2020 11:30:00 AM 8.86 47.948 0.036 6.56 3.75 10.96
11/1/2020 11:45:00 AM 8.87 47.966 0.036 6.56 3.67 10.94
11/1/2020 12:00:00 PM 8.87 47.966 0.036 6.55 3.65 10.89
11/1/2020 12:15:00 PM 8.9 48.02 0.036 6.55 3.71 10.86
11/1/2020 12:30:00 PM 8.93 48.074 0.036 6.55 3.65 10.86
11/1/2020 12:45:00 PM 8.96 48.128 0.036 6.54 3.67 10.84
11/1/2020 1:00:00 PM 8.98 48.164 0.036 6.55 3.65 10.83
11/1/2020 1:15:00 PM 9.01 48.218 0.036 6.49 3.7 10.85
11/1/2020 1:30:00 PM 9.04 48.272 0.036 6.56 3.66 10.87
11/1/2020 1:45:00 PM 9.08 48.344 0.036 6.54 3.67 10.84
11/1/2020 2:00:00 PM 9.09 48.362 0.036 6.52 4.09 10.81
11/1/2020 2:15:00 PM 9.12 48.416 0.036 6.55 3.83 10.79
11/1/2020 2:30:00 PM 9.14 48.452 0.036 6.53 3.71 10.79
11/1/2020 2:45:00 PM 9.17 48.506 0.036 6.52 3.69 10.81
11/1/2020 3:00:00 PM 9.21 48.578 0.036 6.53 3.65 10.79
11/1/2020 3:15:00 PM 9.22 48.596 0.036 6.55 3.69 10.75
11/1/2020 3:30:00 PM 9.2 48.56 0.036 6.53 3.73 10.72
11/1/2020 3:45:00 PM 9.22 48.596 0.036 6.53 3.7 10.77
11/1/2020 4:00:00 PM 9.16 48.488 0.036 6.54 3.7 10.79
11/1/2020 4:15:00 PM 9.16 48.488 0.036 6.48 3.7 10.73
11/1/2020 4:30:00 PM 9.1 48.38 0.036 6.55 3.68 10.77
11/1/2020 4:45:00 PM 9.06 48.308 0.036 6.52 3.63 10.76
11/1/2020 5:00:00 PM 9.01 48.218 0.036 6.49 3.71 10.7
11/1/2020 5:15:00 PM 8.98 48.164 0.036 6.51 3.7 10.69
11/1/2020 5:30:00 PM 8.94 48.092 0.034 6.51 4.42 10.74
11/1/2020 5:45:00 PM 8.9 48.02 0.036 6.54 3.72 10.74
11/1/2020 6:00:00 PM 8.85 47.93 0.034 6.51 4.57 10.74
11/1/2020 6:15:00 PM 8.83 47.894 0.034 6.51 4.47 10.76
11/1/2020 6:30:00 PM 8.78 47.804 0.036 6.54 3.68 10.76
11/1/2020 6:45:00 PM 8.7 47.66 0.036 6.53 3.73 10.77
11/1/2020 7:00:00 PM 8.68 47.624 0.036 6.55 3.74 10.8
11/1/2020 7:15:00 PM 8.66 47.588 0.036 6.52 3.71 10.8
11/1/2020 7:30:00 PM 8.62 47.516 0.036 6.55 3.71 10.79
11/1/2020 7:45:00 PM 8.53 47.354 0.036 6.55 3.71 10.83
11/1/2020 8:00:00 PM 8.48 47.264 0.036 6.55 3.72 10.83
11/1/2020 8:15:00 PM 8.4 47.12 0.036 6.53 3.71 10.83
11/1/2020 8:30:00 PM 8.3 46.94 0.036 6.54 3.71 10.84
11/1/2020 8:45:00 PM 8.27 46.886 0.034 6.5 4.35 10.86
11/1/2020 9:00:00 PM 8.2 46.76 0.036 6.54 3.68 10.87
11/1/2020 9:15:00 PM 8.17 46.706 0.036 6.52 3.71 10.88
11/1/2020 9:30:00 PM 8.18 46.724 0.036 6.54 3.7 10.88
11/1/2020 9:45:00 PM 8.12 46.616 0.036 6.51 3.69 10.89
11/1/2020 10:00:00 PM 8.08 46.544 0.036 6.55 3.68 10.93
11/1/2020 10:15:00 PM 8.06 46.508 0.036 6.55 3.69 10.93
11/1/2020 10:30:00 PM 7.99 46.382 0.036 6.54 3.72 10.91
11/1/2020 10:45:00 PM 7.98 46.364 0.036 6.56 3.67 10.98
11/1/2020 11:00:00 PM 7.93 46.274 0.036 6.49 3.68 10.97
11/1/2020 11:15:00 PM 7.88 46.184 0.034 6.52 4.47 10.99
11/1/2020 11:30:00 PM 7.83 46.094 0.036 6.56 3.69 11.02
11/1/2020 11:45:00 PM 7.78 46.004 0.036 6.54 3.69 11.02
11/2/2020 12:00:00 AM 7.74 45.932 0.034 6.51 4.45 11.05
11/2/2020 12:15:00 AM 7.7 45.86 0.034 6.52 4.52 11.07
11/2/2020 12:30:00 AM 7.7 45.86 0.036 6.56 3.71 11.08
11/2/2020 12:45:00 AM 7.71 45.878 0.036 6.55 3.7 11.08
11/2/2020 1:00:00 AM 7.68 45.824 0.034 6.53 4.49 11.09
11/2/2020 1:15:00 AM 7.66 45.788 0.034 6.53 4.59 11.09
11/2/2020 1:30:00 AM 7.6 45.68 0.034 6.53 4.57 11.12
11/2/2020 1:45:00 AM 7.59 45.662 0.036 6.56 3.69 11.11
11/2/2020 2:00:00 AM 7.57 45.626 0.036 6.56 3.73 11.12
11/2/2020 2:15:00 AM 7.58 45.644 0.036 6.53 3.72 11.11
11/2/2020 2:30:00 AM 7.57 45.626 0.036 6.55 3.76 11.13
11/2/2020 2:45:00 AM 7.58 45.644 0.036 6.54 3.77 11.13
11/2/2020 3:00:00 AM 7.54 45.572 0.036 6.56 3.71 11.14
11/2/2020 3:15:00 AM 7.57 45.626 0.034 6.52 4.49 11.15
11/2/2020 3:30:00 AM 7.57 45.626 0.036 6.56 3.74 11.16
11/2/2020 3:45:00 AM 7.55 45.59 0.036 6.5 3.71 11.13
11/2/2020 4:00:00 AM 7.33 45.194 0.036 6.56 3.75 11.15
11/2/2020 4:15:00 AM 7.41 45.338 0.034 6.53 4.56 11.18
11/2/2020 4:30:00 AM 7.41 45.338 0.034 6.52 4.49 11.18
11/2/2020 4:45:00 AM 7.36 45.248 0.036 6.56 3.72 11.18
11/2/2020 5:00:00 AM 7.33 45.194 0.036 6.52 3.71 11.21
11/2/2020 5:15:00 AM 7.36 45.248 0.036 6.57 4.02 11.21
11/2/2020 5:30:00 AM 7.33 45.194 0.034 6.53 4.54 11.22
11/2/2020 5:45:00 AM 7.32 45.176 0.036 6.56 3.7 11.23
11/2/2020 6:00:00 AM 7.32 45.176 0.036 6.55 3.7 11.22
11/2/2020 6:15:00 AM 7.3 45.14 0.036 6.57 3.71 11.25
11/2/2020 6:30:00 AM 7.18 44.924 0.036 6.54 3.72 11.27
11/2/2020 6:45:00 AM 7.23 45.014 0.034 6.54 4.52 11.28
11/2/2020 7:00:00 AM 7.24 45.032 0.036 6.56 3.69 11.28
11/2/2020 7:15:00 AM 7.14 44.852 0.034 6.54 4.73 11.34
11/2/2020 7:30:00 AM 7.12 44.816 0.034 6.54 4.55 11.4
11/2/2020 7:45:00 AM 7.1 44.78 0.034 6.55 4.6 11.46
11/2/2020 8:00:00 AM 7.09 44.762 0.036 6.59 3.72 11.5
11/2/2020 8:15:00 AM 7.03 44.654 0.036 6.59 3.71 11.55
11/2/2020 8:30:00 AM 7.06 44.708 0.036 6.6 3.72 11.57
11/2/2020 8:45:00 AM 7.02 44.636 0.036 6.6 3.74 11.6
11/2/2020 9:00:00 AM 7 44.6 0.034 6.57 4.41 11.62
11/2/2020 9:15:00 AM 7.05 44.69 0.036 6.6 3.68 11.61
11/2/2020 9:30:00 AM 7.14 44.852 0.034 6.56 4.42 11.65
11/2/2020 9:45:00 AM 7.26 45.068 0.036 6.62 3.68 11.66
11/2/2020 10:00:00 AM 7.36 45.248 0.036 6.62 3.68 11.65
11/2/2020 10:15:00 AM 7.45 45.41 0.036 6.59 3.7 11.64
11/2/2020 10:30:00 AM 7.51 45.518 0.036 6.6 3.69 11.62
11/2/2020 10:45:00 AM 7.63 45.734 0.034 6.56 4.54 11.62
11/2/2020 11:00:00 AM 7.69 45.842 0.036 6.62 3.67 11.65
11/2/2020 11:15:00 AM 7.89 46.202 0.036 6.62 3.69 11.62
11/2/2020 11:30:00 AM 8.13 46.634 0.036 6.62 3.71 11.59
11/2/2020 11:45:00 AM 8.26 46.868 0.036 6.62 3.72 11.53
11/2/2020 12:00:00 PM 8.38 47.084 0.036 6.61 3.71 11.54
11/2/2020 12:15:00 PM 8.39 47.102 0.036 6.6 3.7 11.5
11/2/2020 12:30:00 PM 8.19 46.742 0.034 6.59 4.42 11.5
11/2/2020 12:45:00 PM 8.03 46.454 0.036 6.59 3.71 11.45
11/2/2020 1:00:00 PM 7.94 46.292 0.036 6.6 3.71 11.46
11/2/2020 1:15:00 PM 7.83 46.094 0.036 6.6 3.67 11.46
11/2/2020 1:30:00 PM 7.81 46.058 0.034 6.57 4.5 11.48
11/2/2020 1:45:00 PM 7.87 46.166 0.036 6.61 3.71 11.46
11/2/2020 2:00:00 PM 7.87 46.166 0.036 6.61 3.69 11.5
11/2/2020 2:15:00 PM 7.87 46.166 0.036 6.6 3.71 11.47
11/2/2020 2:30:00 PM 7.82 46.076 0.036 6.61 3.68 11.45
11/2/2020 2:45:00 PM 7.82 46.076 0.036 6.6 3.7 11.44
11/2/2020 3:00:00 PM 7.91 46.238 0.036 6.59 3.72 11.4
11/2/2020 3:15:00 PM 7.88 46.184 0.036 6.6 3.67 11.39
11/2/2020 3:30:00 PM 7.89 46.202 0.036 6.59 3.7 11.37
11/2/2020 3:45:00 PM 7.89 46.202 0.036 6.59 3.71 11.35
11/2/2020 4:00:00 PM 7.87 46.166 0.034 6.55 4.61 11.33
11/2/2020 4:15:00 PM 7.82 46.076 0.036 6.57 3.71 11.3
11/2/2020 4:30:00 PM 7.76 45.968 0.036 6.57 3.69 11.27
11/2/2020 4:45:00 PM 7.74 45.932 0.036 6.57 3.71 11.23
11/2/2020 5:00:00 PM 7.67 45.806 0.036 6.54 3.71 11.24
11/2/2020 5:15:00 PM 7.69 45.842 0.034 6.53 4.57 11.21
11/2/2020 5:30:00 PM 7.69 45.842 0.036 6.57 3.67 11.2
11/2/2020 5:45:00 PM 7.67 45.806 0.034 6.51 4.46 11.18
11/2/2020 6:00:00 PM 7.66 45.788 0.034 6.51 4.44 11.17
11/2/2020 6:15:00 PM 7.67 45.806 0.034 6.52 4.43 11.16
11/2/2020 6:30:00 PM 7.66 45.788 0.034 6.51 4.49 11.15
11/2/2020 6:45:00 PM 7.64 45.752 0.034 6.5 4.44 11.16
11/2/2020 7:00:00 PM 7.63 45.734 0.034 6.5 4.47 11.13
11/2/2020 7:15:00 PM 7.63 45.734 0.036 6.54 3.73 11.15
11/2/2020 7:30:00 PM 7.64 45.752 0.036 6.54 3.71 11.14
11/2/2020 7:45:00 PM 7.62 45.716 0.034 6.49 4.46 11.15
11/2/2020 8:00:00 PM 7.62 45.716 0.034 6.5 4.5 11.14
11/2/2020 8:15:00 PM 7.59 45.662 0.036 6.53 3.69 11.12
11/2/2020 8:30:00 PM 7.56 45.608 0.036 6.53 3.72 11.15
11/2/2020 8:45:00 PM 7.54 45.572 0.036 6.53 3.77 11.14
11/2/2020 9:00:00 PM 7.53 45.554 0.036 6.54 3.7 11.15
11/2/2020 9:15:00 PM 7.52 45.536 0.036 6.53 3.71 11.13
11/2/2020 9:30:00 PM 7.5 45.5 0.036 6.52 3.71 11.14
11/2/2020 9:45:00 PM 7.47 45.446 0.036 6.51 3.7 11.12
11/2/2020 10:00:00 PM 7.43 45.374 0.034 6.49 4.5 11.13
11/2/2020 10:15:00 PM 7.41 45.338 0.036 6.53 3.71 11.15
11/2/2020 10:30:00 PM 7.39 45.302 0.036 6.52 3.77 11.15
11/2/2020 10:45:00 PM 7.37 45.266 0.036 6.53 3.73 11.17
11/2/2020 11:00:00 PM 7.35 45.23 0.036 6.52 3.69 11.17
11/2/2020 11:15:00 PM 7.29 45.122 0.036 6.53 3.67 11.18
11/2/2020 11:30:00 PM 7.26 45.068 0.036 6.54 3.69 11.19
11/2/2020 11:45:00 PM 7.25 45.05 0.036 6.53 3.69 11.19
11/3/2020 12:00:00 AM 7.24 45.032 0.036 6.52 3.7 11.22
11/3/2020 12:15:00 AM 7.26 45.068 0.036 6.54 3.67 11.23
11/3/2020 12:30:00 AM 7.24 45.032 0.036 6.55 3.7 11.24
11/3/2020 12:45:00 AM 7.26 45.068 0.036 6.54 3.67 11.24
11/3/2020 1:00:00 AM 7.21 44.978 0.034 6.51 4.51 11.25
11/3/2020 1:15:00 AM 7.23 45.014 0.034 6.51 4.48 11.26
11/3/2020 1:30:00 AM 7.22 44.996 0.036 6.54 3.68 11.24
11/3/2020 1:45:00 AM 7.23 45.014 0.034 6.49 4.5 11.23
11/3/2020 2:00:00 AM 7.22 44.996 0.034 6.51 4.34 11.23
11/3/2020 2:15:00 AM 7.22 44.996 0.036 6.53 3.68 11.22
11/3/2020 2:30:00 AM 7.2 44.96 0.034 6.5 4.46 11.25
11/3/2020 2:45:00 AM 7.19 44.942 0.034 6.5 4.71 11.23
11/3/2020 3:00:00 AM 7.19 44.942 0.034 6.5 4.52 11.23
11/3/2020 3:15:00 AM 7.19 44.942 0.036 6.53 3.7 11.23
11/3/2020 3:30:00 AM 7.21 44.978 0.036 6.52 3.71 11.21
11/3/2020 3:45:00 AM 7.18 44.924 0.034 6.49 4.51 11.22
11/3/2020 4:00:00 AM 7.17 44.906 0.034 6.49 4.55 11.23
11/3/2020 4:15:00 AM 7.15 44.87 0.034 6.49 4.46 11.24
11/3/2020 4:30:00 AM 7.17 44.906 0.034 6.49 4.5 11.24
11/3/2020 4:45:00 AM 7.19 44.942 0.036 6.52 3.7 11.23
11/3/2020 5:00:00 AM 7.16 44.888 0.034 6.49 4.63 11.24
11/3/2020 5:15:00 AM 7.14 44.852 0.036 6.53 3.69 11.25
11/3/2020 5:30:00 AM 7.13 44.834 0.036 6.53 3.69 11.22
11/3/2020 5:45:00 AM 7.15 44.87 0.034 6.49 4.4 11.26
11/3/2020 6:00:00 AM 7.18 44.924 0.036 6.53 3.71 11.1
11/3/2020 6:15:00 AM 7.18 44.924 0.036 6.53 3.7 11.25
11/3/2020 6:30:00 AM 7.17 44.906 0.034 6.49 4.56 11.26
11/3/2020 6:45:00 AM 7.18 44.924 0.034 6.5 4.47 11.27
11/3/2020 7:00:00 AM 7.2 44.96 0.034 6.51 4.7 11.29
11/3/2020 7:15:00 AM 7.2 44.96 0.036 6.53 3.69 11.31
11/3/2020 7:30:00 AM 7.21 44.978 0.036 6.55 3.72 11.37
11/3/2020 7:45:00 AM 7.23 45.014 0.034 6.51 4.44 11.38
11/3/2020 8:00:00 AM 7.24 45.032 0.036 6.56 3.68 11.4
11/3/2020 8:15:00 AM 7.28 45.104 0.036 6.54 3.69 11.43
11/3/2020 8:30:00 AM 7.28 45.104 0.036 6.55 3.68 11.46
11/3/2020 8:45:00 AM 7.34 45.212 0.036 6.54 3.65 11.46
11/3/2020 9:00:00 AM 7.46 45.428 0.036 6.57 3.66 11.5
11/3/2020 9:15:00 AM 7.61 45.698 0.034 6.53 4.47 11.52
11/3/2020 9:30:00 AM 7.66 45.788 0.036 6.56 3.67 11.5
11/3/2020 9:45:00 AM 7.75 45.95 0.036 6.57 3.66 11.54
11/3/2020 10:00:00 AM 8.01 46.418 0.036 6.58 3.69 11.53
11/3/2020 10:15:00 AM 8.07 46.526 0.036 6.59 3.64 11.53
11/3/2020 10:30:00 AM 8.24 46.832 0.034 6.55 4.39 11.52
11/3/2020 10:45:00 AM 8.33 46.994 0.034 6.57 4.54 11.51
11/3/2020 11:00:00 AM 8.48 47.264 0.034 6.56 4.43 11.49
11/3/2020 11:15:00 AM 8.81 47.858 0.035 6.59 3.62 11.45
11/3/2020 11:30:00 AM 9 48.2 0.035 6.6 3.61 11.41
11/3/2020 11:45:00 AM 9.19 48.542 0.035 6.6 3.61 11.39
11/3/2020 12:00:00 PM 9.36 48.848 0.035 6.6 3.58 11.34
11/3/2020 12:15:00 PM 9.48 49.064 0.035 6.55 3.67 11.28
11/3/2020 12:30:00 PM 9.39 48.902 0.035 6.57 3.62 11.28
11/3/2020 12:45:00 PM 9.39 48.902 0.035 6.58 3.65 11.25
11/3/2020 1:00:00 PM 9.3 48.74 0.035 6.53 3.6 11.23
11/3/2020 1:15:00 PM 9.22 48.596 0.035 6.57 3.66 11.23
11/3/2020 1:30:00 PM 9.24 48.632 0.035 6.56 3.64 11.2
11/3/2020 1:45:00 PM 9.19 48.542 0.035 6.58 3.61 11.2
11/3/2020 2:00:00 PM 9.14 48.452 0.035 6.57 3.66 11.17
11/3/2020 2:15:00 PM 9.15 48.47 0.035 6.49 3.69 11.15
11/3/2020 2:30:00 PM 9.18 48.524 0.035 6.57 3.68 11.13
11/3/2020 2:45:00 PM 9.17 48.506 0.035 6.56 3.67 11.11
11/3/2020 3:00:00 PM 9.15 48.47 0.035 6.53 3.68 11.08
11/3/2020 3:15:00 PM 9.14 48.452 0.035 6.56 3.68 11.06
11/3/2020 3:30:00 PM 9.13 48.434 0.035 6.52 3.68 11.02
11/3/2020 3:45:00 PM 9.13 48.434 0.036 6.55 3.73 10.95
11/3/2020 4:00:00 PM 9.12 48.416 0.036 6.54 3.71 10.92
11/3/2020 4:15:00 PM 9.11 48.398 0.036 6.52 3.69 10.91
11/3/2020 4:30:00 PM 9.07 48.326 0.036 6.53 3.7 10.89
11/3/2020 4:45:00 PM 9.03 48.254 0.036 6.54 3.68 10.88
11/3/2020 5:00:00 PM 9 48.2 0.036 6.49 3.7 10.87
11/3/2020 5:15:00 PM 8.95 48.11 0.036 6.52 3.71 10.83
11/3/2020 5:30:00 PM 8.91 48.038 0.036 6.51 3.71 10.83
11/3/2020 5:45:00 PM 8.87 47.966 0.036 6.52 3.75 10.81
11/3/2020 6:00:00 PM 8.82 47.876 0.036 6.51 3.76 10.8
11/3/2020 6:15:00 PM 8.78 47.804 0.036 6.51 3.84 10.82
11/3/2020 6:30:00 PM 8.73 47.714 0.036 6.51 3.74 10.83
11/3/2020 6:45:00 PM 8.69 47.642 0.036 6.51 3.76 10.81
11/3/2020 7:00:00 PM 8.64 47.552 0.036 6.49 3.76 10.83
11/3/2020 7:15:00 PM 8.6 47.48 0.036 6.51 3.76 10.85
11/3/2020 7:30:00 PM 8.54 47.372 0.036 6.51 3.7 10.88
11/3/2020 7:45:00 PM 8.5 47.3 0.036 6.52 3.75 10.89
11/3/2020 8:00:00 PM 8.45 47.21 0.036 6.52 3.72 10.9
11/3/2020 8:15:00 PM 8.41 47.138 0.036 6.5 3.73 10.91
11/3/2020 8:30:00 PM 8.36 47.048 0.036 6.52 3.74 10.94
11/3/2020 8:45:00 PM 8.31 46.958 0.036 6.51 3.71 10.95
11/3/2020 9:00:00 PM 8.27 46.886 0.036 6.49 3.73 10.95
11/3/2020 9:15:00 PM 8.23 46.814 0.036 6.51 3.75 10.96
11/3/2020 9:30:00 PM 8.18 46.724 0.036 6.51 3.7 10.98
11/3/2020 9:45:00 PM 8.13 46.634 0.036 6.52 3.69 10.99
11/3/2020 10:00:00 PM 8.09 46.562 0.034 6.48 4.5 11
11/3/2020 10:15:00 PM 8.05 46.49 0.036 6.52 3.71 11.01
11/3/2020 10:30:00 PM 8 46.4 0.036 6.5 3.73 11.03
11/3/2020 10:45:00 PM 7.95 46.31 0.036 6.53 3.69 11.04
11/3/2020 11:00:00 PM 7.91 46.238 0.035 6.47 4.51 11.04
11/3/2020 11:15:00 PM 7.86 46.148 0.034 6.5 4.5 11.07
11/3/2020 11:30:00 PM 7.83 46.094 0.036 6.5 3.68 11.08
11/3/2020 11:45:00 PM 7.78 46.004 0.034 6.48 4.64 11.11
11/4/2020 12:00:00 AM 7.73 45.914 0.034 6.48 4.45 11.13
11/4/2020 12:15:00 AM 7.69 45.842 0.034 6.48 4.51 11.14
11/4/2020 12:30:00 AM 7.66 45.788 0.036 6.52 3.75 11.13
11/4/2020 12:45:00 AM 7.62 45.716 0.036 6.5 3.75 11.17
11/4/2020 1:00:00 AM 7.58 45.644 0.036 6.52 3.73 11.18
11/4/2020 1:15:00 AM 7.54 45.572 0.034 6.48 4.45 11.21
11/4/2020 1:30:00 AM 7.5 45.5 0.036 6.52 3.69 11.21
11/4/2020 1:45:00 AM 7.47 45.446 0.036 6.51 3.72 11.21
11/4/2020 2:00:00 AM 7.43 45.374 0.036 6.52 3.73 11.23
11/4/2020 2:15:00 AM 7.4 45.32 0.034 6.48 4.56 11.24
11/4/2020 2:30:00 AM 7.37 45.266 0.036 6.51 3.73 11.24
11/4/2020 2:45:00 AM 7.34 45.212 0.036 6.51 3.72 11.23
11/4/2020 3:00:00 AM 7.31 45.158 0.036 6.51 3.8 11.26
11/4/2020 3:15:00 AM 7.28 45.104 0.034 6.48 4.53 11.27
11/4/2020 3:30:00 AM 7.25 45.05 0.036 6.49 3.75 11.28
11/4/2020 3:45:00 AM 7.23 45.014 0.036 6.52 3.71 11.27
11/4/2020 4:00:00 AM 7.21 44.978 0.036 6.5 3.8 11.28
11/4/2020 4:15:00 AM 7.18 44.924 0.034 6.47 4.59 11.32
11/4/2020 4:30:00 AM 7.14 44.852 0.034 6.48 4.47 11.34
11/4/2020 4:45:00 AM 7.12 44.816 0.034 6.47 4.58 11.34
11/4/2020 5:00:00 AM 7.1 44.78 0.036 6.5 3.76 11.35
11/4/2020 5:15:00 AM 7.07 44.726 0.036 6.51 3.76 11.36
11/4/2020 5:30:00 AM 7.04 44.672 0.034 6.48 4.45 11.38
11/4/2020 5:45:00 AM 7.01 44.618 0.034 6.49 4.42 11.39
11/4/2020 6:00:00 AM 7.01 44.618 0.036 6.51 3.77 11.37
11/4/2020 6:15:00 AM 6.96 44.528 0.036 6.51 3.74 11.41
11/4/2020 6:30:00 AM 6.94 44.492 0.036 6.51 3.71 11.41
11/4/2020 6:45:00 AM 6.92 44.456 0.034 6.48 4.45 11.43
11/4/2020 7:00:00 AM 6.9 44.42 0.034 6.48 4.45 11.46
11/4/2020 7:15:00 AM 6.88 44.384 0.036 6.52 3.74 11.48
11/4/2020 7:30:00 AM 6.87 44.366 0.036 6.52 3.72 11.52
11/4/2020 7:45:00 AM 6.86 44.348 0.036 6.53 3.73 11.55
11/4/2020 8:00:00 AM 6.85 44.33 0.036 6.53 3.75 11.58
11/4/2020 8:15:00 AM 6.85 44.33 0.034 6.5 4.47 11.6
11/4/2020 8:30:00 AM 6.85 44.33 0.036 6.54 3.72 11.61
11/4/2020 8:45:00 AM 6.85 44.33 0.034 6.5 4.51 11.63
11/4/2020 9:00:00 AM 6.97 44.546 0.036 6.55 3.73 11.68
11/4/2020 9:15:00 AM 7.14 44.852 0.034 6.53 4.51 11.7
11/4/2020 9:30:00 AM 7.34 45.212 0.036 6.57 3.75 11.71
11/4/2020 9:45:00 AM 7.58 45.644 0.036 6.58 3.74 11.73
11/4/2020 10:00:00 AM 7.82 46.076 0.035 6.58 3.72 11.72
11/4/2020 10:15:00 AM 8.04 46.472 0.035 6.52 3.72 11.7
11/4/2020 10:30:00 AM 8.25 46.85 0.034 6.55 4.75 11.67
11/4/2020 10:45:00 AM 8.45 47.21 0.035 6.59 3.55 11.65
11/4/2020 11:00:00 AM 8.65 47.57 0.035 6.57 3.54 11.6
11/4/2020 11:15:00 AM 8.91 48.038 0.035 6.59 3.49 11.59
11/4/2020 11:30:00 AM 9.16 48.488 0.035 6.57 3.48 11.49
11/4/2020 11:45:00 AM 9.36 48.848 0.035 6.55 3.49 11.43
11/4/2020 12:00:00 PM 9.57 49.226 0.035 6.57 3.49 11.41
11/4/2020 12:15:00 PM 9.65 49.37 0.035 6.56 3.48 11.32
11/4/2020 12:30:00 PM 9.58 49.244 0.035 6.53 3.5 11.31
11/4/2020 12:45:00 PM 9.49 49.082 0.035 6.57 3.48 11.3
11/4/2020 1:00:00 PM 9.38 48.884 0.035 6.56 3.54 11.25
11/4/2020 1:15:00 PM 9.31 48.758 0.035 6.54 3.54 11.2
11/4/2020 1:30:00 PM 9.31 48.758 0.035 6.55 3.55 11.17
11/4/2020 1:45:00 PM 9.31 48.758 0.035 6.52 3.53 11.15
11/4/2020 2:00:00 PM 9.32 48.776 0.035 6.54 3.51 11.09
11/4/2020 2:15:00 PM 9.34 48.812 0.035 6.53 3.51 11.1
11/4/2020 2:30:00 PM 9.37 48.866 0.035 6.53 3.52 11.06
11/4/2020 2:45:00 PM 9.39 48.902 0.035 6.53 3.57 11.04
11/4/2020 3:00:00 PM 9.41 48.938 0.035 6.52 3.53 11.01
11/4/2020 3:15:00 PM 9.42 48.956 0.035 6.53 3.51 10.94
11/4/2020 3:30:00 PM 9.42 48.956 0.035 6.53 3.54 10.93
11/4/2020 3:45:00 PM 9.41 48.938 0.035 6.51 3.53 10.92
11/4/2020 4:00:00 PM 9.38 48.884 0.035 6.52 3.51 10.87
11/4/2020 4:15:00 PM 9.36 48.848 0.035 6.51 3.53 10.86
11/4/2020 4:30:00 PM 9.34 48.812 0.036 6.52 3.57 10.82
11/4/2020 4:45:00 PM 9.3 48.74 0.036 6.51 3.55 10.79
11/4/2020 5:00:00 PM 9.27 48.686 0.036 6.51 3.55 10.8
11/4/2020 5:15:00 PM 9.23 48.614 0.036 6.51 3.54 10.77
11/4/2020 5:30:00 PM 9.21 48.578 0.036 6.5 3.68 10.75
11/4/2020 5:45:00 PM 9.18 48.524 0.036 6.5 3.63 10.73
11/4/2020 6:00:00 PM 9.15 48.47 0.036 6.5 3.71 10.73
11/4/2020 6:15:00 PM 9.12 48.416 0.036 6.48 3.68 10.72
11/4/2020 6:30:00 PM 9.08 48.344 0.036 6.5 3.67 10.74
11/4/2020 6:45:00 PM 9.05 48.29 0.036 6.48 3.68 10.74
11/4/2020 7:00:00 PM 9.01 48.218 0.034 6.45 4.36 10.74
11/4/2020 7:15:00 PM 8.98 48.164 0.036 6.49 3.64 10.75
11/4/2020 7:30:00 PM 8.93 48.074 0.036 6.47 3.67 10.75
11/4/2020 7:45:00 PM 8.88 47.984 0.034 6.46 4.47 10.77
11/4/2020 8:00:00 PM 8.85 47.93 0.036 6.51 3.65 10.78
11/4/2020 8:15:00 PM 8.8 47.84 0.036 6.49 3.64 10.8
11/4/2020 8:30:00 PM 8.76 47.768 0.036 6.5 3.66 10.81
11/4/2020 8:45:00 PM 8.71 47.678 0.036 6.49 3.67 10.8
11/4/2020 9:00:00 PM 8.68 47.624 0.036 6.5 3.68 10.82
11/4/2020 9:15:00 PM 8.63 47.534 0.036 6.51 3.65 10.83
11/4/2020 9:30:00 PM 8.6 47.48 0.036 6.51 3.7 10.85
11/4/2020 9:45:00 PM 8.56 47.408 0.036 6.51 3.63 10.81
11/4/2020 10:00:00 PM 8.51 47.318 0.036 6.5 3.65 10.85
11/4/2020 10:15:00 PM 8.47 47.246 0.036 6.49 3.67 10.88
11/4/2020 10:30:00 PM 8.44 47.192 0.036 6.51 3.66 10.88
11/4/2020 10:45:00 PM 8.38 47.084 0.036 6.51 3.78 10.9
11/4/2020 11:00:00 PM 8.34 47.012 0.034 6.46 4.53 10.92
11/4/2020 11:15:00 PM 8.29 46.922 0.036 6.51 3.64 10.94
11/4/2020 11:30:00 PM 8.27 46.886 0.036 6.51 3.68 10.95
11/4/2020 11:45:00 PM 8.24 46.832 0.036 6.49 3.67 10.95
11/5/2020 12:00:00 AM 8.19 46.742 0.036 6.51 3.7 10.95
11/5/2020 12:15:00 AM 8.16 46.688 0.036 6.5 3.64 10.97
11/5/2020 12:30:00 AM 8.12 46.616 0.036 6.51 3.7 10.99
11/5/2020 12:45:00 AM 8.09 46.562 0.036 6.5 3.66 10.99
11/5/2020 1:00:00 AM 8.06 46.508 0.036 6.5 3.64 10.99
11/5/2020 1:15:00 AM 8.03 46.454 0.036 6.5 3.66 11
11/5/2020 1:30:00 AM 7.99 46.382 0.036 6.5 3.67 11.01
11/5/2020 1:45:00 AM 7.97 46.346 0.036 6.5 3.65 11.02
11/5/2020 2:00:00 AM 7.95 46.31 0.036 6.5 3.63 11.02
11/5/2020 2:15:00 AM 7.9 46.22 0.034 6.47 4.35 11.03
11/5/2020 2:30:00 AM 7.88 46.184 0.034 6.46 4.53 11.04
11/5/2020 2:45:00 AM 7.85 46.13 0.034 6.47 4.35 11.06
11/5/2020 3:00:00 AM 7.82 46.076 0.034 6.46 4.52 11.06
11/5/2020 3:15:00 AM 7.79 46.022 0.034 6.47 4.5 11.08
11/5/2020 3:30:00 AM 7.76 45.968 0.034 6.46 4.53 11.07
11/5/2020 3:45:00 AM 7.74 45.932 0.034 6.47 4.54 11.08
11/5/2020 4:00:00 AM 7.72 45.896 0.034 6.46 4.35 11.08
11/5/2020 4:15:00 AM 7.68 45.824 0.036 6.5 3.69 11.1
11/5/2020 4:30:00 AM 7.66 45.788 0.036 6.5 3.69 11.11
11/5/2020 4:45:00 AM 7.65 45.77 0.036 6.47 3.68 11.1
11/5/2020 5:00:00 AM 7.6 45.68 0.036 6.5 3.7 11.13
11/5/2020 5:15:00 AM 7.59 45.662 0.036 6.5 3.72 11.13
11/5/2020 5:30:00 AM 7.56 45.608 0.034 6.47 4.44 11.14
11/5/2020 5:45:00 AM 7.54 45.572 0.036 6.51 3.69 11.14
11/5/2020 6:00:00 AM 7.52 45.536 0.034 6.46 4.32 11.16
11/5/2020 6:15:00 AM 7.5 45.5 0.036 6.49 3.68 11.16
11/5/2020 6:30:00 AM 7.49 45.482 0.036 6.5 3.68 11.17
11/5/2020 6:45:00 AM 7.48 45.464 0.036 6.51 3.68 11.18
11/5/2020 7:00:00 AM 7.46 45.428 0.036 6.49 3.69 11.2
11/5/2020 7:15:00 AM 7.46 45.428 0.036 6.51 3.67 11.23
11/5/2020 7:30:00 AM 7.48 45.464 0.036 6.52 3.66 11.28
11/5/2020 7:45:00 AM 7.48 45.464 0.036 6.52 3.69 11.32
11/5/2020 8:00:00 AM 7.48 45.464 0.034 6.49 4.42 11.34
11/5/2020 8:15:00 AM 7.51 45.518 0.036 6.52 3.66 11.37
11/5/2020 8:30:00 AM 7.53 45.554 0.036 6.53 4.15 11.4
11/5/2020 8:45:00 AM 7.57 45.626 0.036 6.53 3.56 11.44
11/5/2020 9:00:00 AM 7.7 45.86 0.034 6.51 4.28 11.47
11/5/2020 9:15:00 AM 7.89 46.202 0.035 6.55 2.89 11.48
11/5/2020 9:30:00 AM 8.14 46.652 0.035 6.54 4.01 11.51
11/5/2020 9:45:00 AM 8.41 47.138 0.035 6.54 3.97 11.46
11/5/2020 10:00:00 AM 8.77 47.786 0.035 6.58 3.9 11.51
11/5/2020 10:15:00 AM 8.96 48.128 0.035 6.58 3.91 11.5
11/5/2020 10:30:00 AM 9.16 48.488 0.035 6.59 3.88 11.48
11/5/2020 10:45:00 AM 9.26 48.668 0.035 6.59 3.87 11.44
11/5/2020 11:00:00 AM 9.48 49.064 0.035 6.59 3.88 11.41
11/5/2020 11:15:00 AM 9.68 49.424 0.035 6.57 3.85 11.36
11/5/2020 11:30:00 AM 9.94 49.892 0.035 6.59 3.94 11.31
11/5/2020 11:45:00 AM 10.04 50.072 0.035 6.58 3.83 11.29
11/5/2020 12:00:00 PM 10.2 50.36 0.035 6.59 3.87 11.26
11/5/2020 12:15:00 PM 10.25 50.45 0.035 6.59 3.84 11.22
11/5/2020 12:30:00 PM 10.3 50.54 0.035 6.58 3.87 11.17
11/5/2020 12:45:00 PM 10.15 50.27 0.035 6.57 3.06 11.13
11/5/2020 1:00:00 PM 10.05 50.09 0.035 6.53 3.4 11.14
11/5/2020 1:15:00 PM 10 50 0.035 6.56 3.43 11.1
11/5/2020 1:30:00 PM 10.03 50.054 0.035 6.54 3.37 11.09
11/5/2020 1:45:00 PM 10.04 50.072 0.035 6.55 3.38 11.07
11/5/2020 2:00:00 PM 10.06 50.108 0.035 6.56 3.37 11.05
11/5/2020 2:15:00 PM 10.1 50.18 0.035 6.55 3.4 11.02
11/5/2020 2:30:00 PM 10.14 50.252 0.035 6.56 3.39 11
11/5/2020 2:45:00 PM 10.16 50.288 0.035 6.56 3.38 10.98
11/5/2020 3:00:00 PM 10.16 50.288 0.035 6.56 3.42 10.93
11/5/2020 3:15:00 PM 10.15 50.27 0.035 6.55 3.41 10.9
11/5/2020 3:30:00 PM 10.12 50.216 0.035 6.55 3.37 10.85
11/5/2020 3:45:00 PM 10.08 50.144 0.035 6.53 3.4 10.8
11/5/2020 4:00:00 PM 10.04 50.072 0.035 6.5 3.41 10.75
11/5/2020 4:15:00 PM 10.01 50.018 0.035 6.52 3.42 10.69
11/5/2020 4:30:00 PM 9.98 49.964 0.035 6.52 3.44 10.65
11/5/2020 4:45:00 PM 9.94 49.892 0.035 6.5 3.4 10.58
11/5/2020 5:00:00 PM 9.88 49.784 0.035 6.51 3.41 10.57
11/5/2020 5:15:00 PM 9.82 49.676 0.036 6.5 3.4 10.55
11/5/2020 5:30:00 PM 9.78 49.604 0.036 6.5 3.44 10.53
11/5/2020 5:45:00 PM 9.74 49.532 0.036 6.49 3.51 10.53
11/5/2020 6:00:00 PM 9.71 49.478 0.036 6.47 3.43 10.51
11/5/2020 6:15:00 PM 9.66 49.388 0.036 6.49 3.49 10.52
11/5/2020 6:30:00 PM 9.62 49.316 0.036 6.49 3.52 10.52
11/5/2020 6:45:00 PM 9.57 49.226 0.036 6.48 3.46 10.52
11/5/2020 7:00:00 PM 9.52 49.136 0.036 6.48 3.44 10.53
11/5/2020 7:15:00 PM 9.48 49.064 0.036 6.49 3.46 10.53
11/5/2020 7:30:00 PM 9.44 48.992 0.036 6.49 3.49 10.54
11/5/2020 7:45:00 PM 9.41 48.938 0.036 6.49 3.47 10.54
11/5/2020 8:00:00 PM 9.38 48.884 0.036 6.49 3.47 10.54
11/5/2020 8:15:00 PM 9.33 48.794 0.036 6.48 3.47 10.55
11/5/2020 8:30:00 PM 9.3 48.74 0.036 6.47 3.43 10.55
11/5/2020 8:45:00 PM 9.27 48.686 0.036 6.49 3.45 10.56
11/5/2020 9:00:00 PM 9.24 48.632 0.036 6.48 3.48 10.57
11/5/2020 9:15:00 PM 9.21 48.578 0.036 6.49 3.47 10.57
11/5/2020 9:30:00 PM 9.19 48.542 0.036 6.49 3.5 10.57
11/5/2020 9:45:00 PM 9.17 48.506 0.036 6.49 3.48 10.58
11/5/2020 10:00:00 PM 9.14 48.452 0.036 6.5 3.47 10.59
11/5/2020 10:15:00 PM 9.12 48.416 0.034 6.45 4.13 10.59
11/5/2020 10:30:00 PM 9.1 48.38 0.034 6.47 4.29 10.6
11/5/2020 10:45:00 PM 9.09 48.362 0.034 6.45 4.64 10.59
11/5/2020 11:00:00 PM 9.08 48.344 0.036 6.49 3.33 10.6
11/5/2020 11:15:00 PM 9.06 48.308 0.036 6.47 3.35 10.6
11/5/2020 11:30:00 PM 9.05 48.29 0.036 6.49 3.38 10.61
11/5/2020 11:45:00 PM 9.04 48.272 0.034 6.46 4.16 10.62
11/6/2020 12:00:00 AM 9.03 48.254 0.036 6.48 3.41 10.62
11/6/2020 12:15:00 AM 9.03 48.254 0.034 6.46 4.16 10.62
11/6/2020 12:30:00 AM 8.99 48.182 0.036 6.49 3.39 10.62
11/6/2020 12:45:00 AM 8.98 48.164 0.036 6.48 3.37 10.63
11/6/2020 1:00:00 AM 8.96 48.128 0.036 6.49 3.38 10.64
11/6/2020 1:15:00 AM 8.94 48.092 0.036 6.47 3.39 10.63
11/6/2020 1:30:00 AM 8.92 48.056 0.036 6.46 3.36 10.64
11/6/2020 1:45:00 AM 8.9 48.02 0.036 6.46 3.36 10.64
11/6/2020 2:00:00 AM 8.89 48.002 0.034 6.46 4.23 10.64
11/6/2020 2:15:00 AM 8.88 47.984 0.036 6.49 3.38 10.66
11/6/2020 2:30:00 AM 8.86 47.948 0.036 6.48 3.39 10.66
11/6/2020 2:45:00 AM 8.85 47.93 0.036 6.47 3.4 10.67
11/6/2020 3:00:00 AM 8.84 47.912 0.036 6.48 3.38 10.67
11/6/2020 3:15:00 AM 8.82 47.876 0.036 6.46 3.37 10.66
11/6/2020 3:30:00 AM 8.79 47.822 0.036 6.48 3.38 10.67
11/6/2020 3:45:00 AM 8.76 47.768 0.036 6.48 3.45 10.68
11/6/2020 4:00:00 AM 8.73 47.714 0.036 6.48 3.43 10.67
11/6/2020 4:15:00 AM 8.7 47.66 0.034 6.45 4.28 10.66
11/6/2020 4:30:00 AM 8.66 47.588 0.036 6.48 3.41 10.67
11/6/2020 4:45:00 AM 8.62 47.516 0.036 6.48 3.4 10.68
11/6/2020 5:00:00 AM 8.58 47.444 0.036 6.48 3.4 10.68
11/6/2020 5:15:00 AM 8.54 47.372 0.036 6.48 3.57 10.68
11/6/2020 5:30:00 AM 8.5 47.3 0.036 6.46 3.43 10.72
11/6/2020 5:45:00 AM 8.47 47.246 0.036 6.48 3.44 10.72
11/6/2020 6:00:00 AM 8.43 47.174 0.036 6.47 3.43 10.74
11/6/2020 6:15:00 AM 8.39 47.102 0.036 6.48 3.4 10.74
11/6/2020 6:30:00 AM 8.34 47.012 0.036 6.47 3.41 10.77
11/6/2020 6:45:00 AM 8.3 46.94 0.036 6.49 3.47 10.78
11/6/2020 7:00:00 AM 8.26 46.868 0.036 6.48 3.43 10.81
11/6/2020 7:15:00 AM 8.25 46.85 0.036 6.49 3.44 10.84
11/6/2020 7:30:00 AM 8.23 46.814 0.036 6.49 6.62 10.87
11/6/2020 7:45:00 AM 8.21 46.778 0.034 6.46 4.21 10.91
11/6/2020 8:00:00 AM 8.19 46.742 0.036 6.5 3.06 10.95
11/6/2020 8:15:00 AM 8.18 46.724 0.036 6.51 3.75 10.99
11/6/2020 8:30:00 AM 8.18 46.724 0.036 6.51 3.76 11.03
11/6/2020 8:45:00 AM 8.18 46.724 0.034 6.49 4.41 11.06
11/6/2020 9:00:00 AM 8.29 46.922 0.036 6.53 3.75 11.1
11/6/2020 9:15:00 AM 8.48 47.264 0.034 6.5 4.45 11.15
11/6/2020 9:30:00 AM 8.69 47.642 0.035 6.55 3.83 11.17
11/6/2020 9:45:00 AM 8.96 48.128 0.035 6.53 3.69 11.16
11/6/2020 10:00:00 AM 9.24 48.632 0.035 6.53 3.49 11.19
11/6/2020 10:15:00 AM 9.46 49.028 0.035 6.56 3.47 11.19
11/6/2020 10:30:00 AM 9.64 49.352 0.035 6.58 3.48 11.19
11/6/2020 10:45:00 AM 9.82 49.676 0.035 6.56 3.53 11.17
11/6/2020 11:00:00 AM 9.97 49.946 0.035 6.57 3.45 11.15
11/6/2020 11:15:00 AM 10.26 50.468 0.035 6.56 3.48 11.1
11/6/2020 11:30:00 AM 10.48 50.864 0.035 6.57 3.44 11.07
11/6/2020 11:45:00 AM 10.62 51.116 0.035 6.58 3.41 11.07
11/6/2020 12:00:00 PM 10.86 51.548 0.035 6.58 3.44 11.03
11/6/2020 12:15:00 PM 10.87 51.566 0.035 6.58 3.47 10.98
11/6/2020 12:30:00 PM 10.84 51.512 0.035 6.54 3.46 10.93
11/6/2020 12:45:00 PM 10.78 51.404 0.035 6.56 3.5 10.9
11/6/2020 1:00:00 PM 10.65 51.17 0.035 6.53 3.5 10.83
11/6/2020 1:15:00 PM 10.56 51.008 0.035 6.56 3.53 10.82
11/6/2020 1:30:00 PM 10.53 50.954 0.035 6.53 3.52 10.77
11/6/2020 1:45:00 PM 10.51 50.918 0.035 6.53 3.5 10.74
11/6/2020 2:00:00 PM 10.5 50.9 0.035 6.54 3.5 10.72
11/6/2020 2:15:00 PM 10.5 50.9 0.035 6.53 3.47 10.71
11/6/2020 2:30:00 PM 10.51 50.918 0.035 6.54 3.5 10.67
11/6/2020 2:45:00 PM 10.51 50.918 0.035 6.52 3.5 10.64
11/6/2020 3:00:00 PM 10.5 50.9 0.035 6.52 3.55 10.6
11/6/2020 3:15:00 PM 10.48 50.864 0.035 6.51 3.53 10.57
11/6/2020 3:30:00 PM 10.49 50.882 0.035 6.49 3.53 10.54
11/6/2020 3:45:00 PM 10.46 50.828 0.035 6.52 3.51 10.53
11/6/2020 4:00:00 PM 10.42 50.756 0.035 6.51 3.5 10.49
11/6/2020 4:15:00 PM 10.38 50.684 0.035 6.5 3.53 10.47
11/6/2020 4:30:00 PM 10.35 50.63 0.035 6.5 3.52 10.44
11/6/2020 4:45:00 PM 10.31 50.558 0.035 6.48 3.49 10.42
11/6/2020 5:00:00 PM 10.26 50.468 0.035 6.49 3.56 10.38
11/6/2020 5:15:00 PM 10.22 50.396 0.035 6.48 3.43 10.35
11/6/2020 5:30:00 PM 10.18 50.324 0.035 6.48 3.47 10.34
11/6/2020 5:45:00 PM 10.14 50.252 0.035 6.45 3.49 10.34
11/6/2020 6:00:00 PM 10.1 50.18 0.036 6.48 3.83 10.31
11/6/2020 6:15:00 PM 10.06 50.108 0.036 6.47 3.74 10.32
11/6/2020 6:30:00 PM 10.02 50.036 0.036 6.48 3.74 10.33
11/6/2020 6:45:00 PM 9.98 49.964 0.036 6.48 3.75 10.33
11/6/2020 7:00:00 PM 9.94 49.892 0.036 6.47 3.75 10.34
11/6/2020 7:15:00 PM 9.9 49.82 0.036 6.46 3.77 10.35
11/6/2020 7:30:00 PM 9.86 49.748 0.036 6.47 3.75 10.34
11/6/2020 7:45:00 PM 9.82 49.676 0.036 6.47 3.74 10.32
11/6/2020 8:00:00 PM 9.77 49.586 0.036 6.47 3.73 10.35
11/6/2020 8:15:00 PM 9.73 49.514 0.036 6.47 3.74 10.39
11/6/2020 8:30:00 PM 9.68 49.424 0.034 6.45 4.65 10.39
11/6/2020 8:45:00 PM 9.63 49.334 0.036 6.48 3.77 10.4
11/6/2020 9:00:00 PM 9.59 49.262 0.036 6.48 3.83 10.42
11/6/2020 9:15:00 PM 9.55 49.19 0.036 6.46 3.79 10.44
11/6/2020 9:30:00 PM 9.51 49.118 0.036 6.48 3.79 10.44
11/6/2020 9:45:00 PM 9.47 49.046 0.036 6.47 3.82 10.45
11/6/2020 10:00:00 PM 9.43 48.974 0.036 6.48 3.75 10.47
11/6/2020 10:15:00 PM 9.38 48.884 0.036 6.48 3.75 10.44
11/6/2020 10:30:00 PM 9.34 48.812 0.034 6.44 4.42 10.49
11/6/2020 10:45:00 PM 9.3 48.74 0.036 6.48 3.76 10.48
11/6/2020 11:00:00 PM 9.25 48.65 0.036 6.48 3.81 10.5
11/6/2020 11:15:00 PM 9.21 48.578 0.036 6.47 3.75 10.51
11/6/2020 11:30:00 PM 9.15 48.47 0.036 6.48 3.75 10.52
11/6/2020 11:45:00 PM 9.11 48.398 0.036 6.46 3.79 10.54
11/7/2020 12:00:00 AM 9.07 48.326 0.036 6.47 3.8 10.56
11/7/2020 12:15:00 AM 9.03 48.254 0.036 6.47 3.75 10.56
11/7/2020 12:30:00 AM 8.99 48.182 0.034 6.44 4.51 10.59
11/7/2020 12:45:00 AM 8.95 48.11 0.036 6.48 3.79 10.61
11/7/2020 1:00:00 AM 8.91 48.038 0.036 6.47 3.77 10.6
11/7/2020 1:15:00 AM 8.86 47.948 0.036 6.47 3.79 10.62
11/7/2020 1:30:00 AM 8.82 47.876 0.036 6.48 3.76 10.63
11/7/2020 1:45:00 AM 8.79 47.822 0.036 6.48 3.75 10.65
11/7/2020 2:00:00 AM 8.74 47.732 0.036 6.45 3.77 10.65
11/7/2020 2:15:00 AM 8.71 47.678 0.036 6.47 3.81 10.67
11/7/2020 2:30:00 AM 8.66 47.588 0.036 6.47 3.77 10.67
11/7/2020 2:45:00 AM 8.63 47.534 0.034 6.43 4.59 10.69
11/7/2020 3:00:00 AM 8.59 47.462 0.036 6.48 3.83 10.69
11/7/2020 3:15:00 AM 8.56 47.408 0.036 6.44 3.78 10.68
11/7/2020 3:30:00 AM 8.53 47.354 0.034 6.45 4.63 10.74
11/7/2020 3:45:00 AM 8.49 47.282 0.034 6.44 4.66 10.73
11/7/2020 4:00:00 AM 8.45 47.21 0.036 6.47 3.8 10.75
11/7/2020 4:15:00 AM 8.41 47.138 0.036 6.47 3.75 10.74
11/7/2020 4:30:00 AM 8.38 47.084 0.034 6.44 4.68 10.76
11/7/2020 4:45:00 AM 8.35 47.03 0.034 6.44 4.67 10.79
11/7/2020 5:00:00 AM 8.31 46.958 0.036 6.47 3.79 10.79
11/7/2020 5:15:00 AM 8.28 46.904 0.036 6.47 3.79 10.8
11/7/2020 5:30:00 AM 8.25 46.85 0.036 6.47 3.79 10.8
11/7/2020 5:45:00 AM 8.21 46.778 0.036 6.47 3.76 10.8
11/7/2020 6:00:00 AM 8.18 46.724 0.036 6.47 3.77 10.85
11/7/2020 6:15:00 AM 8.15 46.67 0.036 6.48 3.8 10.84
11/7/2020 6:30:00 AM 8.1 46.58 0.036 6.46 3.84 10.87
11/7/2020 6:45:00 AM 8.06 46.508 0.036 6.45 3.78 10.86
11/7/2020 7:00:00 AM 8.05 46.49 0.036 6.48 3.81 10.88
11/7/2020 7:15:00 AM 8.03 46.454 0.034 6.45 4.5 10.94
11/7/2020 7:30:00 AM 8.02 46.436 0.036 6.48 3.79 10.98
11/7/2020 7:45:00 AM 8.01 46.418 0.036 6.47 3.76 11.03
11/7/2020 8:00:00 AM 8.02 46.436 0.034 6.47 4.53 11.08
11/7/2020 8:15:00 AM 8.02 46.436 0.035 6.51 3.8 11.11
11/7/2020 8:30:00 AM 8.04 46.472 0.034 6.47 4.38 11.17
11/7/2020 8:45:00 AM 8.07 46.526 0.035 6.51 3.77 11.23
11/7/2020 9:00:00 AM 8.16 46.688 0.035 6.5 3.79 11.26
11/7/2020 9:15:00 AM 8.29 46.922 0.035 6.53 3.79 11.27
11/7/2020 9:30:00 AM 8.56 47.408 0.035 6.54 3.72 11.32
11/7/2020 9:45:00 AM 8.79 47.822 0.035 6.55 3.75 11.31
11/7/2020 10:00:00 AM 9.1 48.38 0.035 6.55 3.77 11.32
11/7/2020 10:15:00 AM 9.32 48.776 0.035 6.54 3.73 11.3
11/7/2020 10:30:00 AM 9.5 49.1 0.035 6.57 3.71 11.29
11/7/2020 10:45:00 AM 9.69 49.442 0.035 6.56 3.73 11.22
11/7/2020 11:00:00 AM 9.83 49.694 0.035 6.55 3.73 11.21
11/7/2020 11:15:00 AM 10.11 50.198 0.035 6.56 3.72 11.2
11/7/2020 11:30:00 AM 10.34 50.612 0.035 6.5 3.73 11.19
11/7/2020 11:45:00 AM 10.51 50.918 0.035 6.57 3.7 11.13
11/7/2020 12:00:00 PM 10.77 51.386 0.035 6.56 3.69 11.11
11/7/2020 12:15:00 PM 10.83 51.494 0.035 6.55 3.72 11.05
11/7/2020 12:30:00 PM 10.82 51.476 0.035 6.56 3.71 10.99
11/7/2020 12:45:00 PM 10.75 51.35 0.035 6.54 3.74 10.95
11/7/2020 1:00:00 PM 10.63 51.134 0.035 6.55 3.5 10.9
11/7/2020 1:15:00 PM 10.55 50.99 0.035 6.52 3.55 10.85
11/7/2020 1:30:00 PM 10.5 50.9 0.035 6.53 3.54 10.82
11/7/2020 1:45:00 PM 10.5 50.9 0.035 6.51 3.56 10.76
11/7/2020 2:00:00 PM 10.48 50.864 0.035 6.53 3.53 10.78
11/7/2020 2:15:00 PM 10.5 50.9 0.035 6.52 3.54 10.78
11/7/2020 2:30:00 PM 10.51 50.918 0.035 6.51 3.56 10.74
11/7/2020 2:45:00 PM 10.52 50.936 0.035 6.53 3.53 10.73
11/7/2020 3:00:00 PM 10.53 50.954 0.035 6.53 3.53 10.73
11/7/2020 3:15:00 PM 10.54 50.972 0.035 6.51 3.52 10.69
11/7/2020 3:30:00 PM 10.54 50.972 0.035 6.53 3.59 10.67
11/7/2020 3:45:00 PM 10.52 50.936 0.035 6.53 3.57 10.63
11/7/2020 4:00:00 PM 10.49 50.882 0.035 6.5 3.54 10.59
11/7/2020 4:15:00 PM 10.47 50.846 0.035 6.5 3.51 10.55
11/7/2020 4:30:00 PM 10.45 50.81 0.035 6.5 3.62 10.54
11/7/2020 4:45:00 PM 10.42 50.756 0.035 6.49 3.58 10.5
11/7/2020 5:00:00 PM 10.38 50.684 0.035 6.49 3.59 10.45
11/7/2020 5:15:00 PM 10.33 50.594 0.035 6.48 3.6 10.4
11/7/2020 5:30:00 PM 10.28 50.504 0.035 6.48 3.57 10.38
11/7/2020 5:45:00 PM 10.24 50.432 0.035 6.48 3.68 10.36
11/7/2020 6:00:00 PM 10.2 50.36 0.035 6.47 3.6 10.33
11/7/2020 6:15:00 PM 10.15 50.27 0.035 6.46 3.65 10.31
11/7/2020 6:30:00 PM 10.11 50.198 0.035 6.45 3.58 10.32
11/7/2020 6:45:00 PM 10.07 50.126 0.036 6.47 3.62 10.32
11/7/2020 7:00:00 PM 10.03 50.054 0.036 6.46 3.6 10.33
11/7/2020 7:15:00 PM 9.99 49.982 0.036 6.46 3.7 10.3
11/7/2020 7:30:00 PM 9.94 49.892 0.036 6.46 3.57 10.31
11/7/2020 7:45:00 PM 9.89 49.802 0.036 6.46 3.63 10.33
11/7/2020 8:00:00 PM 9.85 49.73 0.036 6.46 3.62 10.34
11/7/2020 8:15:00 PM 9.81 49.658 0.036 6.44 3.58 10.34
11/7/2020 8:30:00 PM 9.76 49.568 0.036 6.46 3.6 10.36
11/7/2020 8:45:00 PM 9.72 49.496 0.036 6.45 3.61 10.36
11/7/2020 9:00:00 PM 9.68 49.424 0.036 6.45 3.67 10.35
11/7/2020 9:15:00 PM 9.64 49.352 0.036 6.45 3.65 10.36
11/7/2020 9:30:00 PM 9.59 49.262 0.036 6.45 3.66 10.36
11/7/2020 9:45:00 PM 9.55 49.19 0.036 6.45 3.64 10.38
11/7/2020 10:00:00 PM 9.51 49.118 0.036 6.44 3.62 10.39
11/7/2020 10:15:00 PM 9.46 49.028 0.036 6.43 3.6 10.37
11/7/2020 10:30:00 PM 9.42 48.956 0.036 6.45 3.59 10.4
11/7/2020 10:45:00 PM 9.37 48.866 0.036 6.45 3.61 10.4
11/7/2020 11:00:00 PM 9.32 48.776 0.034 6.43 4.5 10.45
11/7/2020 11:15:00 PM 9.29 48.722 0.036 6.46 3.65 10.45
11/7/2020 11:30:00 PM 9.24 48.632 0.036 6.46 3.65 10.47
11/7/2020 11:45:00 PM 9.19 48.542 0.036 6.44 3.67 10.49
11/8/2020 12:00:00 AM 9.15 48.47 0.036 6.46 3.62 10.5
11/8/2020 12:15:00 AM 9.11 48.398 0.036 6.44 3.61 10.51
11/8/2020 12:30:00 AM 9.09 48.362 0.036 6.42 3.6 10.48
11/8/2020 12:45:00 AM 9.05 48.29 0.036 6.44 3.68 10.49
11/8/2020 1:00:00 AM 9.01 48.218 0.036 6.43 3.68 10.5
11/8/2020 1:15:00 AM 8.97 48.146 0.036 6.4 3.66 10.51
11/8/2020 1:30:00 AM 8.92 48.056 0.036 6.44 3.65 10.51
11/8/2020 1:45:00 AM 8.88 47.984 0.036 6.44 3.64 10.52
11/8/2020 2:00:00 AM 8.85 47.93 0.036 6.43 3.61 10.52
11/8/2020 2:15:00 AM 8.8 47.84 0.036 6.45 3.62 10.54
11/8/2020 2:30:00 AM 8.78 47.804 0.036 6.43 3.64 10.52
11/8/2020 2:45:00 AM 8.74 47.732 0.036 6.41 3.62 10.58
11/8/2020 3:00:00 AM 8.71 47.678 0.036 6.42 3.64 10.56
11/8/2020 3:15:00 AM 8.67 47.606 0.036 6.42 3.65 10.56
11/8/2020 3:30:00 AM 8.62 47.516 0.036 6.41 3.72 10.56
11/8/2020 3:45:00 AM 8.58 47.444 0.036 6.4 3.67 10.59
11/8/2020 4:00:00 AM 8.54 47.372 0.036 6.41 3.79 10.58
11/8/2020 4:15:00 AM 8.51 47.318 0.036 6.42 3.71 10.6
11/8/2020 4:30:00 AM 8.45 47.21 0.036 6.41 3.84 10.63
11/8/2020 4:45:00 AM 8.43 47.174 0.036 6.42 3.69 10.64
11/8/2020 5:00:00 AM 8.37 47.066 0.036 6.43 3.67 10.66
11/8/2020 5:15:00 AM 8.34 47.012 0.036 6.43 3.92 10.68
11/8/2020 5:30:00 AM 8.29 46.922 0.036 6.41 3.64 10.7
11/8/2020 5:45:00 AM 8.27 46.886 0.036 6.41 3.67 10.7
11/8/2020 6:00:00 AM 8.24 46.832 0.036 6.42 3.98 10.69
11/8/2020 6:15:00 AM 8.19 46.742 0.036 6.43 4.32 10.72
11/8/2020 6:30:00 AM 8.14 46.652 0.034 6.38 4.7 10.75
11/8/2020 6:45:00 AM 8.1 46.58 0.036 6.45 4.24 10.78
11/8/2020 7:00:00 AM 8.08 46.544 0.034 6.4 4.57 10.78
11/8/2020 7:15:00 AM 8.06 46.508 0.036 6.43 3.69 10.83
11/8/2020 7:30:00 AM 8.04 46.472 0.036 6.44 3.74 10.87
11/8/2020 7:45:00 AM 8.03 46.454 0.036 6.44 3.71 10.91
11/8/2020 8:00:00 AM 8 46.4 0.035 6.45 3.71 10.95
11/8/2020 8:15:00 AM 7.99 46.382 0.034 6.42 4.59 10.98
11/8/2020 8:30:00 AM 7.98 46.364 0.035 6.46 3.69 11.02
11/8/2020 8:45:00 AM 7.98 46.364 0.035 6.44 3.77 11.06
11/8/2020 9:00:00 AM 8.08 46.544 0.035 6.47 3.65 11.13
11/8/2020 9:15:00 AM 8.31 46.958 0.035 6.47 3.66 11.18
11/8/2020 9:30:00 AM 8.53 47.354 0.035 6.47 3.66 11.2
11/8/2020 9:45:00 AM 8.74 47.732 0.035 6.49 3.65 11.24
11/8/2020 10:00:00 AM 9.07 48.326 0.035 6.5 3.67 11.25
11/8/2020 10:15:00 AM 9.3 48.74 0.035 6.51 3.77 11.25
11/8/2020 10:30:00 AM 9.46 49.028 0.035 6.51 3.61 11.23
11/8/2020 10:45:00 AM 9.64 49.352 0.035 6.52 3.62 11.21
11/8/2020 11:00:00 AM 9.77 49.586 0.035 6.52 3.63 11.17
11/8/2020 11:15:00 AM 10.06 50.108 0.035 6.53 3.63 11.19
11/8/2020 11:30:00 AM 10.29 50.522 0.035 6.52 3.61 11.15
11/8/2020 11:45:00 AM 10.43 50.774 0.035 6.51 3.63 11.15
11/8/2020 12:00:00 PM 10.59 51.062 0.035 6.51 3.66 11.11
11/8/2020 12:15:00 PM 10.73 51.314 0.035 6.53 3.62 11.05
11/8/2020 12:30:00 PM 10.73 51.314 0.035 6.52 3.64 11.03
11/8/2020 12:45:00 PM 10.65 51.17 0.035 6.53 3.65 11.02
11/8/2020 1:00:00 PM 10.55 50.99 0.035 6.5 3.65 10.95
11/8/2020 1:15:00 PM 10.49 50.882 0.035 6.53 3.71 10.93
11/8/2020 1:30:00 PM 10.47 50.846 0.035 6.51 3.66 10.9
11/8/2020 1:45:00 PM 10.46 50.828 0.035 6.51 3.62 10.87
11/8/2020 2:00:00 PM 10.46 50.828 0.035 6.52 3.66 10.81
11/8/2020 2:15:00 PM 10.47 50.846 0.035 6.53 3.65 10.81
11/8/2020 2:30:00 PM 10.48 50.864 0.035 6.54 3.65 10.79
11/8/2020 2:45:00 PM 10.48 50.864 0.035 6.5 3.62 10.75
11/8/2020 3:00:00 PM 10.47 50.846 0.035 6.54 3.64 10.69
11/8/2020 3:15:00 PM 10.46 50.828 0.035 6.53 3.69 10.68
11/8/2020 3:30:00 PM 10.44 50.792 0.035 6.53 3.62 10.65
11/8/2020 3:45:00 PM 10.42 50.756 0.035 6.54 3.66 10.61
11/8/2020 4:00:00 PM 10.39 50.702 0.035 6.52 3.64 10.61
11/8/2020 4:15:00 PM 10.36 50.648 0.035 6.5 3.69 10.57
11/8/2020 4:30:00 PM 10.33 50.594 0.035 6.46 3.67 10.55
11/8/2020 4:45:00 PM 10.29 50.522 0.035 6.5 3.64 10.51
11/8/2020 5:00:00 PM 10.25 50.45 0.035 6.49 3.68 10.46
11/8/2020 5:15:00 PM 10.21 50.378 0.035 6.49 3.67 10.44
11/8/2020 5:30:00 PM 10.17 50.306 0.035 6.45 3.68 10.42
11/8/2020 5:45:00 PM 10.13 50.234 0.035 6.47 3.74 10.4
11/8/2020 6:00:00 PM 10.09 50.162 0.035 6.48 3.7 10.39
11/8/2020 6:15:00 PM 10.05 50.09 0.035 6.48 3.66 10.38
11/8/2020 6:30:00 PM 10.02 50.036 0.035 6.47 3.69 10.39
11/8/2020 6:45:00 PM 9.97 49.946 0.035 6.44 3.69 10.39
11/8/2020 7:00:00 PM 9.94 49.892 0.035 6.47 3.72 10.38
11/8/2020 7:15:00 PM 9.9 49.82 0.035 6.45 3.71 10.38
11/8/2020 7:30:00 PM 9.86 49.748 0.035 6.46 3.77 10.38
11/8/2020 7:45:00 PM 9.82 49.676 0.035 6.45 3.89 10.41
11/8/2020 8:00:00 PM 9.78 49.604 0.035 6.47 3.69 10.41
11/8/2020 8:15:00 PM 9.75 49.55 0.035 6.46 3.81 10.42
11/8/2020 8:30:00 PM 9.7 49.46 0.035 6.45 3.75 10.43
11/8/2020 8:45:00 PM 9.66 49.388 0.035 6.48 3.68 10.43
11/8/2020 9:00:00 PM 9.63 49.334 0.035 6.48 3.74 10.44
11/8/2020 9:15:00 PM 9.58 49.244 0.035 6.47 3.73 10.45
11/8/2020 9:30:00 PM 9.54 49.172 0.036 6.46 3.72 10.44
11/8/2020 9:45:00 PM 9.5 49.1 0.036 6.45 3.74 10.47
11/8/2020 10:00:00 PM 9.46 49.028 0.036 6.46 3.73 10.48
11/8/2020 10:15:00 PM 9.42 48.956 0.036 6.46 3.77 10.5
11/8/2020 10:30:00 PM 9.39 48.902 0.036 6.44 3.72 10.5
11/8/2020 10:45:00 PM 9.35 48.83 0.036 6.45 3.83 10.5
11/8/2020 11:00:00 PM 9.31 48.758 0.036 6.45 3.76 10.5
11/8/2020 11:15:00 PM 9.27 48.686 0.036 6.44 3.73 10.51
11/8/2020 11:30:00 PM 9.23 48.614 0.036 6.43 3.71 10.52
11/8/2020 11:45:00 PM 9.19 48.542 0.036 6.45 3.76 10.54
11/9/2020 12:00:00 AM 9.15 48.47 0.036 6.46 3.87 10.55
11/9/2020 12:15:00 AM 9.12 48.416 0.036 6.44 3.76 10.56
11/9/2020 12:30:00 AM 9.08 48.344 0.034 6.42 4.55 10.56
11/9/2020 12:45:00 AM 9.04 48.272 0.036 6.44 3.92 10.59
11/9/2020 1:00:00 AM 9 48.2 0.036 6.44 3.79 10.58
11/9/2020 1:15:00 AM 8.98 48.164 0.036 6.42 3.77 10.58
11/9/2020 1:30:00 AM 8.93 48.074 0.036 6.44 3.81 10.6
11/9/2020 1:45:00 AM 8.89 48.002 0.036 6.45 3.75 10.63
11/9/2020 2:00:00 AM 8.85 47.93 0.035 6.44 3.75 10.64
11/9/2020 2:15:00 AM 8.83 47.894 0.036 6.45 3.77 10.65
11/9/2020 2:30:00 AM 8.78 47.804 0.035 6.43 3.81 10.66
11/9/2020 2:45:00 AM 8.75 47.75 0.035 6.45 3.72 10.66
11/9/2020 3:00:00 AM 8.7 47.66 0.035 6.45 3.77 10.68
11/9/2020 3:15:00 AM 8.67 47.606 0.035 6.41 3.8 10.68
11/9/2020 3:30:00 AM 8.63 47.534 0.035 6.47 3.78 10.72
11/9/2020 3:45:00 AM 8.6 47.48 0.035 6.45 3.83 10.7
11/9/2020 4:00:00 AM 8.56 47.408 0.035 6.46 3.78 10.74
11/9/2020 4:15:00 AM 8.52 47.336 0.035 6.46 3.79 10.74
11/9/2020 4:30:00 AM 8.49 47.282 0.035 6.45 3.77 10.76
11/9/2020 4:45:00 AM 8.46 47.228 0.035 6.47 3.99 10.76
11/9/2020 5:00:00 AM 8.43 47.174 0.035 6.45 3.76 10.76
11/9/2020 5:15:00 AM 8.39 47.102 0.035 6.44 3.78 10.77
11/9/2020 5:30:00 AM 8.36 47.048 0.034 6.43 4.74 10.79
11/9/2020 5:45:00 AM 8.33 46.994 0.035 6.45 3.77 10.79
11/9/2020 6:00:00 AM 8.29 46.922 0.035 6.45 3.8 10.82
11/9/2020 6:15:00 AM 8.27 46.886 0.035 6.45 3.79 10.81
11/9/2020 6:30:00 AM 8.23 46.814 0.035 6.46 3.78 10.83
11/9/2020 6:45:00 AM 8.2 46.76 0.035 6.46 3.77 10.85
11/9/2020 7:00:00 AM 8.18 46.724 0.035 6.41 3.79 10.86
11/9/2020 7:15:00 AM 8.15 46.67 0.035 6.46 3.8 10.9
11/9/2020 7:30:00 AM 8.14 46.652 0.034 6.44 4.6 10.97
11/9/2020 7:45:00 AM 8.13 46.634 0.035 6.47 3.75 11.01
11/9/2020 8:00:00 AM 8.1 46.58 0.035 6.44 3.75 11.05
11/9/2020 8:15:00 AM 8.1 46.58 0.035 6.49 3.78 11.1
11/9/2020 8:30:00 AM 8.09 46.562 0.033 6.47 4.62 11.13
11/9/2020 8:45:00 AM 8.09 46.562 0.035 6.54 3.77 11.17
11/9/2020 9:00:00 AM 8.19 46.742 0.035 6.56 3.74 11.24
11/9/2020 9:15:00 AM 8.43 47.174 0.033 6.53 4.59 11.28
11/9/2020 9:30:00 AM 8.63 47.534 0.035 6.56 3.71 11.33
11/9/2020 9:45:00 AM 8.84 47.912 0.035 6.55 3.71 11.35
11/9/2020 10:00:00 AM 9.17 48.506 0.035 6.55 3.7 11.32
11/9/2020 10:15:00 AM 9.37 48.866 0.035 6.56 3.72 11.35
11/9/2020 10:30:00 AM 9.51 49.118 0.035 6.55 3.73 11.32
11/9/2020 10:45:00 AM 9.68 49.424 0.035 6.55 3.71 11.28
11/9/2020 11:00:00 AM 9.82 49.676 0.035 6.56 3.69 11.26
11/9/2020 11:15:00 AM 10.09 50.162 0.035 6.54 3.71 11.25
11/9/2020 11:30:00 AM 10.31 50.558 0.035 6.56 3.72 11.23
11/9/2020 11:45:00 AM 10.5 50.9 0.035 6.57 3.73 11.2
11/9/2020 12:00:00 PM 10.72 51.296 0.035 6.57 3.72 11.17
11/9/2020 12:15:00 PM 10.91 51.638 0.035 6.56 3.75 11.11
11/9/2020 12:30:00 PM 10.94 51.692 0.035 6.56 3.71 11.04
11/9/2020 12:45:00 PM 10.86 51.548 0.035 6.55 3.73 10.88
11/9/2020 1:00:00 PM 10.76 51.368 0.035 6.49 3.76 10.95
11/9/2020 1:15:00 PM 10.71 51.278 0.035 6.53 3.75 10.88
11/9/2020 1:30:00 PM 10.68 51.224 0.035 6.53 3.74 10.86
11/9/2020 1:45:00 PM 10.68 51.224 0.035 6.54 3.74 10.83
11/9/2020 2:00:00 PM 10.66 51.188 0.035 6.53 3.76 10.81
11/9/2020 2:15:00 PM 10.66 51.188 0.035 6.52 3.72 10.77
11/9/2020 2:30:00 PM 10.66 51.188 0.035 6.5 3.77 10.73
11/9/2020 2:45:00 PM 10.65 51.17 0.035 6.51 3.74 10.68
11/9/2020 3:00:00 PM 10.64 51.152 0.035 6.46 3.75 10.6
11/9/2020 3:15:00 PM 10.62 51.116 0.035 6.49 3.76 10.61
11/9/2020 3:30:00 PM 10.6 51.08 0.035 6.48 3.77 10.56
11/9/2020 3:45:00 PM 10.57 51.026 0.035 6.45 3.72 10.55
11/9/2020 4:00:00 PM 10.53 50.954 0.035 6.38 3.78 10.51
11/9/2020 4:15:00 PM 10.5 50.9 0.035 6.44 3.75 10.49
11/9/2020 4:30:00 PM 10.46 50.828 0.035 6.47 3.76 10.46
11/9/2020 4:45:00 PM 10.42 50.756 0.035 6.41 3.77 10.44
11/9/2020 5:00:00 PM 10.38 50.684 0.035 6.45 3.79 10.39
11/9/2020 5:15:00 PM 10.34 50.612 0.035 6.42 3.79 10.34
11/9/2020 5:30:00 PM 10.31 50.558 0.035 6.43 3.81 10.33
11/9/2020 5:45:00 PM 10.27 50.486 0.035 6.41 3.84 10.33
11/9/2020 6:00:00 PM 10.24 50.432 0.035 6.43 3.81 10.31
11/9/2020 6:15:00 PM 10.21 50.378 0.035 6.42 3.83 10.29
11/9/2020 6:30:00 PM 10.17 50.306 0.035 6.44 3.99 10.31
11/9/2020 6:45:00 PM 10.13 50.234 0.035 6.43 3.82 10.31
11/9/2020 7:00:00 PM 10.1 50.18 0.035 6.37 3.82 10.28
11/9/2020 7:15:00 PM 10.07 50.126 0.035 6.39 3.83 10.26
11/9/2020 7:30:00 PM 10.04 50.072 0.035 6.41 3.79 10.29
11/9/2020 7:45:00 PM 10.01 50.018 0.035 6.4 3.82 10.29
11/9/2020 8:00:00 PM 9.98 49.964 0.035 6.41 3.78 10.27
11/9/2020 8:15:00 PM 9.95 49.91 0.035 6.41 3.81 10.28
11/9/2020 8:30:00 PM 9.92 49.856 0.035 6.39 3.79 10.28
11/9/2020 8:45:00 PM 9.88 49.784 0.035 6.37 3.81 10.28
11/9/2020 9:00:00 PM 9.85 49.73 0.035 6.41 3.81 10.3
11/9/2020 9:15:00 PM 9.81 49.658 0.036 6.43 3.8 10.31
11/9/2020 9:30:00 PM 9.78 49.604 0.035 6.42 3.81 10.31
11/9/2020 9:45:00 PM 9.75 49.55 0.035 6.4 3.83 10.23
11/9/2020 10:00:00 PM 9.72 49.496 0.035 6.4 3.78 10.32
11/9/2020 10:15:00 PM 9.69 49.442 0.036 6.36 3.82 10.32
11/9/2020 10:30:00 PM 9.66 49.388 0.035 6.39 3.83 10.34
11/9/2020 10:45:00 PM 9.62 49.316 0.035 6.41 3.82 10.37
11/9/2020 11:00:00 PM 9.59 49.262 0.036 6.41 3.82 10.36
11/9/2020 11:15:00 PM 9.57 49.226 0.036 6.39 3.8 10.34
11/9/2020 11:30:00 PM 9.53 49.154 0.035 6.4 3.8 10.37
11/9/2020 11:45:00 PM 9.5 49.1 0.036 6.4 3.81 10.38
11/10/2020 12:00:00 AM 9.48 49.064 0.035 6.4 3.79 10.32
11/10/2020 12:15:00 AM 9.44 48.992 0.035 6.4 3.84 10.38
11/10/2020 12:30:00 AM 9.41 48.938 0.035 6.42 3.8 10.41
11/10/2020 12:45:00 AM 9.38 48.884 0.035 6.4 3.84 10.4
11/10/2020 1:00:00 AM 9.36 48.848 0.035 6.42 3.84 10.39
11/10/2020 1:15:00 AM 9.33 48.794 0.035 6.39 3.78 10.39
11/10/2020 1:30:00 AM 9.29 48.722 0.035 6.42 3.86 10.39
11/10/2020 1:45:00 AM 9.26 48.668 0.035 6.42 3.83 10.45
11/10/2020 2:00:00 AM 9.24 48.632 0.035 6.41 3.79 10.46
11/10/2020 2:15:00 AM 9.22 48.596 0.034 6.38 4.69 10.44
11/10/2020 2:30:00 AM 9.19 48.542 0.034 6.38 4.71 10.43
11/10/2020 2:45:00 AM 9.16 48.488 0.035 6.39 3.84 10.44
11/10/2020 3:00:00 AM 9.14 48.452 0.034 6.37 4.59 10.42
11/10/2020 3:15:00 AM 9.11 48.398 0.035 6.4 3.84 10.44
11/10/2020 3:30:00 AM 9.08 48.344 0.035 6.43 3.8 10.46
11/10/2020 3:45:00 AM 9.06 48.308 0.035 6.39 3.82 10.48
11/10/2020 4:00:00 AM 9.03 48.254 0.035 6.42 3.87 10.52
11/10/2020 4:15:00 AM 9.01 48.218 0.034 6.38 4.69 10.54
11/10/2020 4:30:00 AM 8.98 48.164 0.035 6.42 3.81 10.56
11/10/2020 4:45:00 AM 8.97 48.146 0.035 6.43 3.83 10.55
11/10/2020 5:00:00 AM 8.95 48.11 0.035 6.4 3.84 10.54
11/10/2020 5:15:00 AM 8.93 48.074 0.035 6.42 3.84 10.55
11/10/2020 5:30:00 AM 8.91 48.038 0.035 6.43 3.85 10.58
11/10/2020 5:45:00 AM 8.89 48.002 0.035 6.41 3.85 10.56
11/10/2020 6:00:00 AM 8.87 47.966 0.035 6.43 3.86 10.55
11/10/2020 6:15:00 AM 8.85 47.93 0.035 6.42 3.79 10.56
11/10/2020 6:30:00 AM 8.83 47.894 0.035 6.43 3.83 10.59
11/10/2020 6:45:00 AM 8.81 47.858 0.035 6.43 3.78 10.6
11/10/2020 7:00:00 AM 8.8 47.84 0.035 6.42 3.79 10.63
11/10/2020 7:15:00 AM 8.8 47.84 0.035 6.43 3.78 10.66
11/10/2020 7:30:00 AM 8.8 47.84 0.035 6.42 3.77 10.72
11/10/2020 7:45:00 AM 8.84 47.912 0.035 6.44 3.76 10.72
11/10/2020 8:00:00 AM 8.91 48.038 0.035 6.44 3.79 10.8
11/10/2020 8:15:00 AM 9.01 48.218 0.035 6.43 3.78 10.89
11/10/2020 8:30:00 AM 9.1 48.38 0.035 6.47 3.77 10.94
11/10/2020 8:45:00 AM 9.22 48.596 0.035 6.47 3.77 11.03
11/10/2020 9:00:00 AM 9.32 48.776 0.035 6.46 3.84 11.06
11/10/2020 9:15:00 AM 9.48 49.064 0.035 6.4 3.74 10.96
11/10/2020 9:30:00 AM 9.7 49.46 0.035 6.42 3.71 10.93
11/10/2020 9:45:00 AM 9.76 49.568 0.035 6.4 3.8 10.92
11/10/2020 10:00:00 AM 10.1 50.18 0.035 6.4 3.71 10.98
11/10/2020 10:15:00 AM 10.27 50.486 0.035 6.4 3.72 10.95
11/10/2020 10:30:00 AM 10.43 50.774 0.035 6.41 3.7 10.9
11/10/2020 10:45:00 AM 10.54 50.972 0.035 6.37 3.68 10.88
11/10/2020 11:00:00 AM 10.69 51.242 0.035 6.4 3.71 10.83
11/10/2020 11:15:00 AM 10.94 51.692 0.035 6.41 3.7 10.83
11/10/2020 11:30:00 AM 11.13 52.034 0.035 6.24 3.7 10.73
11/10/2020 11:45:00 AM 11.31 52.358 0.035 6.39 3.69 10.65
11/10/2020 12:00:00 PM 11.37 52.466 0.035 6.34 3.7 10.34
11/10/2020 12:15:00 PM 11.45 52.61 0.035 6.28 3.72 10.4
11/10/2020 12:30:00 PM 11.49 52.682 0.035 6.35 3.71 10.24
11/10/2020 12:45:00 PM 11.57 52.826 0.035 6.41 3.67 10.5
11/10/2020 1:00:00 PM 11.41 52.538 0.035 6.35 3.71 10.3
11/10/2020 1:15:00 PM 11.34 52.412 0.035 6.33 3.71 10.28
11/10/2020 1:30:00 PM 11.32 52.376 0.035 6.29 3.74 10.33
11/10/2020 1:45:00 PM 11.28 52.304 0.035 6.27 3.71 10.23
11/10/2020 2:00:00 PM 11.23 52.214 0.035 6.27 3.72 10.24
11/10/2020 2:15:00 PM 11.23 52.214 0.035 6.27 3.71 10.19
11/10/2020 2:30:00 PM 11.21 52.178 0.035 6.26 3.76 10.17
11/10/2020 2:45:00 PM 11.21 52.178 0.035 6.23 3.71 10.07
11/10/2020 3:00:00 PM 11.23 52.214 0.035 6.09 3.71 10.02
11/10/2020 3:15:00 PM 11.28 52.304 0.035 6.1 3.69 10.09
11/10/2020 3:30:00 PM 11.23 52.214 0.035 6.24 3.73 9.99
11/10/2020 3:45:00 PM 11.26 52.268 0.035 6.24 3.74 10.01
11/10/2020 4:00:00 PM 11.25 52.25 0.035 6.22 3.74 9.9
11/10/2020 4:15:00 PM 11.2 52.16 0.035 6.28 3.7 9.84
11/10/2020 4:30:00 PM 11.2 52.16 0.035 6.25 3.7 9.93
11/10/2020 4:45:00 PM 11.17 52.106 0.035 6.25 3.76 9.88
11/10/2020 5:00:00 PM 11.12 52.016 0.035 6.21 3.75 9.64
11/10/2020 5:15:00 PM 11.07 51.926 0.035 6.2 3.74 9.61
11/10/2020 5:30:00 PM 11.06 51.908 0.035 6.3 3.81 9.71
11/10/2020 5:45:00 PM 11.04 51.872 0.035 6.26 3.82 9.66
11/10/2020 6:00:00 PM 11.04 51.872 0.035 6.32 3.74 9.71
11/10/2020 6:15:00 PM 11.02 51.836 0.035 6.24 3.77 9.7
11/10/2020 6:30:00 PM 11 51.8 0.035 6.34 3.72 9.73
11/10/2020 6:45:00 PM 10.95 51.71 0.035 6.31 3.75 9.71
11/10/2020 7:00:00 PM 10.92 51.656 0.035 6.25 3.76 9.74
11/10/2020 7:15:00 PM 10.89 51.602 0.035 6.25 3.72 9.72
11/10/2020 7:30:00 PM 10.86 51.548 0.035 6.27 3.73 9.67
11/10/2020 7:45:00 PM 10.83 51.494 0.035 6.23 3.79 9.74
11/10/2020 8:00:00 PM 10.79 51.422 0.035 6.24 3.76 9.74
11/10/2020 8:15:00 PM 10.76 51.368 0.036 6.21 3.8 9.71
11/10/2020 8:30:00 PM 10.73 51.314 0.035 6.24 3.78 9.73
11/10/2020 8:45:00 PM 10.71 51.278 0.035 6.27 3.72 9.74
11/10/2020 9:00:00 PM 10.67 51.206 0.036 6.23 3.75 9.73
11/10/2020 9:15:00 PM 10.65 51.17 0.036 6.27 3.8 9.74
11/10/2020 9:30:00 PM 10.62 51.116 0.036 6.34 3.88 9.79
11/10/2020 9:45:00 PM 10.59 51.062 0.036 6.35 3.74 9.79
11/10/2020 10:00:00 PM 10.56 51.008 0.036 6.33 3.79 9.73
11/10/2020 10:15:00 PM 10.53 50.954 0.036 6.33 3.78 9.71
11/10/2020 10:30:00 PM 10.51 50.918 0.036 6.36 4.04 9.87
11/10/2020 10:45:00 PM 10.48 50.864 0.036 6.35 3.74 9.87
11/10/2020 11:00:00 PM 10.45 50.81 0.036 6.38 3.83 9.87
11/10/2020 11:15:00 PM 10.43 50.774 0.036 6.39 3.81 9.97
11/10/2020 11:30:00 PM 10.4 50.72 0.035 6.39 3.76 10.03
11/10/2020 11:45:00 PM 10.37 50.666 0.036 6.4 3.78 9.98
11/11/2020 12:00:00 AM 10.34 50.612 0.036 6.39 3.78 9.96
11/11/2020 12:15:00 AM 10.32 50.576 0.036 6.37 3.79 9.96
11/11/2020 12:30:00 AM 10.29 50.522 0.036 6.37 3.87 9.95
11/11/2020 12:45:00 AM 10.26 50.468 0.036 6.39 3.8 9.98
11/11/2020 1:00:00 AM 10.23 50.414 0.036 6.37 3.84 9.98
11/11/2020 1:15:00 AM 10.21 50.378 0.036 6.38 3.79 10.01
11/11/2020 1:30:00 AM 10.18 50.324 0.036 6.36 3.78 9.95
11/11/2020 1:45:00 AM 10.16 50.288 0.036 6.35 3.78 10
11/11/2020 2:00:00 AM 10.13 50.234 0.036 6.36 3.79 10.03
11/11/2020 2:15:00 AM 10.11 50.198 0.036 6.32 3.78 9.98
11/11/2020 2:30:00 AM 10.09 50.162 0.036 6.35 3.81 10.05
11/11/2020 2:45:00 AM 10.08 50.144 0.036 6.35 3.83 10.02
11/11/2020 3:00:00 AM 10.07 50.126 0.036 6.33 3.84 10.05
11/11/2020 3:15:00 AM 10.05 50.09 0.036 6.36 3.79 10.06
11/11/2020 3:30:00 AM 10.02 50.036 0.035 6.4 3.78 10.13
11/11/2020 3:45:00 AM 10.01 50.018 0.035 6.41 3.79 10.13
11/11/2020 4:00:00 AM 10 50 0.035 6.43 3.82 10.21
11/11/2020 4:15:00 AM 10 50 0.035 6.4 3.88 10.17
11/11/2020 4:30:00 AM 10.01 50.018 0.035 6.42 3.84 10.17
11/11/2020 4:45:00 AM 10 50 0.036 6.41 3.81 10.12
11/11/2020 5:00:00 AM 10.02 50.036 0.036 6.17 3.84 10.07
11/11/2020 5:15:00 AM 10.03 50.054 0.036 6.4 3.81 10.09
11/11/2020 5:30:00 AM 10.06 50.108 0.036 6.26 3.82 10.02
11/11/2020 5:45:00 AM 10.09 50.162 0.036 6.32 3.73 9.94
11/11/2020 6:00:00 AM 10.11 50.198 0.036 6.28 3.67 9.94
11/11/2020 6:15:00 AM 10.13 50.234 0.036 6.31 3.7 9.94
11/11/2020 6:30:00 AM 10.15 50.27 0.035 6.4 3.63 10.14
11/11/2020 6:45:00 AM 10.18 50.324 0.035 6.43 3.57 10.17
11/11/2020 7:00:00 AM 10.22 50.396 0.035 6.42 4.43 10.16
11/11/2020 7:15:00 AM 10.29 50.522 0.035 6.43 3.52 10.27
11/11/2020 7:30:00 AM 10.32 50.576 0.035 6.44 3.48 10.29
11/11/2020 7:45:00 AM 10.35 50.63 0.035 6.44 3.49 10.27
11/11/2020 8:00:00 AM 10.38 50.684 0.035 6.45 3.51 10.28
11/11/2020 8:15:00 AM 10.4 50.72 0.036 6.45 4.5 10.24
11/11/2020 8:30:00 AM 10.48 50.864 0.038 6.42 3.99 10.18
11/11/2020 8:45:00 AM 10.56 51.008 0.037 6.4 4.28 10.2
11/11/2020 9:00:00 AM 10.61 51.098 0.036 6.45 4.09 10.32
11/11/2020 9:15:00 AM 10.66 51.188 0.035 6.45 3.94 10.27
11/11/2020 9:30:00 AM 10.73 51.314 0.035 6.41 3.84 10.21
11/11/2020 9:45:00 AM 10.8 51.44 0.034 6.48 4.03 10.32
11/11/2020 10:00:00 AM 10.84 51.512 0.034 6.49 4.01 10.35
11/11/2020 10:15:00 AM 10.88 51.584 0.034 6.47 4.01 10.29
11/11/2020 10:30:00 AM 10.91 51.638 0.034 6.35 3.96 10.18
11/11/2020 10:45:00 AM 10.83 51.494 0.035 6.15 4.01 9.78
11/11/2020 11:00:00 AM 10.83 51.494 0.035 6.25 3.77 9.63
11/11/2020 11:15:00 AM 10.98 51.764 0.034 6.47 3.91 10.34
11/11/2020 11:30:00 AM 10.99 51.782 0.034 6.48 3.96 10.39
11/11/2020 11:45:00 AM 11.01 51.818 0.034 6.48 3.84 10.43
11/11/2020 12:00:00 PM 11.03 51.854 0.034 6.5 3.88 10.48
11/11/2020 12:15:00 PM 11.08 51.944 0.034 6.51 4.01 10.53
11/11/2020 12:30:00 PM 11.13 52.034 0.034 6.52 3.93 10.54
11/11/2020 12:45:00 PM 11.22 52.196 0.034 6.54 4.1 10.57
11/11/2020 1:00:00 PM 11.22 52.196 0.034 6.53 3.98 10.56
11/11/2020 1:15:00 PM 11.26 52.268 0.034 6.53 4.03 10.5
11/11/2020 1:30:00 PM 11.3 52.34 0.035 6.54 4.24 10.53
11/11/2020 1:45:00 PM 11.31 52.358 0.035 6.53 4.44 10.56
11/11/2020 2:00:00 PM 11.33 52.394 0.035 6.58 4.7 10.61
11/11/2020 2:15:00 PM 11.34 52.412 0.035 6.59 4.85 10.62
11/11/2020 2:30:00 PM 11.35 52.43 0.036 6.56 5.89 10.65
11/11/2020 2:45:00 PM 11.36 52.448 0.037 6.6 7.73 10.67
11/11/2020 3:00:00 PM 11.37 52.466 0.037 6.59 8.36 10.67
11/11/2020 3:15:00 PM 11.39 52.502 0.037 6.59 9.66 10.71
11/11/2020 3:30:00 PM 11.41 52.538 0.038 6.63 11.59 10.74
11/11/2020 3:45:00 PM 11.42 52.556 0.038 6.67 13.48 10.78
11/11/2020 4:00:00 PM 11.41 52.538 0.039 6.64 12.87 10.78
11/11/2020 4:15:00 PM 11.38 52.484 0.039 6.66 13.55 10.8
11/11/2020 4:30:00 PM 11.33 52.394 0.039 6.67 16.71 10.81
11/11/2020 4:45:00 PM 11.28 52.304 0.04 6.67 12.61 10.83
11/11/2020 5:00:00 PM 11.23 52.214 0.04 6.68 12.32 10.85
11/11/2020 5:15:00 PM 11.19 52.142 0.039 6.68 12.15 10.86
11/11/2020 5:30:00 PM 11.15 52.07 0.039 6.67 11.03 10.88
11/11/2020 5:45:00 PM 11.12 52.016 0.039 6.66 10.79 10.88
11/11/2020 6:00:00 PM 11.09 51.962 0.039 6.65 9.81 10.89
11/11/2020 6:15:00 PM 11.07 51.926 0.039 6.67 8.53 10.89
11/11/2020 6:30:00 PM 11.06 51.908 0.039 6.66 8.62 10.89
11/11/2020 6:45:00 PM 11.06 51.908 0.039 6.66 8.45 10.89
11/11/2020 7:00:00 PM 11.06 51.908 0.039 6.65 8.29 10.88
11/11/2020 7:15:00 PM 11.05 51.89 0.039 6.65 7.93 10.88
11/11/2020 7:30:00 PM 11.04 51.872 0.039 6.63 7.74 10.88
11/11/2020 7:45:00 PM 11.05 51.89 0.038 6.64 7.75 10.88
11/11/2020 8:00:00 PM 11.05 51.89 0.038 6.63 7.56 10.84
11/11/2020 8:15:00 PM 11.05 51.89 0.038 6.61 7.5 10.82
11/11/2020 8:30:00 PM 11.05 51.89 0.038 6.59 7.46 10.76
11/11/2020 8:45:00 PM 11.06 51.908 0.038 6.59 7.36 10.82
11/11/2020 9:00:00 PM 11.06 51.908 0.038 6.61 7.39 10.82
11/11/2020 9:15:00 PM 11.06 51.908 0.038 6.59 7.29 10.79
11/11/2020 9:30:00 PM 11.06 51.908 0.038 6.57 7.21 10.79
11/11/2020 9:45:00 PM 11.06 51.908 0.038 6.6 7.29 10.8
11/11/2020 10:00:00 PM 11.07 51.926 0.038 6.59 7.31 10.78
11/11/2020 10:15:00 PM 11.07 51.926 0.038 6.6 7.19 10.82
11/11/2020 10:30:00 PM 11.08 51.944 0.038 6.6 7.15 10.81
11/11/2020 10:45:00 PM 11.08 51.944 0.038 6.55 6.96 10.81
11/11/2020 11:00:00 PM 11.08 51.944 0.038 6.6 7.25 10.79
11/11/2020 11:15:00 PM 11.09 51.962 0.038 6.57 6.98 10.81
11/11/2020 11:30:00 PM 11.1 51.98 0.038 6.59 7.05 10.79
11/11/2020 11:45:00 PM 11.12 52.016 0.038 6.63 6.97 10.78
11/12/2020 12:00:00 AM 11.12 52.016 0.038 6.64 6.81 10.78
11/12/2020 12:15:00 AM 11.13 52.034 0.038 6.66 6.86 10.79
11/12/2020 12:30:00 AM 11.14 52.052 0.037 6.66 6.84 10.79
11/12/2020 12:45:00 AM 11.13 52.034 0.037 6.64 6.79 10.77
11/12/2020 1:00:00 AM 11.13 52.034 0.037 6.64 6.83 10.78
11/12/2020 1:15:00 AM 11.14 52.052 0.037 6.68 6.78 10.79
11/12/2020 1:30:00 AM 11.13 52.034 0.037 6.66 6.78 10.79
11/12/2020 1:45:00 AM 11.12 52.016 0.037 6.66 6.79 10.74
11/12/2020 2:00:00 AM 11.11 51.998 0.037 6.67 7.32 10.76
11/12/2020 2:15:00 AM 11.09 51.962 0.037 6.67 7.17 10.77
11/12/2020 2:30:00 AM 11.07 51.926 0.037 6.64 7.28 10.76
11/12/2020 2:45:00 AM 11.04 51.872 0.037 6.62 7.39 10.75
11/12/2020 3:00:00 AM 11.01 51.818 0.037 6.55 7.27 10.72
11/12/2020 3:15:00 AM 10.99 51.782 0.037 6.6 7.22 10.74
11/12/2020 3:30:00 AM 10.96 51.728 0.037 6.62 7.14 10.76
11/12/2020 3:45:00 AM 10.94 51.692 0.037 6.62 7.22 10.73
11/12/2020 4:00:00 AM 10.92 51.656 0.037 6.57 7.18 10.75
11/12/2020 4:15:00 AM 10.9 51.62 0.037 6.63 7.11 10.76
11/12/2020 4:30:00 AM 10.85 51.53 0.037 6.61 7.24 10.76
11/12/2020 4:45:00 AM 10.83 51.494 0.037 6.63 7.15 10.76
11/12/2020 5:00:00 AM 10.79 51.422 0.037 6.64 7.14 10.79
11/12/2020 5:15:00 AM 10.75 51.35 0.037 6.59 7.07 10.77
11/12/2020 5:30:00 AM 10.71 51.278 0.037 6.62 7.17 10.79
11/12/2020 5:45:00 AM 10.68 51.224 0.037 6.64 7.1 10.84
11/12/2020 6:00:00 AM 10.63 51.134 0.037 6.6 6.97 10.81
11/12/2020 6:15:00 AM 10.58 51.044 0.037 6.55 7.6 10.72
11/12/2020 6:30:00 AM 10.54 50.972 0.037 6.58 7.06 10.77
11/12/2020 6:45:00 AM 10.49 50.882 0.037 6.58 7.08 10.81
11/12/2020 7:00:00 AM 10.45 50.81 0.037 6.57 7.18 10.84
11/12/2020 7:15:00 AM 10.4 50.72 0.037 6.59 7.1 10.87
11/12/2020 7:30:00 AM 10.36 50.648 0.037 6.59 6.98 10.87
11/12/2020 7:45:00 AM 10.32 50.576 0.037 6.51 7.22 10.85
11/12/2020 8:00:00 AM 10.28 50.504 0.037 6.53 6.77 10.82
11/12/2020 8:15:00 AM 10.24 50.432 0.037 6.56 7.56 10.94
11/12/2020 8:30:00 AM 10.2 50.36 0.037 6.6 6.8 11
11/12/2020 8:45:00 AM 10.17 50.306 0.037 6.62 6.77 11.05
11/12/2020 9:00:00 AM 10.14 50.252 0.037 6.6 6.74 11.01
11/12/2020 9:15:00 AM 10.12 50.216 0.037 6.56 6.7 10.98
11/12/2020 9:30:00 AM 10.09 50.162 0.037 6.61 6.68 11.08
11/12/2020 9:45:00 AM 10.08 50.144 0.037 6.6 6.6 11.03
11/12/2020 10:00:00 AM 10.07 50.126 0.037 6.62 6.62 11.12
11/12/2020 10:15:00 AM 10.04 50.072 0.037 6.61 6.63 11.1
11/12/2020 10:30:00 AM 10.04 50.072 0.037 6.57 6.69 11.04
11/12/2020 10:45:00 AM 10.04 50.072 0.037 6.48 6.64 11.01
11/12/2020 11:00:00 AM 10.03 50.054 0.037 6.54 6.68 11.04
11/12/2020 11:15:00 AM 10.02 50.036 0.037 6.51 6.57 11.04
11/12/2020 11:30:00 AM 10.03 50.054 0.037 6.53 6.6 11.05
11/12/2020 11:45:00 AM 10.03 50.054 0.037 6.54 6.61 11.01
11/12/2020 12:00:00 PM 10.04 50.072 0.037 6.56 6.64 11.04
11/12/2020 12:15:00 PM 10.03 50.054 0.037 6.54 6.63 10.99
11/12/2020 12:30:00 PM 10.01 50.018 0.037 6.43 6.65 10.88
11/12/2020 12:45:00 PM 10 50 0.037 6.46 6.88 10.93
11/12/2020 1:00:00 PM 9.99 49.982 0.037 6.47 6.58 10.89
11/12/2020 1:15:00 PM 10.01 50.018 0.037 6.46 6.6 10.85
11/12/2020 1:30:00 PM 10 50 0.037 6.47 6.62 10.86
11/12/2020 1:45:00 PM 9.99 49.982 0.037 6.4 6.74 10.85
11/12/2020 2:00:00 PM 9.98 49.964 0.037 6.44 6.7 10.85
11/12/2020 2:15:00 PM 9.96 49.928 0.037 6.43 6.69 10.87
11/12/2020 2:30:00 PM 9.96 49.928 0.037 6.43 6.64 10.84
11/12/2020 2:45:00 PM 9.96 49.928 0.037 6.45 6.59 10.83
11/12/2020 3:00:00 PM 9.93 49.874 0.037 6.42 6.59 10.86
11/12/2020 3:15:00 PM 9.92 49.856 0.037 6.38 6.62 10.8
11/12/2020 3:30:00 PM 9.89 49.802 0.037 6.43 6.58 10.87
11/12/2020 3:45:00 PM 9.87 49.766 0.037 6.39 6.6 10.8
11/12/2020 4:00:00 PM 9.83 49.694 0.037 6.44 6.63 10.9
11/12/2020 4:15:00 PM 9.81 49.658 0.037 6.36 6.64 10.74
11/12/2020 4:30:00 PM 9.76 49.568 0.037 6.43 6.6 10.83
11/12/2020 4:45:00 PM 9.73 49.514 0.037 6.4 6.57 10.79
11/12/2020 5:00:00 PM 9.69 49.442 0.037 6.43 6.93 10.74
11/12/2020 5:15:00 PM 9.63 49.334 0.037 6.39 6.85 10.67
11/12/2020 5:30:00 PM 9.59 49.262 0.037 6.38 6.79 10.71
11/12/2020 5:45:00 PM 9.56 49.208 0.037 6.34 6.9 10.62
11/12/2020 6:00:00 PM 9.54 49.172 0.035 6.3 7.39 10.58
11/12/2020 6:15:00 PM 9.47 49.046 0.037 6.31 6.82 10.6
11/12/2020 6:30:00 PM 9.42 48.956 0.037 6.35 6.79 10.68
11/12/2020 6:45:00 PM 9.37 48.866 0.037 6.34 6.9 10.66
11/12/2020 7:00:00 PM 9.34 48.812 0.037 6.27 6.81 10.56
11/12/2020 7:15:00 PM 9.29 48.722 0.037 6.29 6.8 10.57
11/12/2020 7:30:00 PM 9.26 48.668 0.037 6.26 6.94 10.46
11/12/2020 7:45:00 PM 9.19 48.542 0.037 6.22 6.81 10.55
11/12/2020 8:00:00 PM 9.15 48.47 0.037 6.26 6.85 10.36
11/12/2020 8:15:00 PM 9.18 48.524 0.036 6.2 7.79 10.36
11/12/2020 8:30:00 PM 9.15 48.47 0.036 6.16 7.24 10.35
11/12/2020 8:45:00 PM 8.93 48.074 0.037 6.3 6.88 10.57
11/12/2020 9:00:00 PM 8.92 48.056 0.037 6.24 6.84 10.59
11/12/2020 9:15:00 PM 8.86 47.948 0.037 6.3 6.87 10.56
11/12/2020 9:30:00 PM 8.77 47.786 0.037 6.26 6.9 10.74
11/12/2020 9:45:00 PM 8.7 47.66 0.037 6.31 6.87 10.78
11/12/2020 10:00:00 PM 8.7 47.66 0.037 6.21 6.86 10.64
11/12/2020 10:15:00 PM 8.7 47.66 0.037 6.26 6.89 10.53
11/12/2020 10:30:00 PM 8.64 47.552 0.035 6.21 7.28 10.45
11/12/2020 10:45:00 PM 8.55 47.39 0.038 6.25 6.82 10.69
11/12/2020 11:00:00 PM 8.52 47.336 0.037 6.3 6.82 10.59
11/12/2020 11:15:00 PM 8.57 47.426 0.036 6.21 7.41 10.65
11/12/2020 11:30:00 PM 8.44 47.192 0.037 6.18 6.9 10.66
11/12/2020 11:45:00 PM 8.39 47.102 0.037 6.22 6.82 10.85
11/13/2020 12:00:00 AM 8.36 47.048 0.037 6.24 6.84 10.82
11/13/2020 12:15:00 AM 8.29 46.922 0.037 6.22 6.84 10.88
11/13/2020 12:30:00 AM 8.26 46.868 0.037 6.24 6.83 10.85
11/13/2020 12:45:00 AM 8.21 46.778 0.037 6.23 6.85 10.96
11/13/2020 1:00:00 AM 8.19 46.742 0.037 6.2 6.86 10.7
11/13/2020 1:15:00 AM 8.18 46.724 0.037 6.27 6.82 10.81
11/13/2020 1:30:00 AM 8.11 46.598 0.037 6.26 6.81 10.71
11/13/2020 1:45:00 AM 8.15 46.67 0.037 6.19 6.61 10.8
11/13/2020 2:00:00 AM 8.08 46.544 0.037 6.23 6.56 10.87
11/13/2020 2:15:00 AM 8.17 46.706 0.035 6.13 7.07 10.47
11/13/2020 2:30:00 AM 8.13 46.634 0.035 6.18 7.07 10.6
11/13/2020 2:45:00 AM 8.03 46.454 0.037 6.2 6.56 10.62
11/13/2020 3:00:00 AM 8.07 46.526 0.037 6.12 6.55 10.66
11/13/2020 3:15:00 AM 8.01 46.418 0.037 6.17 6.58 10.81
11/13/2020 3:30:00 AM 8 46.4 0.035 6.12 7.35 10.58
11/13/2020 3:45:00 AM 7.91 46.238 0.037 6.14 6.56 10.67
11/13/2020 4:00:00 AM 8.09 46.562 0.035 6.12 7.11 10.35
11/13/2020 4:15:00 AM 8.05 46.49 0.035 6.12 7.11 10.39
11/13/2020 4:30:00 AM 8.05 46.49 0.038 6.07 6.53 10.41
11/13/2020 4:45:00 AM 7.88 46.184 0.037 6.1 6.53 10.49
11/13/2020 5:00:00 AM 7.94 46.292 0.037 6.13 6.55 10.43
11/13/2020 5:15:00 AM 7.98 46.364 0.038 6.13 6.5 10.48
11/13/2020 5:30:00 AM 8.07 46.526 0.038 6.1 6.51 10.67
11/13/2020 5:45:00 AM 8.04 46.472 0.035 6.11 6.96 10.33
11/13/2020 6:00:00 AM 7.97 46.346 0.037 6.16 6.52 10.29
11/13/2020 6:15:00 AM 7.9 46.22 0.037 6.14 6.52 10.36
11/13/2020 6:30:00 AM 8.04 46.472 0.038 6.19 6.47 10.37
11/13/2020 6:45:00 AM 7.91 46.238 0.037 6.07 6.49 10.41
11/13/2020 7:00:00 AM 7.84 46.112 0.037 6 6.78 10.53
11/13/2020 7:15:00 AM 8 46.4 0.037 6.01 6.6 10.5
11/13/2020 7:30:00 AM 8.05 46.49 0.038 6.08 6.61 10.52
11/13/2020 7:45:00 AM 8.06 46.508 0.038 6.09 6.55 10.41
11/13/2020 8:00:00 AM 8.06 46.508 0.038 6.14 6.54 10.4
11/13/2020 8:15:00 AM 8.17 46.706 0.038 6.12 6.55 10.41
11/13/2020 8:30:00 AM 8.08 46.544 0.038 6.17 6.51 10.62
11/13/2020 8:45:00 AM 8 46.4 0.035 6.12 7.03 10.26
11/13/2020 9:00:00 AM 8.05 46.49 0.035 6.13 6.96 10.15
11/13/2020 9:15:00 AM 8.07 46.526 0.035 6.14 7.19 10.28
11/13/2020 9:30:00 AM